Aviation Digital Data Service (ADDS)

Output produced by METARs form (1611 UTC 01 August 2015)
found at http://aviationweather.gov/adds/metars/
 
K04V 011554Z AUTO 26003KT 10SM BKN110 18/10 A3045 RMK AO2
K04W 011553Z AUTO 26006KT 10SM CLR 25/13 A2995 RMK AO2
K06D 011555Z AUTO 21011KT 10SM 22/14 A2990 RMK AO2
K08D 011555Z AUTO 15009KT 10SM CLR 25/14 A2992 RMK AO2
K0A9 011555Z AUTO 29006KT 10SM CLR 26/15 A3007 RMK
K0CO 011555Z AUTO 01007KT 330V030 10SM CLR 10/05 A3076 RMK AO2
K0E0 011555Z AUTO 36005KT 10SM 21/14 A3034 RMK AO2 T02110135
K0F2 011555Z AUTO 20004KT 10SM BKN070 BKN100 29/17 A3012 RMK AO2 T02880174
K0J4 011558Z AUTO 04007KT 10SM CLR 31/23 A2993 RMK AO2 SLP129 T03060233
K0S9 011555Z AUTO 00000KT 10SM CLR 21/13 A3003 RMK AO2
K0V4 011555Z AUTO 01004KT 10SM CLR 31/17 A2995 RMK AO1 T03050174
K11R 011555Z AUTO 07004KT 10SM CLR 31/20 A3004 RMK AO2 T03110202
K12N 011554Z AUTO VRB06KT 27/17 A2984 RMK AO1 SLP095 T02720172
K14Y 011559Z AUTO 27005KT 10SM CLR 25/12 A2998 RMK AO2
K18A 011555Z AUTO 06004KT 10SM BKN060 BKN085 30/17 A3001 RMK AO2 T02990168
K19A 011555Z AUTO 12004KT 10SM BKN050 BKN095 27/18 A3002 RMK AO2
K1A5 011555Z AUTO 33004KT 26/12 A3010 RMK AO2 T02610123 PWINO
K1A6 011555Z AUTO 00000KT 10SM CLR 27/19 A3006 RMK AO2 T02740185
K1A9 011555Z AUTO 06004KT 10SM CLR 29/20 A2993 RMK AO2 T02900195
K1B7 011600Z 02010KT 10SM FEW060 30/24 A2992
K1F0 011550Z AUTO 00000KT 10SM SCT070 28/18 A3010 RMK AO2
K1H2 011555Z AUTO 35004KT 10SM CLR 28/10 A3008 RMK AO2 T02810095
K1J0 011558Z AUTO VRB04KT 10SM FEW020 30/24 A2991 RMK AO2 SLP087 T03000244
K1K1 011555Z AUTO 00000KT 10SM CLR 27/22 A3010 RMK AO2 T02710217
K1L0 011555Z AUTO 35006KT CLR 31/20 A2995 RMK AO2 T03070196 PWINO
K1M4 011556Z AUTO 02007KT 340V060 10SM CLR 29/20 A3007 RMK AO2 T02880200 SLP194
K1P1 011555Z AUTO 29008G14KT 10SM CLR 25/18 A2974 RMK AO2 LTG DSNT NW T02500176
K1QW 011556Z AUTO 28024G28KT M /// /// M 26/02 A3000 RMK AO2 PK WND 27029/03 SLP133 T02560017 $
K1R7 011555Z AUTO 03009G14KT CLR 29/17 A3001 RMK AO2
K1S5 011555Z AUTO 00000KT 10SM CLR 22/10 A2994 RMK AO2 T02150096
K1V4 011554Z AUTO 25/12 A2971 RMK AO1 SLP052 T02500122
K1V6 011550Z AUTO 29006KT 10SM CLR 27/12 A3020 RMK AO2
K1YT 011556Z AUTO 36002KT 10SM CLR 26/03 A2996 RMK AO2 SLPNO T02570027 $
K20U 011555Z AUTO 31007KT 10SM CLR 27/10 A2997 RMK AO2
K20V 011556Z AUTO 00000KT 10SM CLR 21/06 A3040 RMK AO2
K21D 011554Z AUTO 19003KT 10SM CLR 25/15 A2998 RMK AO2
K28J 011535Z AUTO 22007KT 10SM FEW028 SCT035 BKN047 28/25 A2996 RMK AO2 TSNO
K2C8 011555Z AUTO 23006KT 10SM CLR 24/12 A2987 RMK AO2
K2D5 011555Z AUTO 11009KT 10SM 27/17 A2991 RMK AO2
K2DP 011556Z AUTO 15010KT 10SM VCTS SCT075 28/22 A2994 RMK AO2 LTG DSNT S RAB32E35SHRAB35E47 SLPNO T02790221 $
K2G4 011605Z AUTO 32006KT 10SM SCT033 SCT039 BKN047 20/18 A3004 RMK AO1
K2G9 011555Z AUTO 31006KT 10SM SCT043 SCT050 BKN065 21/11 A3000 RMK AO2
K2I0 011555Z AUTO 36005KT 10SM CLR 29/18 A3005 RMK AO2 T02880184
K2J9 011555Z AUTO 10SM 30/24 A2992 RMK AO1
K2V5 011555Z AUTO 19007KT 10SM CLR 30/17 A3012 RMK AO2 T03010169
K2W6 011603Z AUTO 00000KT 10SM CLR 30/18 A2992 RMK AO1
K2WX 011556Z AUTO 31012KT 32/03 A2991 RMK AO1 SLP100 T03170028
K33V 011555Z AUTO 00000KT 10SM CLR 21/07 A3041 RMK AO2
K36U 011555Z AUTO 00000KT 1 1/2SM HZ VV007 17/02 A3028 RMK AO2
K3AU 011555Z AUTO 22003KT 10SM SCT020 27/22 A3010 RMK AO2
K3D2 011555Z AUTO 21003KT 10SM CLR 22/14 A2989 RMK AO2 T02150143
K3J7 011555Z AUTO 09003KT 10SM BKN044 BKN050 BKN065 29/16 A2997 RMK AO2
K3K3 011555Z AUTO 16009KT 10SM CLR 28/19 A3012 RMK AO2 PWINO
K3LF 011555Z AUTO 15004KT 10SM CLR 27/15 A3007 RMK AO2 T02680146
K3N8 011555Z AUTO 24003KT 10SM CLR 23/13 A2994 RMK AO2 T02270132
K3R7 011555Z AUTO 07008G14KT 10SM CLR 31/19 A2999 RMK AO2 T03080189
K3T5 011555Z AUTO 09005KT 10SM CLR 32/20 A3001 RMK AO2 T03180200
K40B 011519Z AUTO 20007G13KT 170V230 20/14 A2967 RMK AO1 SLP044 T01990139 56008
K40J 011555Z AUTO 20004KT 10SM SCT017 BKN090 29/25 A2991 RMK AO2 T02870253
K42J 011555Z AUTO 23008KT 3/4SM OVC001 24/24 A2997 RMK AO1 TSNO
K49A 011555Z AUTO 02005KT 10SM CLR A3008 RMK AO2
K4A6 011555Z AUTO 05008KT 10SM CLR 29/19 A3004 RMK AO2
K4A7 011555Z AUTO 07008KT 10SM SCT031 BKN039 BKN050 31/20 A3000 RMK AO2 T03060199
K4A9 011555Z AUTO 05012G18KT 10SM CLR 30/12 A3003 RMK AO2
K4BM 011555Z AUTO 33004KT 10SM CLR 15/03 A3068 RMK AO2
K4I3 011556Z AUTO 28011G17KT 10SM SCT060 26/13 A3000 RMK AO2
K4I7 011555Z AUTO 36004KT 7SM CLR 25/08 A3006 RMK AO2
K4M9 011455Z AUTO 33004KT 10SM CLR 28/21 A3005 RMK AO2
K4MR 011556Z AUTO M 10SM SCT019 BKN140 24/19 A3022 RMK AO2 SLP176 T02350192 $
K4O4 011555Z AUTO 13006KT 10SM CLR 31/16 A3008 RMK AO2
K54J 011555Z AUTO 05008KT 10SM CLR 30/23 A2992 RMK AO2 T02970233
K5A6 011555Z AUTO 04009G17KT 10SM CLR 29/19 A3002 RMK AO2 T02930187
K5C1 011555Z AUTO 09005KT 10SM CLR 28/21 A3008 RMK AO1
K5H4 011555Z AUTO 15005KT 10SM CLR 25/15 A2990 RMK AO2
K5M9 011555Z AUTO 01005KT 10SM CLR 28/20 A3006 RMK AO2 T02780195
K5R8 011555Z AUTO 09004KT 10SM CLR 31/19 A3000 RMK AO2 T03070193
K5SM 011553Z AUTO 00000KT 10SM CLR 17/07 A3066 RMK AO2 LTG DSNT SW
K5T9 011555Z AUTO 12008KT 10SM CLR 31/21 A3002 RMK A01
K65S 011555Z AUTO 00000KT 10SM CLR 20/05 A3001 RMK AO2
K66R 011555Z AUTO 07006KT 10SM CLR 32/19 A3000 RMK AO2 T03190187
K6A1 011555Z AUTO 04005KT 10SM 33/26 A2996 RMK AO2 T03290257
K6A2 011555Z AUTO 08003KT 10SM BKN027 BKN035 30/22 A2999 RMK AO2
K6B0 011555Z AUTO 23007KT 10SM SCT070 SCT110 26/12 A2976 RMK AO2 T02630122
K6I2 011550Z AUTO 00000KT 10SM CLR 28/17 A3004 RMK AO2
K6L4 011555Z AUTO 00000KT 10SM CLR 25/17 A3002 RMK AO2
K6R3 011555Z AUTO 09003KT 10SM CLR 31/22 A3002 RMK AO2 T03100218
K6R6 011553Z AUTO 08008KT 32/19 A3006 RMK AO1 SLP136 T03170194
K79J 011556Z AUTO 04004KT 10SM CLR 33/23 A2991 RMK AO2 SLP124 T03330233
K7BM 011554Z AUTO 09004KT 10SM CLR 20/08 A3055 RMK AO2
K7L2 011555Z AUTO 17012KT 10SM CLR 28/19 A2988 RMK AO2
K7N0 011555Z AUTO 01004KT 10SM CLR 30/20 A2995 RMK AO1
K7R3 011500Z 04003KT 10SM CLR 29/20 A2995
K7W4 011555Z AUTO 00000KT 10SM CLR 30/17 A2992 RMK AO1 T02980174
K82C 011555Z AUTO 00000KT 10SM SCT055 SCT070 24/12 A2997 RMK AO2 T02430118
K82V 011555Z AUTO 21011G14KT 10SM CLR 26/12 A3017 RMK AO2
K8A0 011555Z AUTO 05010G18KT 019V079 10SM CLR 30/20 A3002 RMK AO2
K8D3 011556Z AUTO 15009KT 24/16 A2993 RMK AO1 SLP121 T02440161
K8S0 011540Z 23005KT
K8W2 011555Z AUTO 24007KT 10SM SCT070 SCT080 28/17 A2993 RMK AO1 T02790170
K96D 011555Z AUTO 10SM CLR 24/12 A2987 RMK AO2
K9A5 011555Z AUTO 03008KT 10SM CLR 30/05 A3004 RMK AO2 T03030052
K9D7 011535Z AUTO 21007KT 10SM CLR 24/13 A2990 RMK AO2
K9F2 011026Z 02005KT 7SM SKC 27/25 A2985
K9L2 011455Z AUTO 21005KT 10SM CLR 24/10 A3002 RMK AO2 SLP143 T02440100 51010 $
K9MN 011553Z AUTO 31004KT 10SM CLR 23/17 A3000 RMK AO1 T02300170
K9V9 011555Z AUTO 22007KT 10SM CLR 24/17 A2996 RMK AO2 T02410169
KA08 011555Z AUTO 02007KT 340V050 10SM CLR 29/18 A2995 RMK AO2 T02860179 PWINO
KAAA 011555Z AUTO 19003KT 10SM CLR 29/15 A3005 RMK AO2 T02860154
KAAF 011553Z AUTO 15006KT 10SM FEW018 BKN060 OVC090 31/24 A2989 RMK AO2 LTG DSNT SE RAB11E27 SLP121 P0003 T03060244 $
KAAO 011554Z AUTO 22003KT 10SM FEW020 28/22 A3010 RMK AO2 SLP177 T02830217 $
KAAT 011555Z AUTO 00000KT 10SM CLR 24/06 A3015 RMK AO2 SLP158 T02390056
KABE 011551Z 25013G18KT 10SM CLR 28/18 A2984 RMK AO2 SLP103 T02830178
KABH 011556Z AUTO 18006KT 10SM CLR A3025 RMK AO2 SLPNO $
KABI 011552Z 08009KT 10SM FEW085 29/20 A3012 RMK AO2 SLP172 T02890200
KABQ 011552Z 29004KT 10SM FEW070 SCT140 BKN220 23/13 A3029 RMK AO2 SLP175 T02280133
KABR 011553Z AUTO 17007KT 10SM BKN110 27/18 A2991 RMK AO2 SLP120 T02670183
KABY 011600Z 08006KT 10SM OVC010 28/24 A2994 RMK AO2 T02780244
KACB 011555Z AUTO 26008KT 10SM SCT031 SCT036 23/14 A2988 RMK AO2 T02310135
KACJ 011555Z AUTO 04003KT 10SM BKN013 27/25 A2996 RMK AO2
KACK 011553Z 21013KT 10SM CLR 26/21 A2980 RMK AO2 SLP091 T02560206 $
KACP 011555Z AUTO 08005KT 10SM CLR 32/19 A3000 RMK AO2 T03150193
KACQ 011555Z AUTO 25003KT 10SM CLR 23/18 A3002 RMK AO2
KACT 011551Z 09010KT 10SM SCT110 32/16 A3007 RMK AO2 SLP173 T03220161
KACV 011553Z AUTO 34009KT 10SM OVC008 16/14 A2998 RMK AO2 SLP158 T01610144
KACY 011554Z 26009KT 10SM CLR 31/18 A2985 RMK AO2 SLP108 T03110183
KADC 011553Z AUTO 28004KT 10SM CLR 25/12 A2996 RMK AO2
KADF 011556Z AUTO 00000KT 10SM CLR 32/20 A3007 RMK AO2 T03220200 SLP195
KADG 011553Z AUTO 30010KT 10SM CLR 26/13 A2997 RMK AO2 SLP145 T02560133
KADH 011555Z AUTO 18005KT 10SM OVC120 27/19 A3011 RMK AO2
KADM 011555Z 16005KT 10SM BKN070 BKN110 29/21 A3010 RMK RWY 35 / ATIS Q
KADS 011547Z 12008KT 13SM BKN110 BKN300 31/15 A3010
KADU 011555Z AUTO 23005KT 10SM CLR 23/21 A3006 RMK AO2
KADW 011558Z AUTO 30006KT 10SM SCT095 BKN180 30/16 A2990 RMK AO2 SLP129 T02950164
KAEG 011448Z 00000KT 10SM SCT130 21/14 A3033
KAEJ 011555Z AUTO 00000KT 10SM CLR 20/08 A3042 RMK AO2 T01950075
KAEL 011555Z AUTO 30006KT 10SM CLR 24/18 A3001 RMK AO2
KAEX 011553Z 06005KT 10SM CLR 32/18 A3000 RMK AO2 SLP159 T03170183
KAFF 011558Z AUTO VRB02KT 10SM CLR 23/14 A3028 RMK AO2 SLP161 T02270136
KAFK 011555Z AUTO 03008KT 10SM CLR 24/18 A3006 RMK AO2 T02350179
KAFN 011552Z AUTO 29008KT 10SM CLR 26/14 A2979 RMK AO2 SLP087 T02560139
KAFO 011555Z AUTO 00000KT 10SM CLR 15/05 A3033 RMK AO2 TSNO
KAFP 011555Z AUTO 33006KT 10SM CLR 32/11 A2997 RMK AO2 T03210112
KAFW 011553Z VRB05KT 10SM BKN095 BKN300 32/17 A3008 RMK AO2 SLP169 T03170167
KAGC 011553Z 32007KT 280V340 10SM SCT055 26/09 A2995 RMK AO2 SLP137 T02560094
KAGS 011553Z VRB04KT 10SM CLR 31/22 A2995 RMK AO2 SLP140 T03060217
KAHN 011551Z 04008KT 9SM FEW047 30/18 A3001 RMK AO2 SLP153 T03000178
KAHQ 011555Z AUTO 24005KT 10SM CLR 25/17 A3002 RMK AO2 T02510174
KAIA 011553Z AUTO 23008KT 10SM CLR 29/15 A3008 RMK AO2 SLP139 T02890150
KAIB 011555Z AUTO 00000KT 10SM SCT100 22/09 A3034 RMK AO2 LTG DSNT S
KAID 011547Z 31003KT 10SM CLR 25/10 A3004 RMK AO2
KAIG 011550Z AUTO 31010KT 10SM CLR 22/13 A2995 RMK AO2 T02200128
KAIK 011555Z AUTO 08008KT 10SM CLR 31/15 A3000 RMK AO2
KAIO 011555Z AUTO 21004KT 9SM CLR 22/21 A3006 RMK AO2
KAIT 011553Z AUTO 25003KT 10SM CLR 24/14 A2994 RMK AO2
KAIZ 011555Z AUTO 27004KT 10SM CLR 29/22 A3008 RMK AO1
KAJG 011555Z AUTO 36005KT 10SM CLR 28/12 A3006 RMK AO2
KAJO 011606Z AUTO 00000KT 5SM BR SCT008 SCT048 21/18 A3000 RMK AO2 $
KAJZ 011555Z AUTO 00000KT 7SM CLR 27/09 A3025 RMK AO2 T02660086
KAKH 011554Z AUTO 09007KT 050V110 10SM CLR 32/12 A3000 RMK AO2 SLP149 T03170122
KAKO 011553Z AUTO 18010KT 10SM CLR 28/14 A3016 RMK AO2 SLP144 T02830144 $
KAKQ 011554Z AUTO 00000KT 10SM CLR 31/17 A2993 RMK AO2 SLP132 T03110167 TSNO $
KAKR 011554Z AUTO 32009G16KT 10SM FEW060 27/12 A2996 RMK AO2 SLP135 T02720122 $
KALB 011551Z 31009KT 10SM SCT042TCU SCT075 27/16 A2979 RMK AO2 SLP087 TCU SE T02720156
KALI 011553Z AUTO VRB03KT 10SM CLR 32/22 A2998 RMK AO2 SLP148 T03220222 $
KALK 011556Z AUTO 06006KT 10SM CLR 26/17 A3020 RMK AO2 SLP137 T02610167
KALM 011555Z AUTO 18005KT 10SM CLR 27/14 A3020 RMK AO2
KALN 011559Z 11005KT 10SM SCT250 27/16 A3007
KALO 011554Z AUTO 27012KT 10SM CLR 28/21 A2999 RMK AO2 SLP152 T02780206
KALS 011552Z AUTO 00000KT 10SM CLR 19/10 A3041 RMK AO2 SLP205 T01940100 $
KALW 011553Z 23010KT 10SM CLR 31/02 A2995 RMK AO2 SLP129 T03110022
KALX 011555Z AUTO 00000KT 10SM CLR 30/20 A2997 RMK AO2 T03030199
KAMA 011553Z 13008KT 10SM CLR 22/18 A3019 RMK AO2 RAE1457 SLP174 P0000 T02170178
KAMG 011553Z AUTO 08005KT 10SM BKN017 28/24 A2994 RMK AO2 SLP135 T02780239
KAMN 011551Z AUTO 27012G18KT 10SM SCT050 SCT080 26/13 A2991 RMK AO2 T02560128
KAMW 011553Z AUTO 24009KT 10SM CLR 26/21 A3003 RMK AO2 SLP160 T02610211
KANB 011553Z AUTO 06011G19KT 10SM CLR 31/16 A2999 RMK AO2 SLP144 T03060156
KAND 011556Z AUTO 07009KT 10SM BKN065 BKN080 31/16 A3000 RMK AO2 SLP146 T03060156
KANE 011545Z 00000KT 10SM SKC 26/13 A2997
KANJ 011555Z AUTO 28009KT 10SM CLR 20/14 A2983 RMK AO2 SLP100 T02000139
KANK 011535Z AUTO 01004KT 10SM CLR 20/10 A3046 RMK AO1 T01990095
KANQ 011555Z AUTO VRB06KT 10SM CLR 27/14 A2999 RMK
KANW 011555Z AUTO 19011KT 5SM -RA SCT017 BKN026 OVC100 16/15 A3017 RMK AO2 LTG DSNT ALQS P0091 T01550150
KAOH 011553Z AUTO 32007KT 10SM CLR 26/13 A3000 RMK AO2 SLP151 T02560133
KAOO 011553Z AUTO 27006KT 10SM FEW047 BKN060 OVC090 24/13 A2996 RMK AO2 SLP135 T02390128
KAPA 011553Z VRB04KT 10SM FEW140 FEW220 25/09 A3022 RMK AO2 SLP158 T02500094
KAPC 011554Z 28010KT 10SM OVC014 17/14 A3002 RMK AO2 SLP158 T01670139
KAPF 011553Z 14005KT 9SM FEW029 30/27 A3000 RMK AO2 SLP158 T03000267 $
KAPN 011554Z AUTO VRB06KT 10SM SCT036 24/14 A2985 RMK AO2 SLP107 T02440139 $
KAPY 011555Z AUTO 07006KT 10SM CLR 33/17 A2998 RMK AO2 T03320174
KAQO 011555Z AUTO 10006KT 10SM SCT060 33/16 A3010 RMK AO2
KAQP 011554Z AUTO 16004KT 7SM CLR 25/17 A2996 RMK AO2
KAQR 011555Z AUTO 20004KT SCT120 30/18 A3010 RMK AO2
KAQV 011556Z AUTO 07008KT 10SM CLR 32/17 A3001 RMK AO2 SLP158 T03220172
KAQW 011552Z AUTO VRB05KT 10SM BKN047 26/16 A2979 RMK AO2 SLP086 T02560156
KAQX 011555Z AUTO 35004KT 10SM BKN100 28/24 A2995 RMK AO2
KARA 011553Z 05008KT 10SM CLR 32/18 A2998 RMK AO2 SLP150 T03170183
KARB 011553Z 26008KT 10SM CLR 26/13 A2994 RMK AO2 SLP134 T02560133
KARG 011555Z AUTO 05006KT 10SM CLR 30/19 A3005 RMK AO1
KARM 011555Z AUTO 08007KT 030V110 10SM CLR 32/17 A2998 RMK AO2 T03230172
KARR 011552Z 25008KT 10SM SCT080 BKN090 BKN110 26/16 A3002 RMK AO2 SLP161 T02610156
KART 011556Z AUTO 23009KT 10SM CLR 23/15 A2980 RMK AO2 SLP088 T02330150
KARV 011550Z AUTO 31007G14KT 10SM SCT044 22/13 A2994 RMK AO2 T02220132
KARW 011555Z AUTO 00000KT 5SM HZ BKN020 BKN027 30/25 A2994 RMK AO2 LTG DSNT E
KASD 011553Z AUTO 02010KT 10SM CLR 30/22 A2993 RMK AO2 SLP136 T03000217
KASE 011553Z 00000KT 10SM FEW110 21/07 A3040 RMK AO2 SLP166 T02060067
KASG 011548Z 15003KT 10SM SKC 29/19 A3014
KASH 011601Z VRB04KT 10SM BKN100 BKN120 27/18 A2975 RMK AO2 SLP082 T02670178
KASJ 011555Z AUTO 00000KT 10SM SCT060 30/16 A2993 RMK AO2 T03010163
KASL 011555Z AUTO 08007KT 050V110 10SM CLR 32/19 A3007 RMK AO1 T03220186
KASN 011555Z AUTO 04008KT 10SM CLR 31/15 A3000 RMK AO2 T03090150
KAST 011555Z AUTO 00000KT 10SM OVC007 16/14 A3000 RMK AO2 SLP159 T01610139
KASW 011555Z AUTO 32006KT 10SM CLR 26/13 A3001 RMK AO2
KASX 011553Z AUTO 31009KT 10SM CLR 24/13 A2992 RMK AO2 SLP131 T02390128
KATL 011552Z 09013G20KT 10SM BKN043 27/16 A3001 RMK AO2 SLP152 T02670156 $
KATP 011555Z AUTO 26011KT 10SM CLR 29/24 A2995 RMK A01
KATS 011555Z AUTO 00000KT 10SM CLR 28/18 A3017 RMK AO2
KATT 011551Z AUTO VRB03KT 10SM CLR 32/17 A3005 RMK AO2 SLP160 T03170167
KATW 011545Z 30010KT 10SM SCT050 24/08 A2995
KATY 011553Z AUTO 17007KT 10SM CLR 27/18 A2996 RMK AO2 SLP135 T02720178
KAUG 011553Z AUTO 26009KT 10SM CLR 27/16 A2970 RMK AO2 SLP056 T02670161
KAUH 011555Z AUTO 10004KT 10SM SCT110 21/17 A3008 RMK AO2 T02070173
KAUM 011556Z AUTO 28009KT 10SM CLR 25/18 A3001 RMK AO2
KAUN 011555Z AUTO 17003KT 10SM FEW120 23/10 A3001 RMK AO1
KAUO 011555Z AUTO 07005KT 10SM SCT060 29/22 A2998 RMK AO1
KAUS 011553Z 08007KT 10SM FEW200 SCT250 31/17 A3003 RMK AO2 SLP157 T03110172 $
KAUW 011554Z AUTO 32011G19KT 10SM CLR 24/09 A2994 RMK AO2 SLP139 T02440089
KAVC 011556Z AUTO 28004KT 10SM CLR 30/19 A3001 RMK AO2 T02970188
KAVK 011555Z AUTO 18007KT 9SM CLR 28/20 A3009 RMK AO2
KAVL 011554Z 33016G21KT 10SM CLR 28/12 A3009 RMK AO2 SLP160 T02780117
KAVP 011554Z VRB04KT 10SM FEW037 SCT045 26/16 A2986 RMK AO2 SLP101 T02610156
KAVQ 011555Z AUTO 12007KT 10SM CLR 30/17 A3000 RMK AO2 T02960171
KAVX 011551Z AUTO VRB04KT 10SM OVC004 17/16 A3004 RMK AO2 SLP157 T01670156
KAWG 011555Z AUTO 22007KT 10SM CLR 26/18 A3005 RMK AO2
KAWM 011553Z AUTO VRB03KT 10SM CLR 32/22 A3004 RMK AO2 SLP166 T03170217 $
KAWO 011555Z AUTO 00000KT 10SM CLR 19/09 A3004 RMK AO1
KAXA 011555Z AUTO 24010KT 10SM CLR 27/22 A3002 RMK AO2
KAXH 011555Z AUTO 06008KT 10SM CLR 33/18 A2999 RMK AO2 T03250180
KAXN 011553Z AUTO 21004KT 10SM CLR 25/12 A2999 RMK AO2 SLP150 T02500117
KAXO 011045Z 02008KT 7SM SKC 30/26 A2982
KAXS 011555Z AUTO 23003KT 25/21 A3013 RMK AO2 T02530214 PWINO
KAXV 011550Z AUTO 29007KT 10SM CLR 26/12 A3001 RMK AO2
KAXX 011555Z AUTO 27005KT 10SM BKN026 18/12 A3047 RMK AO2 T01750119
KAYS 011555Z AUTO 09004KT 10SM SCT013 SCT030 BKN055 30/27 A2993 RMK AO2 T03010269
KAZC 011555Z AUTO 13003KT 10SM CLR 24/17 A3023 RMK AO2 T02410169
KAZE 011555Z AUTO 01005KT 10SM BKN025 BKN035 BKN044 31/24 A2993 RMK AO2 T03050242
KAZO 011553Z 28009KT 10SM CLR 27/13 A2997 RMK AO2 SLP143 T02670133
KBAB 011558Z AUTO 19009KT 10SM CLR 22/13 A2995 RMK AO2 SLP144 T02150128 $
KBAC 011555Z AUTO 15008KT 10SM CLR 25/14 A2991 RMK AO2
KBAD 011558Z AUTO 09011KT 10SM CLR 32/17 A3004 RMK AO2 SLP173 T03220173
KBAF 011553Z 28007KT 260V330 10SM CLR 28/15 A2977 RMK AO2 SLP078 T02830150
KBAK 011554Z 34006KT 10SM FEW030 26/09 A3004
KBAN 011452Z AUTO 00000KT 10SM FEW080 11/05 A3032 RMK AO2 SLP176 T01110050 50005 $
KBAX 011555Z AUTO 29008G15KT 10SM SCT038 SCT110 23/14 A2990 RMK AO2 T02340137
KBAZ 011551Z 12007KT 10SM CLR 33/20 A3002 RMK AO2 SLP154 T03280200
KBBB 011554Z AUTO 20003KT 10SM CLR 26/14 A2997 RMK AO2
KBBD 011555Z AUTO 06005KT 10SM SCT047 32/16 A3010 RMK
KBBF 011555Z AUTO 04012KT 9SM CLR 30/24 A2996 RMK A01
KBBG 011545Z 00000KT 10SM SKC 29/18 A3013
KBBP 011555Z AUTO 09007KT 10SM CLR 34/15 A2995 RMK AO2
KBBW 011553Z AUTO 13011G21KT 10SM CLR 26/14 A3012 RMK AO2 SLP176 T02560139
KBCB 011555Z AUTO 31007G15KT 260V340 10SM CLR 26/15 A3008 RMK AO2 T02620149
KBCE 011553Z AUTO 00000KT 10SM CLR 19/07 A3040 RMK AO2 SLP176 T01890072
KBCK 011555Z AUTO 30003KT 10SM SCT060 25/10 A2997 RMK AO2 T02510102
KBCT 011448Z 16010KT 10SM FEW027 FEW032 30/25 A3001
KBDE 011553Z AUTO 26010KT 10SM CLR 24/11 A2987 RMK AO2 SLP114 T02390106 TSNO
KBDG 011555Z AUTO 00000KT 10SM OVC070 20/15 A3038 RMK AO1 T02030150
KBDH 011556Z AUTO 17003KT 10SM CLR 26/16 A2999 RMK AO2
KBDL 011551Z 28006KT 10SM FEW040 FEW110 SCT250 29/16 A2977 RMK AO2 SLP078 T02940161
KBDN 011555Z AUTO 00000KT 10SM CLR 25/04 A3011 RMK AO2
KBDR 011552Z 22012KT 10SM BKN110 28/19 A2979 RMK AO2 SLP087 T02780189 $
KBDU 011559Z AUTO 00000KT 10SM CLR 25/09 A3017 RMK AO2
KBEA 011555Z AUTO 00000KT 10SM CLR 30/25 A2999 RMK AO2 T03020254
KBED 011556Z 25005KT 10SM SCT100 29/16 A2974 RMK AO2 SLP080 T02890161
KBEH 011553Z AUTO 28009KT 10SM CLR 26/14 A2998 RMK AO2 SLP149 T02560144
KBFD 011553Z AUTO 30012G18KT 10SM SCT043 23/12 A2995 RMK AO2 SLP127 T02280117 TSNO
KBFF 011553Z AUTO VRB03KT 10SM CLR 27/15 A3009 RMK AO2 SLP141 T02670150
KBFI 011553Z 32005KT 10SM CLR 22/10 A3002 RMK AO2 SLP166 T02170100
KBFL 011554Z VRB05KT 10SM CLR 28/11 A2997 RMK AO2 SLP140 T02830111
KBFM 011553Z 01008KT 10SM CLR 30/22 A2992 RMK AO2 SLP132 T03000222
KBFW 011555Z AUTO 30009G14KT 240V340 10SM CLR 25/11 A2987 RMK AO2
KBGD 011551Z AUTO 15005KT 10SM FEW060 BKN090 OVC110 22/20 A3016 RMK AO2 RAE19 SLP178 P0001 T02170200
KBGE 011555Z AUTO 10004KT 10SM OVC011 30/26 A2992 RMK AO2
KBGF 011555Z AUTO 05006KT 10SM FEW050 29/19 A3006 RMK
KBGM 011553Z 29007KT 10SM SCT043 SCT050 23/13 A2989 RMK AO2 SLP111 T02280133 $
KBGR 011553Z 19008KT 10SM FEW047 BKN110 28/16 A2968 RMK AO2 SLP045 T02780161
KBHB 011555Z AUTO 21011G16KT 10SM FEW075 SCT100 24/15 A2970 RMK AO1
KBHC 011555Z AUTO 16004KT 10SM SCT019 30/25 A2994 RMK AO2
KBHK 011551Z AUTO 31012KT 10SM CLR 30/07 A2999 RMK AO2 SLP127 T03000072
KBHM 011553Z 06015G19KT 10SM SCT250 31/16 A3001 RMK AO2 SLP153 T03060156
KBID 011555Z 24010KT 10SM 28/20 A2980 RMK AO1
KBIE 011555Z AUTO 00000KT 10SM CLR 25/17 A3008 RMK AO2 T02500166
KBIF 011558Z AUTO 36006KT 10SM CLR 28/14 A3015 RMK AO2 SLP136 T02810144 PNO $
KBIH 011556Z AUTO 00000KT 10SM CLR 27/08 A3013 RMK AO2 SLP149 T02720083
KBIJ 011555Z AUTO 09004KT 10SM BKN012 30/26 A2993 RMK AO2
KBIL 011553Z 22012KT 10SM SCT200 23/04 A3007 RMK AO2 SLP147 T02330044 $
KBIS 011552Z 19004KT 10SM CLR 27/15 A2988 RMK AO2 SLP108 T02670150
KBIV 011553Z AUTO 27008KT 10SM CLR 25/16 A2997 RMK AO2 SLP144 T02500156
KBIX 011558Z AUTO 03008KT 10SM CLR 30/22 A2991 RMK AO2 SLP131 T02990217
KBJC 011156Z AUTO 00000KT 10SM CLR 16/09 A3022 RMK AO2
KBJI 011552Z AUTO 26007KT 10SM CLR 23/12 A2993 RMK AO2 T02320119
KBJJ 011556Z AUTO 27009KT 10SM CLR 26/14 A2998 RMK AO2 SLP144 T02560139 TSNO
KBKB 011554Z AUTO VRB05KT 10SM CLR 31/18 A2999 RMK AO2 SLP180 T03110183
KBKD 011555Z AUTO 06006KT 10SM SCT050 SCT100 29/19 A3011 RMK AO2 T02880194
KBKE 011553Z AUTO 00000KT 10SM CLR 24/09 A3009 RMK AO2 SLP161 T02390094 TSNO
KBKF 011558Z 24006KT 10SM FEW080 FEW140 SCT220 25/11 A3021 RMK AO2A SLP152 T02490108
KBKL 011553Z 30008KT 10SM CLR 26/16 A2994 RMK AO2 SLP134 T02560156
KBKN 011555Z AUTO 18007KT 10SM CLR 29/22 A3011 RMK AO2
KBKS 011555Z AUTO 03004KT 10SM CLR 30/22 A2998 RMK AO1 T03040218
KBKT 011555Z AUTO 18005KT 10SM CLR 31/16 A2994 RMK AO1 T03050159
KBKV 011553Z 18004KT 10SM -RA FEW060 BKN080 OVC095 23/21 A3000 RMK AO2 LTG DSNT S RAE35B45 SLP156 P0006 T02330211
KBKW 011551Z AUTO 29008KT 250V320 10SM FEW035 BKN047 23/12 A3008 RMK AO2 SLP154 T02330122
KBKX 011555Z AUTO 18009KT 10SM CLR 26/21 A3000 RMK AO1
KBLF 011552Z AUTO 27011G16KT 10SM FEW043 24/12 A3011 RMK AO2 SLP158 T02440122
KBLH 011552Z AUTO 00000KT 10SM CLR 33/16 A2988 RMK AO2 SLP111 T03330156
KBLI 011553Z VRB03KT 10SM CLR 20/16 A3003 RMK AO2 SLP172 T02000156
KBLM 011555Z AUTO 26007KT 10SM BKN090 BKN120 28/18 A2984 RMK AO1
KBLU 011552Z AUTO VRB03KT 10SM SCT110 23/10 A3025 RMK AO2 SLP129 T02330100
KBLV 011558Z AUTO 06005KT 9SM FEW110 SCT140 SCT190 28/19 A3006 RMK AO2 SLP178 T02760193 $
KBMC 011555Z AUTO 00000KT 10SM CLR 23/04 A3016 RMK AO1 T02340036
KBMG 011553Z VRB04KT 10SM CLR 27/13 A3006 RMK AO2 SLP172 T02670133
KBMI 011556Z 30005KT 10SM CLR 28/14 A3007 RMK AO2 T02770138 SLP167
KBML 011552Z AUTO 00000KT 10SM BKN043 OVC055 24/13 A2974 RMK AO2 LTG DSNT N AND NW SLP068 T02390133
KBMQ 011553Z AUTO 10007KT 070V150 10SM CLR 31/15 A3010 RMK AO2 SLP172 T03110150
KBMT 011555Z AUTO 07004KT 10SM CLR 31/20 A3000 RMK AO2 T03110201
KBNA 011553Z 34004KT 10SM FEW040 31/19 A3004 RMK AO2 SLP165 T03060194
KBNL 011555Z AUTO 13003KT 10SM FEW065 29/24 A2996 RMK AO2
KBNO 011553Z AUTO VRB03KT 10SM CLR 26/00 A3014 RMK AO2 SLP158 T02560000
KBNW 011555Z AUTO 23010KT 10SM CLR 26/21 A3003 RMK AO2
KBOI 011553Z 15006KT 10SM CLR 29/03 A3005 RMK AO2 SLP138 T02890028
KBOK 011556Z AUTO 19003KT 10SM OVC003 16/16 A3000 RMK AO2 T01550155 SLP160
KBOS 011554Z 24009KT 10SM FEW090 BKN180 30/15 A2974 RMK AO2 SLP070 T03000150
KBOW 011555Z 21015G25KT 10SM VCSH SCT022 BKN080 29/24 A2999
KBPC 011555Z AUTO 22005KT 10SM -RA SCT028 BKN043 OVC050 21/20 A3015 RMK AO2 P0003
KBPG 011555Z AUTO 04008KT 10SM CLR 27/17 A3016 RMK AO2 T02740174
KBPI 011553Z AUTO 19003KT 10SM CLR 21/02 A3036 RMK AO2 SLP182 T02060022
KBPK 011553Z AUTO 22003KT 10SM CLR 28/21 A3009 RMK AO2 SLP178 T02830211
KBPT 011553Z 05010KT 10SM CLR 33/20 A2998 RMK AO2 SLP150 T03280200 $
KBQK 011555Z AUTO 00000KT 10SM SCT015 BKN021 BKN030 28/24 A2995 RMK AO1
KBQP 011555Z AUTO 05006KT 10SM CLR 31/18 A3004 RMK AO2 T03130182
KBQX 011555Z AUTO 04011KT 10SM CLR 30/24 A2997 RMK A01
KBRD 011553Z AUTO VRB03KT 10SM CLR 24/12 A2996 RMK AO2 SLP144 T02440117
KBRL 011553Z AUTO 19009KT 10SM CLR 27/18 A3004 RMK AO2 SLP166 T02670183
KBRO 011553Z 34007KT 10SM FEW028 SCT065 31/23 A2997 RMK AO2 SLP146 T03110228
KBTA 011555Z AUTO 31003KT 10SM CLR 23/18 A3004 RMK AO2 T02320184
KBTL 011553Z 28010KT 10SM CLR 27/13 A2997 RMK AO2 SLP142 T02670128 $
KBTM 011553Z AUTO 00000KT 10SM CLR 19/01 A3024 RMK AO2 SLP184 T01940011
KBTP 011555Z AUTO 30006KT 10SM SCT048 SCT080 24/13 A2998 RMK AO1
KBTR 011553Z 04008KT 10SM CLR 31/18 A2997 RMK AO2 SLP145 T03110183 $
KBTV 011605Z 30009KT 260V320 10SM TS FEW065 SCT100 27/14 A2974 RMK AO2 TSB1559 OCNL LTGCG NW TS NW T02720139
KBUF 011554Z 26013KT 10SM BKN047 BKN180 24/11 A2988 RMK AO2 SLP115 T02440106
KBUR 011553Z 17005KT 5SM HZ OVC008 21/17 A3000 RMK AO2 SLP145 T02060167 $
KBUU 011555Z AUTO 26005KT 10SM SCT065 SCT080 SCT090 25/12 A2998 RMK AO2 T02470122
KBUY 011554Z AUTO VRB04KT 10SM CLR 31/16 A2997 RMK AO2 SLP142 T03110156
KBVE 011551Z AUTO 35007KT 10SM CLR 31/23 A2992 RMK AO2 SLP132 T03060228
KBVI 011547Z 30009KT 10SM SCT046 BKN060 BKN075 25/13 A2996
KBVN 011555Z AUTO 21005KT 10SM SCT120 21/16 A3008 RMK AO2 LTG DSNT NW T02100161
KBVO 011553Z AUTO 00000KT 10SM CLR 29/22 A3008 RMK AO2 SLP175 T02940217
KBVS 011555Z AUTO 31007KT 10SM CLR 21/14 A3003 RMK A01
KBVU 011555Z AUTO 19012KT 5SM HZ FEW027 SCT046 BKN060 29/17 A3001 RMK AO2
KBVX 011555Z AUTO 00000KT 10SM CLR 29/23 A3007 RMK AO1
KBVY 011553Z 26007KT 10SM FEW050 BKN110 28/16 A2973 RMK AO2 SLP063 T02830156
KBWD 011555Z AUTO 10009KT 10SM CLR 31/17 A3010 RMK AO2
KBWG 011553Z AUTO 10SM CLR 31/20 A3003 RMK AO2 SLP162 T03060200
KBWI 011554Z 31009KT 10SM FEW050 SCT100 SCT120 29/17 A2989 RMK AO2 SLP119 ACC E-SW AND DSNT W-NW T02940172
KBWP 011555Z AUTO 15006KT 10SM CLR 25/11 A2994 RMK AO1
KBXA 011555Z AUTO 04007KT 10SM 30/18 A2996 RMK AO2 T03000178
KBXK 011535Z AUTO 10003KT 10SM CLR 30/19 A2994 RMK AO1
KBYG 011553Z AUTO VRB05KT 10SM CLR 28/03 A3017 RMK AO2 SLP148 T02830028 $
KBYI 011553Z AUTO 07006KT 10SM CLR 23/06 A3014 RMK AO2 SLP165 T02330061
KBYS 011454Z AUTO 36004KT 10SM CLR 30/07 A3002 RMK AO2 SLP102 $
KBYY 011555Z AUTO 06005KT 10SM CLR 32/20 A2997 RMK AO2 T03210197
KBZN 011556Z VRB03KT 10SM CLR 23/06 A3017 RMK AO2 SLP182 T02280056
KC09 011555Z AUTO 29006KT 10SM SCT100 27/16 A3001 RMK AO2 T02660163
KC29 011555Z AUTO 33003KT 10SM SCT047 BKN070 26/14 A3000 RMK AO1 T02550141
KC35 011555Z AUTO 34004KT 10SM CLR 25/11 A2997 RMK AO2 T02500109
KC75 011555Z AUTO 24006KT 10SM CLR 26/17 A3003 RMK AO2 T02620165
KCAD 011555Z AUTO 27007KT 240V300 10SM SCT043 SCT060 SCT080 25/12 A2991 RMK AO2 T02470128
KCAE 011556Z 05006KT 10SM FEW110 33/17 A2995 RMK AO2 SLP138 T03330167
KCAG 011553Z AUTO 05007KT 10SM CLR 24/05 A3029 RMK AO2 SLP184 T02440050
KCAK 011551Z VRB05KT 10SM FEW060 26/13 A2997 RMK AO2 SLP139 T02610133
KCAO 011555Z AUTO 21008KT 190V250 10SM CLR 26/17 A3020 RMK AO2 SLP158 T02560172
KCAR 011554Z AUTO 21009KT 10SM BKN095 23/15 A2964 RMK AO2 SLP039 T02280150 $
KCAV 011555Z AUTO 25009KT 10SM CLR 27/21 A3002 RMK AO2
KCBE 011604Z AUTO 27010KT 10SM CLR 29/11 A2997 RMK AO1
KCBF 011555Z AUTO 00000G12KT 10SM CLR 23/19 A3005 RMK AO2
KCBG 011556Z AUTO 28006KT 10SM CLR 27/14 A2995 RMK AO2
KCBK 011555Z AUTO 19009KT 10SM CLR 29/17 A3013 RMK AO2
KCBM 011558Z AUTO 04013G21KT 10SM CLR 31/19 A3000 RMK AO2 SLP159 T03110186 $
KCCA 011555Z AUTO 00000KT 10SM CLR 31/22 A3009 RMK AO2
KCCO 011555Z AUTO 07005KT 10SM SCT050 29/22 A3000 RMK AO2 T02880224
KCCR 011553Z 25012KT 10SM SCT021 21/13 A3001 RMK AO2 SLP148 T02060133
KCCU 011554Z AUTO 28016G20KT 10SM CLR 15/01 A3073 RMK AO2 LTG DSNT W
KCCY 011555Z AUTO 28009G16KT 10SM FEW110 26/22 A3002 RMK AO2
KCDA 011555Z AUTO 25011KT 10SM SCT042 SCT048 SCT060 23/15 A2976 RMK AO2 T02270148
KCDC 011553Z AUTO 19003KT 10SM CLR 24/08 A3024 RMK AO2 SLP153 T02440078
KCDD 011541Z AUTO 32004KT 10SM CLR 21/11 A2989 RMK AO2
KCDH 011555Z AUTO 08003KT 10SM CLR 31/18 A3006 RMK AO2
KCDJ 011552Z AUTO 00000KT 29/22 A3006 RMK AO1 SLP163 T02890222
KCDN 011555Z AUTO 01005KT 10SM CLR 31/17 A2998 RMK AO2 TSNO
KCDR 011553Z AUTO 17004KT 10SM CLR 27/13 A3004 RMK AO2 SLP145 T02720133
KCDS 011553Z AUTO 00000KT 10SM -RA SCT050 BKN075 BKN090 22/21 A3014 RMK AO2 LTG DSNT S SLP182 P0002 T02220206
KCDW 011553Z 30009KT 10SM CLR 29/15 A2981 RMK AO2 SLP099 T02890150
KCEC 011608Z AUTO 19005KT 2 1/2SM BR OVC004 16/15 A3000 RMK AO2 VIS 1 3/4V4 T01610150
KCEF 011558Z AUTO 26010G14KT 10SM CLR 28/17 A2976 RMK AO2 SLP082 T02760173
KCEU 011554Z AUTO 07009KT 10SM SCT065 32/14 A3002 RMK AO2 SLP152 T03170139
KCEW 011553Z AUTO 07005KT 10SM CLR 32/24 A2992 RMK AO2 SLP127 T03170244
KCEY 011555Z AUTO 03005KT 10SM CLR 29/19 A3005 RMK AO1
KCEZ 011603Z AUTO 00000KT 2SM VCTS RA BR SCT055 BKN070 OVC090 17/16 A3032 RMK AO2 TSE02 P0002 T01670156
KCFD 011555Z AUTO 06008KT 10SM CLR 32/19 A3005 RMK AO2 T03160191
KCFE 011555Z AUTO 23004KT 10SM CLR 25/13 A2999 RMK AO2 T02490131
KCFS 011555Z AUTO 28013G17KT 10SM CLR 26/14 A2989 RMK AO2 T02590141
KCFV 011552Z AUTO 21005KT 10SM CLR 29/21 A3008 RMK AO2 SLP178 T02940206 $
KCGC 011555Z AUTO 19004KT 10SM SCT027 SCT070 SCT110 25/21 A2996 RMK AO2 LTG DSNT N
KCGE 011603Z AUTO 24005KT 10SM CLR 30/17 A2989 RMK AO1
KCGF 011545Z 29010KT 20SM FEW035 26/16 A2996
KCGI 011553Z 06006KT 10SM CLR 29/21 A3004 RMK AO2 SLP170 T02890206
KCGS 011600Z AUTO 26003KT 10SM CLR 30/16 A2989 RMK AO1
KCGZ 011555Z AUTO 00000KT 10SM CLR 31/19 A2995 RMK AO1
KCHA 011553Z 04012G18KT 10SM FEW050 FEW250 30/17 A3004 RMK AO2 SLP162 T03000172
KCHD 011547Z VRB04KT 40SM SCT150 BKN250 30/20 A2995
KCHK 011555Z AUTO 00000KT 10SM SCT060 27/22 A3010 RMK AO2
KCHO 011553Z VRB04KT 10SM CLR 29/17 A2993 RMK AO2 SLP127 T02890167
KCHS 011556Z 07004KT 10SM FEW028TCU SCT040 SCT050 30/23 A2994 RMK AO2 SLP137 TCU S T03000233
KCIC 011550Z 19006KT 10SM SCT100 SCT200 21/13 A2999
KCID 011552Z 23010KT 10SM CLR 26/21 A3001 RMK AO2 SLP157 T02560206
KCIN 011555Z AUTO 26009G15KT 10SM CLR 26/21 A3004 RMK AO2
KCIR 011555Z AUTO 03005KT 10SM CLR 29/21 A3005 RMK AO2 T02850214
KCIU 011555Z AUTO 25008G15KT 10SM CLR 23/13 A2983 RMK AO1
KCJR 011550Z AUTO 21003KT 10SM CLR 28/18 A2992 RMK AO2 T02810178
KCKB 011553Z 33008KT 10SM FEW050 26/14 A2999 RMK AO2 SLP138 T02610139
KCKC 011554Z AUTO 29008G14KT 269V329 10SM SCT041 21/09 A2988 RMK AO2
KCKF 011555Z AUTO 05005KT 10SM OVC015 30/25 A2994 RMK AO2 T02960253
KCKI 011555Z AUTO 08007KT 060V120 10SM CLR 32/25 A2995 RMK AO2 P0001
KCKM 011555Z AUTO 00000KT 10SM CLR 30/22 A3005 RMK AO1
KCKN 011554Z AUTO 22004KT 10SM CLR 24/13 A2991 RMK AO2
KCKP 011555Z AUTO 25006KT 10SM CLR 25/20 A3002 RMK AO2 T02530203
KCKV 011552Z AUTO 03003KT 10SM CLR 29/21 A3004 RMK AO2 SLP164 T02940211
KCLE 011551Z 28008KT 10SM FEW036 26/16 A2997 RMK AO2 SLP144 T02560156
KCLI 011555Z AUTO 33010G14KT 10SM CLR 24/08 A2993 RMK AO2
KCLL 011553Z 10007KT 10SM CLR 32/19 A3003 RMK AO2 SLP165 T03170189
KCLM 011553Z AUTO 00000KT 10SM CLR 19/11 A3004 RMK AO2 SLP171 T01890111
KCLS 011555Z AUTO 00000KT 4SM HZ CLR 18/12 A3003 RMK AO2
KCLT 011552Z 35007KT 10SM FEW075 SCT250 32/12 A3000 RMK AO2 SLP149 T03170117
KCLW 011555Z AUTO 24005KT 4SM -RA SCT025 BKN048 OVC070 23/21 A2998 RMK AO2 P0005
KCMA 011555Z 00000KT 5SM HZ OVC007 21/18 A2999 RMK AO2 SLP162 T02060178
KCMD 011555Z AUTO 02009KT 10SM CLR 28/18 A3006 RMK AO2 T02840176
KCMH 011551Z 29010KT 280V340 10SM SCT065 SCT250 27/12 A2998 RMK AO2 SLP146 T02670117
KCMI 011553Z 27004KT 10SM CLR 27/16 A3006 RMK AO2 SLP175 T02720156
KCMR 011555Z AUTO 33007KT 10SM SCT065 BKN080 19/12 A3043 RMK AO2
KCMX 011553Z AUTO 28009KT 6SM HZ CLR 21/13 A2986 RMK AO2 SLP111 T02060128 TSNO
KCMY 011555Z AUTO 28003KT 10SM CLR 26/09 A2998 RMK AO2 T02570088
KCNB 011554Z AUTO 12003KT 10SM CLR 23/18 A2999 RMK AO2 T02260180
KCNC 011555Z AUTO 19007KT CLR 26/21 A3005 RMK AO2
KCNI 011555Z AUTO 00000KT 10SM SCT060 SCT070 31/11 A3004 RMK AO2
KCNK 011555Z AUTO 04005KT 10SM CLR 29/21 A3008 RMK AO2 SLP171 T02890206
KCNM 011553Z AUTO 35006KT 10SM CLR 30/16 A3014 RMK AO2 SLP142 T03000161
KCNO 011553Z VRB04KT 4SM HZ BKN010 23/18 A3000 RMK AO2 SLP153 T02280183
KCNU 011552Z AUTO 00000KT 10SM CLR 29/22 A3009 RMK AO2 SLP177 T02940217
KCNW 011555Z 09005KT 10SM SKC 32/16 A3007
KCNY 011553Z AUTO 19006KT 10SM CLR 29/12 A3014 RMK AO2 SLP136 T02890122
KCOD 011555Z 24004KT 10SM CLR 28/02 A3019 RMK AO1
KCOE 011555Z AUTO 15005KT 10SM CLR 25/06 A2998 RMK AO1
KCOF 011558Z AUTO 20011KT 10SM CLR 29/23 A3000 RMK AO2 DZB01E11 SLP163 P0000 T02850229
KCOM 011555Z AUTO 06006KT 10SM CLR 29/20 A3011 RMK AO2 T02880196
KCON 011551Z AUTO 17005KT 10SM CLR 27/16 A2974 RMK AO2 SLP070 T02720156
KCOQ 011555Z AUTO 31008G16KT 10SM CLR 24/09 A2993 RMK AO2
KCOS 011554Z 19006KT 10SM FEW090 FEW220 23/13 A3027 RMK AO2 SLP164 T02280128
KCOT 011553Z AUTO 14007KT 10SM CLR 32/22 A3000 RMK AO2 SLP150 T03220217
KCOU 011554Z 00000KT 10SM CLR 27/21 A3008 RMK AO2 SLP174 T02720211 $
KCPC 011555Z AUTO 07005KT 10SM CLR 32/20 A2994 RMK AO2 T03160196
KCPK 011555Z AUTO 18006KT 7SM SCT055 32/21 A2993 RMK AO2
KCPR 011553Z VRB03KT 10SM CLR 27/04 A3020 RMK AO2 SLP149 T02670044
KCPS 011553Z 10005KT 10SM BKN110 28/15 A3007 RMK AO2 SLP178 T02780150 $
KCPT 011555Z AUTO 14006KT 10SM 30/18 A3011 RMK AO2 TSNO
KCQB 011555Z AUTO 19006KT 10SM CLR 30/22 A3010 RMK AO2
KCQC 011553Z AUTO 31010KT 10SM CLR 22/13 A3036 RMK AO2 SLP184 T02170128
KCQF 011555Z AUTO 24008KT 10SM CLR 29/23 A2990 RMK AO2
KCQM 011554Z AUTO 29007KT 10SM CLR 23/11 A2990 RMK AO2
KCQT 011452Z AUTO 00000KT 10SM OVC015 21/17 A2998 RMK AO2 T02110167
KCQW 011555Z AUTO 33005KT 10SM CLR 31/13 A2996 RMK AO2
KCQX 011552Z AUTO CLR 28/21 A2979 RMK AO2 SLP089 T02780211 $
KCRE 011553Z 16007KT 10SM CLR 29/24 A2995 RMK AO1 SLP143 T02890239
KCRG 011600Z 22009KT 10SM FEW047 OVC055 29/23 A2994 RMK AO2 T02940228 $
KCRH 011555Z AUTO 05014KT 10SM CLR 29/24 A2996 RMK A01
KCRP 011551Z 05005KT 10SM FEW180 SCT250 32/22 A2997 RMK AO2 SLP148 T03170222 $
KCRQ 011553Z AUTO 26003KT 8SM OVC013 21/18 A2998 RMK AO2 SLP149 T02110183
KCRS 011553Z AUTO 14010KT 10SM BKN120 32/18 A3009 RMK AO2 SLP182 T03170178
KCRW 011554Z 35005KT 10SM FEW050 27/14 A3001 RMK AO2 SLP154 T02720139
KCRX 011555Z AUTO VRB06KT 10SM CLR 31/19 A3004 RMK AO2
KCSG 011604Z VRB05KT 10SM SCT021 29/23 A2994 RMK AO2
KCSM 011553Z AUTO 20008KT 10SM FEW070 BKN110 27/21 A3014 RMK AO2 SLP183 T02670206
KCSQ 011555Z AUTO 23004KT 10SM CLR 24/21 A3008 RMK AO2
KCSV 011553Z AUTO VRB05KT 10SM FEW040 28/17 A3010 RMK AO2 SLP172 T02780172
KCTB 011556Z AUTO 25014KT 10SM CLR 31/M02 A3000 RMK AO2 SLP116 T03061022
KCTJ 011555Z AUTO 06011KT 10SM SCT050 BKN070 29/17 A3005 RMK AO2 T02900170
KCTY 011553Z AUTO 20007KT 27/25 A2993 RMK AO1 SLP133 P0003 T02670250
KCTZ 011555Z AUTO 01003KT 10SM CLR 31/20 A2996 RMK AO2 T03100198
KCUB 011553Z AUTO VRB06KT 10SM CLR 33/18 A2997 RMK AO2 SLP144 T03280178 TSNO
KCUH 011555Z AUTO 18004KT CLR 29/23 A3009 RMK AO2 PWINO
KCUL 011555Z AUTO 00000KT 10SM CLR 27/14 A3005 RMK AO2 T02740137
KCUT 011553Z AUTO 28004KT 10SM CLR 27/11 A3017 RMK AO2 SLP139 T02720111
KCVB 011555Z AUTO 10006KT 10SM CLR 32/20 A3004 RMK AO2 T03210201
KCVC 011555Z AUTO 11007KT 076V146 10SM 30/16 A3000 RMK AO2
KCVG 011552Z 36008KT 10SM FEW040 27/13 A3003 RMK AO2 SLP158 T02670133 $
KCVH 011550Z AUTO 27003KT 6SM BKN013 19/16 A3006 RMK AO1
KCVN 011555Z AUTO 16011KT 10SM CLR 22/18 A3023 RMK AO1
KCVO 011555Z 00000KT 10SM CLR 23/06 A2999 RMK AO1
KCVS 011558Z AUTO 15009KT 10SM BKN011 BKN140 22/19 A3022 RMK AO2 CIG 011V140 BKN011 V SCT SLP180 $
KCVW 011555Z AUTO 05008KT 10SM CLR 30/21 A3000 RMK A01
KCVX 011555Z AUTO 28010KT 10SM CLR 22/16 A2990 RMK AO2 T02230159
KCWA 011545Z 33011G18KT 10SM FEW070 23/10 A2998
KCWC 011555Z AUTO 14004KT 10SM SCT065 27/22 A3011 RMK AO2 T02710220
KCWF 011550Z 07006KT 10SM SKC 31/21 A2999
KCWI 011555Z 24008KT 10SM CLR 27/17 A3004 RMK AO1
KCWN 011556Z AUTO 15002KT 10SM CLR 21/14 A3026 RMK AO2 SLP062 T02080136 $
KCXE 011555Z AUTO 30003KT 10SM CLR 30/18 A2996 RMK AO1 T03030180
KCXO 011553Z 10010KT 10SM CLR 31/17 A3002 RMK AO2 SLP161 T03060172
KCXP 011615Z AUTO 25003KT 10SM OVC120 22/05 A3020 RMK AO2
KCXY 011556Z 28009G17KT 10SM FEW060 29/12 A2987 RMK AO2 SLP114 T02940122
KCYS 011553Z 18009KT 10SM CLR 27/08 A3022 RMK AO2 SLP136 T02720083
KCZT 011555Z AUTO 12005KT 10SM CLR 31/20 A3000 RMK AO2
KCZZ 011552Z AUTO 00000KT 27/06 A3001 RMK AO1 SLP127 T02670056
KD07 011556Z AUTO 27010G19KT 29/13 A2994 RMK AO1 SLP119 T02940128
KD25 011555Z AUTO 30010KT 10SM CLR 22/12 A2994 RMK AO2 T02150119
KD39 011554Z AUTO 22005KT 10SM CLR 25/13 A2998 RMK AO2 T02460125
KD50 011555Z AUTO 18010KT 10SM CLR 25/14 A2990 RMK AO2
KD55 011615Z AUTO 21009KT 10SM CLR 26/11 A2989 RMK AO2
KD57 011555Z AUTO 30010KT 10SM CLR 24/13 A2990 RMK AO2
KD60 011535Z AUTO 18010KT 10SM CLR 25/09 A2994 RMK AO2
KD95 011553Z AUTO 27006KT 10SM SCT070 25/13 A2991 RMK AO2 T02510131
KDAA 011558Z AUTO 29007KT 10SM FEW100 30/18 A2990 RMK AO2 SLP128 T02950178
KDAB 011553Z 21014G22KT 10SM SCT031 SCT085 SCT110 BKN250 31/23 A2997 RMK AO2 SLP147 CB DSNT W-NW T03110228
KDAG 011550Z AUTO 29009KT 10SM CLR 31/06 A3000 RMK AO2 SLP127 T03110061
KDAL 011553Z 15009KT 10SM SCT110 SCT160 BKN300 32/17 A3007 RMK AO2 SLP175 T03170167 $
KDAN 011553Z AUTO 28005KT 10SM CLR 30/19 A2997 RMK AO2 SLP137 T03000189
KDAW 011551Z AUTO VRB04KT 10SM FEW090 27/16 A2973 RMK AO2 SLP064 T02670161
KDAY 011556Z VRB06KT 10SM FEW030 FEW250 26/15 A3003 RMK AO2 SLP161 T02560150
KDBN 011555Z AUTO 00000KT 10SM BKN017 26/22 A2997 RMK AO2
KDBQ 011553Z 23011KT 10SM FEW085 26/16 A3001 RMK AO2 SLP157 T02610156
KDCA 011552Z 28007KT 10SM FEW065 BKN100 BKN250 31/17 A2990 RMK AO2 SLP125 T03060167
KDCM 011555Z AUTO 01005KT 7SM CLR 31/12 A3001 RMK AO2
KDCU 011553Z AUTO 04008KT 10SM CLR 30/19 A3004 RMK AO2 SLP165 T03000189
KDCY 011555Z AUTO 01007KT 10SM CLR 27/09 A3005 RMK AO2 T02710093
KDDC 011552Z AUTO 17006KT 10SM CLR 27/18 A3012 RMK AO2 SLP168 T02720178 $
KDDH 011554Z AUTO VRB05KT 10SM SCT035 SCT045 25/17 A2980 RMK AO2 SLP086 T02500167
KDEC 011554Z 03004KT 10SM CLR 29/13 A3007 RMK AO2 SLP175 T02890128
KDED 011555Z AUTO 21014G20KT 31/23 A2998 RMK AO1
KDEH 011555Z AUTO 28007G15KT 240V320 10SM CLR 25/18 A3000 RMK AO2
KDEN 011553Z 26006KT 10SM FEW140 SCT220 26/11 A3019 RMK AO2 SLP137 T02610106
KDEQ 011553Z AUTO 15005KT 10SM CLR 31/19 A3006 RMK AO2 SLP173 T03110194
KDET 011553Z 27010KT 10SM CLR 26/12 A2993 RMK AO2 SLP129 T02610117
KDEW 011553Z AUTO 14003KT 10SM CLR 26/03 A2999 RMK AO2 SLP137 T02560028
KDFI 011553Z AUTO 30008KT 260V330 10SM CLR 27/12 A2998 RMK AO2 SLP148 T02720117
KDFW 011553Z 10009KT 10SM SCT110 BKN280 32/16 A3008 RMK AO2 SLP174 T03170161
KDGW 011553Z AUTO 29011KT 10SM CLR 28/08 A3016 RMK AO2 SLP142 T02780078
KDHN 011553Z 07008KT 10SM FEW023 31/23 A2995 RMK AO2 SLP134 T03060233
KDHT 011553Z AUTO 19009KT 10SM BKN013 BKN020 BKN090 25/19 A3020 RMK AO2 SLP170 T02500194
KDIJ 011556Z AUTO 00000KT 10SM CLR 24/03 A3031 RMK AO2 T02380033 RAB25E28 P0000 SLP172 $
KDIK 011556Z AUTO 34007KT 10SM CLR 26/12 A2992 RMK AO2 SLP115 T02610117
KDKB 011555Z AUTO 28009KT 10SM SCT075 26/16 A3003 RMK AO2 T02590158
KDKK 011553Z AUTO 28009G15KT 10SM CLR 23/14 A2991 RMK AO2 SLP126 T02330144
KDKR 011555Z AUTO 06008KT 10SM OVC001 33/20 A3007 RMK AO2
KDLF 011558Z AUTO 12005KT 10SM CLR 32/20 A3001 RMK AO2 SLP147 T03220199
KDLH 011555Z 29011KT 10SM SCT050 24/11 A2992 RMK AO2 SLP131 T02440106
KDLL 011555Z AUTO 00000KT 10SM BKN048 BKN060 BKN075 24/11 A2998 RMK AO2 T02440105
KDLN 011553Z AUTO 21007KT 10SM CLR 20/05 A3022 RMK AO2 SLP183 T02000050
KDLP 011555Z AUTO 34009KT 10SM CLR 31/23 A2991 RMK A01
KDLS 011553Z AUTO 00000KT 10SM CLR 25/08 A2992 RMK AO2 SLP130 T02500078
KDLZ 011557Z AUTO 28008KT 10SM CLR 26/12 A3000 RMK AO2
KDMA 011558Z AUTO 17005KT 10SM CLR 28/17 A3004 RMK AO2 SLP130 T02820173 $
KDMH 011554Z AUTO 29/15 A2988 RMK AO1 SLP119 T02940150
KDMN 011553Z AUTO 07014KT 10SM CLR 28/13 A3018 RMK AO2 SLP136 T02830133
KDMO 011553Z AUTO 31004KT 10SM BKN049 30/23 A3008 RMK AO2 SLP177 T03000228
KDMW 011605Z AUTO 29006KT 10SM SCT080 28/16 A2992 RMK AO2
KDNL 011553Z AUTO 06005KT 10SM BKN065 31/19 A2998 RMK AO2 SLP144 T03110194
KDNN 011555Z AUTO 35008KT 10SM CLR 28/18 A3002 RMK AO2
KDNS 011555Z AUTO 23006KT 10SM CLR 24/20 A3003 RMK AO2
KDNV 011555Z AUTO 29004KT 10SM CLR 26/17 A3003 RMK AO2 T02580167
KDOV 011558Z AUTO 27010KT 10SM CLR 30/20 A2986 RMK AO2 SLP114 T02980200 VISNO RWY19 CHINO RWY19 $
KDPA 011552Z 26009KT 10SM BKN080 26/14 A3000 RMK AO2 SLP155 T02610139
KDPL 011555Z AUTO 14003KT 10SM CLR A2996 RMK AO2
KDQH 011555Z AUTO 13003KT 10SM OVC011 28/25 A2996 RMK AO2
KDRA 011553Z AUTO 00000KT 10SM CLR 29/11 A3006 RMK AO2 SLP125 T02890111
KDRI 011555Z AUTO 00000KT 10SM SCT006 SCT010 31/18 A3003 RMK AO2 T03090177
KDRM 011602Z AUTO 22005KT 10SM CLR 22/13 A2982 RMK AO2
KDRO 011553Z AUTO 07005KT 10SM FEW045 BKN100 21/12 A3037 RMK AO2 SLP198 T02110117
KDRT 011553Z AUTO 17004KT 10SM CLR 32/19 A3001 RMK AO2 SLP142 T03220189
KDSM 011554Z 23007KT 10SM FEW040 FEW140 OVC300 27/19 A3003 RMK AO2 SLP160 TCU DSNT S T02720194
KDSV 011554Z AUTO 29009G17KT 10SM SCT055 24/11 A2989 RMK AO2 SLP124 T02440111
KDTA 011555Z AUTO 16003KT 10SM CLR 25/04 A3018 RMK AO1 T02540037
KDTL 011555Z AUTO 23005KT 10SM CLR 24/11 A2997 RMK AO2
KDTN 011553Z 10010KT 10SM CLR 31/18 A3004 RMK AO2 SLP170 T03110178
KDTO 011553Z 15009KT 10SM BKN095 31/18 A3008 RMK AO2 SLP176 T03060178
KDTS 011553Z AUTO 01005KT 10SM CLR 31/24 A2990 RMK AO2 SLP124 T03110244 TSNO
KDTW 011553Z 30007KT 10SM FEW035 27/12 A2994 RMK AO2 SLP133 T02670117
KDUA 011555Z AUTO 15007KT 10SM OVC120 30/18 A3010 RMK AO2
KDUB 011555Z AUTO 30007KT 10SM CLR 21/M01 A3036 RMK AO2
KDUC 011555Z AUTO 22005KT 10SM SCT055 SCT070 30/21 A3011 RMK AO2
KDUG 011556Z AUTO A3016 RMK AO2 SLPNO PWINO
KDUH 011555Z AUTO 35007KT 10SM CLR 26/13 A2996 RMK AO2 T02610130
KDUJ 011553Z AUTO 34010KT 10SM FEW045 25/11 A2995 RMK AO2 SLP126 T02500111
KDUX 011555Z AUTO 15007KT 10SM CLR 22/19 A3019 RMK AO2 T02150193
KDVK 011555Z AUTO 35005KT 10SM CLR 27/16 A3005 RMK AO2
KDVL 011555Z AUTO 15007KT 10SM CLR 24/12 A2988 RMK AO1
KDVN 011552Z AUTO 22009KT 10SM CLR 27/17 A3002 RMK AO2 SLP161 T02720172
KDVO 011555Z AUTO 28005KT 10SM 18/14 A3003 RMK AO2
KDVP 011553Z AUTO 23009KT 10SM CLR 26/21 A3002 RMK AO2 T02630207
KDVT 011553Z 18004KT 10SM FEW100 31/18 A2994 RMK AO2 SLP114 T03060183
KDWH 011553Z 09009KT 10SM CLR 31/18 A3000 RMK AO2 SLP157 T03110183
KDWU 011555Z AUTO 00000KT 10SM CLR 27/17 A2999 RMK AO1
KDWX 011555Z AUTO 00000KT 10SM CLR 22/02 A3032 RMK AO2 T02240016
KDXR 011553Z VRB05KT 10SM CLR 27/16 A2981 RMK AO2 SLP092 T02720161
KDXX 011553Z AUTO 13005KT 10SM CLR 23/18 A2996 RMK AO2
KDYB 011555Z AUTO 00000KT 10SM SCT018 BKN075 BKN090 30/25 A2995 RMK AO1 LTG DSNT SE
KDYL 011554Z AUTO VRB05KT 10SM CLR 28/14 A2985 RMK AO2 SLP100 T02830139
KDYS 011558Z AUTO 11010KT 10SM CLR 29/21 A3010 RMK AO2 SLP145 T02920210 $
KDYT 011554Z AUTO 27006KT 10SM CLR 25/13 A2991 RMK AO2
KDZB 011555Z AUTO 10003KT 10SM CLR 32/17 A3007 RMK AO2 T03160173
KDZJ 011555Z AUTO 04003KT 10SM 27/M03 A3008 RMK AO2 T02671026
KE11 011555Z AUTO 17003KT 10SM CLR 30/17 A3015 RMK AO2 T02960166
KE16 011555Z AUTO 11007KT 10SM OVC012 18/15 A3005 RMK AO2 SOUTH WIND SOCK OUT OF SERVICE
KE38 011555Z AUTO 00000KT 10SM SCT110 27/15 A3026 RMK AO2 T02700148
KE80 011555Z AUTO 18003KT 10SM CLR 24/15 A3028 RMK AO2 T02360146
KEAR 011555Z AUTO 08012KT 10SM CLR 25/15 A3011 RMK AO1
KEAT 011555Z AUTO 27009KT 10SM CLR 27/06 A2995 RMK AO2 SLP129 T02670056
KEAU 011556Z 29003KT 10SM CLR 25/12 A2996 RMK AO2 SLP141 T02500117
KEBA 011555Z AUTO 35004KT 7SM OVC060 32/15 A3002 RMK AO2 T03180151
KEBG 011555Z AUTO 04005KT 7SM CLR 32/22 A2999 RMK AO2 T03160215
KEBS 011555Z AUTO 24009KT 10SM CLR 27/23 A3001 RMK AO2
KECG 011554Z 23004KT 10SM CLR 31/20 A2993 RMK AO2 SLP136 T03060200
KECP 011553Z 03007KT 10SM CLR 31/23 A2989 RMK AO2 SLP132 T03110233
KECS 011555Z AUTO 28003KT 10SM CLR 26/07 A3010 RMK AO2
KECU 011550Z AUTO 09006KT 8SM CLR 31/20 A3012 RMK AO2
KEDC 011555Z AUTO 10005KT 10SM CLR 31/17 A3005 RMK AO2
KEDE 011555Z AUTO 00000KT 10SM 30/21 A2993 RMK AO2 T03030213
KEDJ 011550Z AUTO 32009G15KT 10SM FEW050 25/12 A3002 RMK AO1
KEDN 011555Z AUTO 06003KT 10SM CLR 29/23 A2991 RMK AO2
KEDU 011555Z AUTO 31003KT 10SM OVC001 20/14 A2996 RMK AO1
KEDW 011558Z 21007KT 90SM FEW250 28/10 A3002 RMK AO2A SLP135 T02790101
KEED 011556Z AUTO 00000KT 10SM FEW090 BKN110 33/15 A2995 RMK AO2 SLP104 T03330150
KEEN 011555Z AUTO 26007KT 10SM FEW046 26/14 A2977 RMK AO1
KEEO 011553Z AUTO 00000KT 10SM CLR 23/05 A3030 RMK AO2 SLP172 T02330050
KEET 011553Z AUTO 05007KT 360V070 10SM CLR 29/17 A2999 RMK AO2 SLP146 T02940172
KEFD 011550Z 07008KT 10SM SCT250 32/18 A3000
KEFK 011555Z AUTO 27011G16KT 10SM SCT070 SCT100 SCT120 22/15 A2974 RMK AO2 T02220154
KEFT 011555Z AUTO 27008KT 10SM CLR 25/13 A3000 RMK AO2
KEGE 011550Z 00000KT 10SM SKC 21/06 A3035
KEGI 011558Z AUTO 02006KT 10SM FEW190 31/24 A2990 RMK AO2 SLP126 T03060236 $
KEGV 011555Z AUTO 33007KT 290V350 10SM BKN040 BKN048 22/10 A2994 RMK AO2 T02180102
KEHA 011548Z AUTO 19009KT 26/18 RMK AO1 PK WND 15 000 T02560184
KEHC 011555Z AUTO 07008KT 10SM FEW027 SCT060 31/24 A2995 RMK A01
KEHO 011557Z AUTO 00000KT 10SM CLR 30/12 A3000 RMK AO2
KEHR 011555Z AUTO 34004KT 10SM CLR 28/17 A3004 RMK AO1
KEHY 011555Z AUTO 29006KT 10SM CLR 23/03 A3031 RMK AO2
KEIK 011555Z AUTO 00000KT 10SM CLR 24/10 A3017 RMK AO2 T02440102
KEIR 011555Z AUTO 01003KT 10SM BKN032 BKN038 30/24 A2996 RMK A01
KEKM 011550Z 32006KT 10SM SKC 27/11 A2999 RMK AO2
KEKN 011551Z AUTO VRB05KT 10SM FEW048 BKN060 24/12 A3003 RMK AO2 SLP159 T02440122 TSNO
KEKO 011556Z AUTO 00000KT 10SM CLR 22/M02 A3021 RMK AO2 SLP170 T02171022
KEKQ 011556Z AUTO 00000KT 10SM CLR 30/19 A3008 RMK AO2 T03000194 SLP178
KEKS 011555Z AUTO 19005KT 10SM CLR 22/02 A3024 RMK A01
KELA 011555Z AUTO 09009G17KT 030V120 10SM CLR 33/18 A2999 RMK AO2 T03250181
KELD 011553Z AUTO 04008KT 10SM CLR 31/19 A3006 RMK AO2 SLP175 T03060189
KELK 011555Z AUTO 26004KT 10SM SCT020 25/20 A3017 RMK AO2
KELM 011553Z 29010G18KT 10SM FEW050 SCT060 26/14 A2986 RMK AO2 SLP105 T02610144
KELN 011553Z AUTO 30014G19KT 10SM CLR 29/05 A2998 RMK AO2 SLP131 T02940050
KELO 011553Z AUTO 31009G14KT 10SM SCT048 21/11 A2989 RMK AO2
KELP 011551Z 36008KT 10SM FEW095 28/15 A3015 RMK AO2 SLP128 T02830150
KELY 011553Z AUTO 00000KT 10SM CLR 21/01 A3030 RMK AO2 SLP156 T02110011
KELZ 011556Z AUTO 32009KT 10SM FEW047 SCT060 23/12 A2995 RMK AO2 SLP128 T02280117
KEMM 011555Z AUTO 32003KT 10SM CLR 23/00 A3037 RMK AO2
KEMP 011553Z AUTO 00000KT 10SM CLR 29/21 A3009 RMK AO2 SLP178 T02940211
KEMT 011548Z 00000KT 4SM HZ OVC012 20/18 A3001
KEMV 011555Z AUTO 00000KT 10SM CLR 30/17 A2995 RMK AO2
KEND 011558Z AUTO 21008KT 10SM FEW170 29/21 A3008 RMK AO2 SLP175 T02920210 $
KENL 011555Z AUTO 03004KT 10SM SCT060 28/14 A3008 RMK AO2 T02810142
KENV 011555Z AUTO 00000KT 10SM CLR 26/M02 A3017 RMK AO1
KENW 011553Z 30008KT 10SM CLR 27/14 A2998 RMK AO2 SLP149 T02670144
KEOE 011555Z AUTO 06007KT 10SM BKN060 28/16 A3002 RMK AO2
KEOK 011555Z AUTO 20009KT 10SM CLR 27/16 A3004 RMK AO2
KEPH 011553Z AUTO 32005KT 3/4SM HZ VV013 29/01 A2993 RMK AO2 SLP123 T02940011
KEQA 011555Z AUTO 23003KT 10SM SCT019 29/23 A3010 RMK AO2
KEQY 011553Z AUTO VRB06KT 10SM CLR 31/13 A2999 RMK AO2 SLP151 T03060133
KERI 011551Z 28008KT 240V310 10SM CLR 24/15 A2993 RMK AO2 SLP129 T02440150
KERV 011555Z AUTO 11006KT 10SM CLR 29/20 A3009 RMK AO2 T02920198
KERY 011555Z AUTO 28008KT 7SM SCT034 23/13 A2984 RMK AO2 T02300132
KESC 011555Z AUTO 34009G16KT 10SM FEW044 24/12 A2985 RMK AO1
KESF 011553Z AUTO 04006KT 10SM CLR 33/19 A3001 RMK AO2 SLP160 T03280194
KESN 011548Z 30007KT 10SM FEW250 30/19 A2993
KEST 011552Z AUTO 25008KT 10SM CLR 26/21 A3001 RMK AO2 SLP157 T02560206
KETB 011555Z AUTO 28009KT 10SM BKN070 OVC080 23/10 A2997 RMK AO2
KETC 011555Z AUTO 21004KT 10SM 32/16 A2995 RMK AO2 T03210158
KETH 011555Z AUTO 00000KT 10SM -RA CLR 23/17 A2997 RMK AO2
KEUF 011558Z AUTO VRB04KT 10SM CLR 31/24 A2992 RMK AO2 SLP127 T03060239 $
KEUG 011554Z 00000KT 10SM FEW080 SCT120 22/07 A2998 RMK AO2 SLP148 HZ SCT120 T02170072
KEUL 011555Z AUTO 11004KT 10SM CLR 26/07 A3004 RMK AO1
KEVB 011547Z 24014KT 10SM FEW045 29/22 A2997
KEVM 011554Z AUTO 30011G17KT 10SM CLR 22/08 A2992 RMK AO2
KEVV 011554Z 02007KT 10SM CLR 29/14 A3005 RMK AO2 SLP173 T02890139
KEVW 011553Z AUTO 00000KT 10SM CLR 22/M01 A3036 RMK AO2 SLP178 T02171006
KEWB 011553Z 26009KT 10SM CLR 31/18 A2975 RMK AO2 SLP074 T03060178
KEWK 011555Z AUTO 18004KT 10SM CLR 29/20 A3012 RMK AO1
KEWN 011554Z 00000KT 10SM CLR 31/23 A2994 RMK AO2 SLP139 T03060233
KEWR 011551Z 27006KT 10SM FEW050 SCT095 SCT120 30/17 A2981 RMK AO2 SLP095 T03000167
KEXX 011555Z AUTO 36003KT 10SM CLR 30/15 A2999 RMK AO2 T02960151
KEYE 011553Z AUTO 30007KT 10SM CLR 26/14 A3004 RMK AO2 SLP164 T02610139
KEYF 011555Z AUTO 02003KT 10SM CLR 32/17 A2995 RMK AO2 T03160170
KEYW 011553Z 15010KT 10SM FEW029 32/24 A3002 RMK AO2 SLP164 T03170239
KEZF 011555Z AUTO 00000KT 10SM CLR 32/18 A2989 RMK AO2 T03190183
KEZM 011555Z AUTO 00000KT 10SM CLR 30/25 A2997 RMK AO2 T02960251
KEZS 011555Z AUTO 28008KT 10SM CLR 24/12 A2993 RMK AO2 T02440117
KF05 011555Z AUTO 25005KT 10SM CLR 25/20 A3012 RMK AO1 LTG DSNT W T02520200
KF17 011555Z AUTO 05009KT 020V080 10SM CLR 32/19 A3003 RMK AO2 T03160188
KF44 011555Z AUTO 08006KT 10SM CLR 31/18 A3006 RMK AO2
KF46 011555Z AUTO 13006KT 10SM OVC110 30/18 A3008 RMK AO2 T03040184
KF70 011555Z AUTO 00000KT 7SM SCT003 20/18 A3001 RMK AO1
KFAF 011558Z AUTO VRB04KT 10SM CLR 30/17 A2991 RMK AO2 SLP132 T03020170 $
KFAM 011555Z AUTO 06004KT 10SM CLR 28/21 A3012 RMK AO1
KFAR 011553Z VRB04KT 10SM CLR 26/11 A2992 RMK AO2 SLP127 T02560106
KFAT 011553Z 33005KT 10SM FEW200 27/06 A2997 RMK AO2 SLP143 T02720061
KFAY 011553Z AUTO 05005KT 10SM CLR 32/15 A2995 RMK AO2 SLP134 T03170150
KFBG 011558Z AUTO VRB02KT 10SM CLR 32/15 A2994 RMK AO2 SLP139 T03170150 $
KFBL 011554Z AUTO 00000KT 10SM CLR 24/18 A3000 RMK AO2
KFBR 011555Z AUTO 36003KT 10SM CLR 23/M01 A3038 RMK AO2 T02291006
KFCH 011555Z AUTO 10SM CLR 27/10 A2996 RMK A01
KFCI 011555Z AUTO 20006KT 10SM CLR 31/15 A2994 RMK AO1
KFCM 011553Z VRB05KT 10SM CLR 26/16 A2997 RMK AO2 SLP143 T02610161
KFCS 011558Z AUTO VRB02KT 10SM CLR 23/14 A3023 RMK AO2 SLP178 T02290139
KFDK 011545Z 27005KT 240V290 10SM SCT070 29/19 A2993
KFDR 011553Z AUTO VRB03KT 10SM FEW014 BKN110 26/22 A3009 RMK AO2 SLP171 T02610222 $
KFDW 011615Z AUTO 02008KT 10SM CLR 32/15 A2998 RMK AO1
KFDY 011553Z AUTO 30010KT 10SM CLR 26/14 A2997 RMK AO2 SLP141 T02610139
KFEP 011555Z AUTO 25006KT 10SM SCT090 26/17 A3003 RMK AO2 T02600170
KFET 011555Z AUTO 00000KT 10SM CLR 26/17 A3004 RMK AO2 T02570173
KFEW 011556Z AUTO 20010G18KT 10SM CLR 27/07 A3018 RMK AO2 SLP136 T02680066 $
KFFA 011555Z AUTO 14009KT 130V190 SCT070 SCT080 31/21 A2993 RMK AO2 T03100207 PWINO
KFFC 011553Z AUTO 03006KT 10SM SCT040 BKN065 29/21 A3000 RMK AO2 SLP150 T02890206
KFFL 011555Z AUTO 19007G12KT 10SM CLR 27/17 A3004 RMK AO2
KFFM 011554Z AUTO 00000KT 10SM CLR 24/14 A2994 RMK AO2
KFFO 011558Z 32008KT 10SM FEW040 26/15 A3001 RMK AO2A SLP160 T02560146
KFFT 011553Z AUTO 32006KT 10SM CLR 28/15 A3002 RMK AO2 SLP157 T02780150
KFFX 011551Z AUTO 28014G17KT 10SM CLR 26/09 A2992 RMK AO2 T02590087
KFFZ 011447Z 00000KT 40SM SCT090 BKN150 28/19 A2994
KFGN 011554Z AUTO 28011G17KT 10SM CLR 23/09 A2983 RMK AO2
KFGX 011555Z AUTO 32004KT 10SM CLR 26/13 A3004 RMK AO2 T02620132
KFHB 011555Z AUTO 21009KT 10SM SCT023 SCT045 OVC050 31/23 A2992 RMK AO1
KFHR 011553Z AUTO 00000KT 7SM CLR 18/11 A3004 RMK AO2 SLP171 T01830106
KFHU 011558Z AUTO 12007KT 7SM CLR 26/17 A3019 RMK AO2 SLP153 T02550165
KFIG 011554Z AUTO 29008KT 10SM FEW050 FEW060 24/12 A2994 RMK AO2 SLP128 T02440117
KFIN 011550Z 23010G20KT 7SM BKN023 31/23 A2996
KFIT 011552Z AUTO 22004KT 10SM SCT085 26/17 A2977 RMK AO2 SLP079 T02610167
KFKA 011553Z AUTO 30004KT 10SM SCT110 23/17 A3001 RMK AO2 T02320174
KFKL 011555Z AUTO 32009KT 10SM FEW037 FEW044 SCT055 24/13 A2996 RMK AO1
KFKN 011555Z AUTO 24004KT 10SM CLR 31/18 A2993 RMK AO2 T03120176
KFKR 011555Z AUTO 30004KT 10SM CLR 26/14 A3006 RMK AO2 T02600144
KFKS 011553Z AUTO 26005KT 10SM CLR 23/17 A2990 RMK AO2 T02290169
KFLD 011553Z AUTO 29012KT 10SM FEW075 26/11 A2996 RMK AO2 SLP142 T02560111
KFLG 011557Z AUTO 00000KT 10SM OVC070 20/12 A3037 RMK AO2 SLP182 T02000117 TSNO
KFLL 011553Z COR 15014KT 10SM FEW031 SCT085 BKN140 32/22 A3000 RMK AO2 SLP160 T03220222
KFLO 011553Z 06007KT 10SM CLR 33/18 A2995 RMK AO2 SLP139 T03280178
KFLP 011555Z 00000KT 10SM CLR 28/20 A3008 RMK AO1
KFLY 011553Z AUTO 16008KT 10SM CLR 22/13 A3033 RMK AO2 T02220125
KFME 011606Z AUTO 27004KT 10SM SCT120 28/17 A2992 RMK AO1
KFMH 011555Z AUTO 23011G16KT 10SM CLR 29/19 A2977 RMK AO2
KFMM 011555Z AUTO 16006KT 10SM CLR 26/16 A3015 RMK AO2 T02640164
KFMN 011553Z 03004KT 10SM OVC100 22/16 A3028 RMK AO2 SLP199 T02170156
KFMY 011553Z 20008KT 10SM FEW023 FEW060 31/26 A2999 RMK AO2 LTG DSNT W-NE SLP158 T03110261
KFNB 011553Z AUTO 33010KT 10SM FEW070 28/22 A3006 RMK AO2 SLP168 T02780222
KFNL 011555Z AUTO 34006KT 10SM CLR 24/13 A3017 RMK AO1
KFNT 011553Z 28012G17KT 10SM FEW090 FEW100 27/13 A2992 RMK AO2 SLP126 T02670133
KFOA 011555Z AUTO 02005KT 10SM CLR 28/13 A3007 RMK AO2 T02760125
KFOD 011555Z 21007KT 10SM CLR 28/22 A3003 RMK AO1
KFOE 011553Z 31005KT 10SM CLR 31/23 A3008 RMK AO2 SLP173 T03060228
KFOK 011553Z 22010KT 10SM CLR 31/18 A2981 RMK AO2 SLP093 T03060178
KFOT 011555Z AUTO 34003KT 10SM OVC003 15/14 A2999 RMK AO1
KFOZ 011553Z AUTO 28006KT 10SM CLR 24/09 A2992 RMK AO2
KFPK 011555Z AUTO 26011G16KT 10SM CLR 25/13 A2993 RMK AO2 T02510127
KFPR 011553Z 16009KT 10SM BKN110 29/24 A3002 RMK AO2 SLP165 T02940239
KFQD 011555Z AUTO 35005KT 10SM CLR 30/13 A3002 RMK AO2 T02960128
KFRG 011553Z 26014KT 10SM FEW100 31/16 A2980 RMK AO2 SLP090 T03110161 $
KFRI 011558Z AUTO VRB01KT 10SM CLR 30/23 A3008 RMK AO2 SLP174 T02980226
KFRM 011555Z AUTO 27006KT 10SM CLR 27/18 A3000 RMK AO1
KFRR 011555Z AUTO 00000KT 10SM BKN047 BKN050 27/18 A2992 RMK AO1
KFSD 011556Z 22008KT 10SM SCT140 BKN250 26/19 A3001 RMK AO2 SLP152 T02610194
KFSE 011554Z AUTO 00000KT 10SM CLR 23/13 A2993 RMK AO2
KFSI 011558Z AUTO VRB04KT 10SM CLR 29/22 A3009 RMK AO2 SLP181 T02850216
KFSM 011553Z 00000KT 10SM CLR 30/18 A3007 RMK AO2 SLP178 T03000178
KFSO 011555Z AUTO 25008KT 220V280 10SM SCT040 SCT045 SCT055 23/16 A2972 RMK AO2 T02300159
KFST 011553Z AUTO 15009KT 10SM CLR 31/17 A3012 RMK AO2 SLP143 T03110167 $
KFSW 011555Z AUTO 19008KT 10SM CLR 26/17 A3005 RMK AO2
KFTG 011548Z 23006KT 50SM FEW200 26/09 A3020
KFTK 011558Z AUTO 27006KT 10SM CLR 28/17 A3002 RMK AO2 SLP162 T02790165
KFTN 011555Z AUTO 09005KT 10SM 32/20 A3002 RMK A01
KFTW 011553Z 12008KT 10SM CLR 33/16 A3007 RMK AO2 SLP172 T03280161
KFTY 011553Z 05006KT 10SM BKN047 OVC060 29/17 A3001 RMK AO2 SLP151 T02890167
KFUL 011553Z 18003KT 10SM OVC019 23/17 A2998 RMK AO2 SLP150 T02280172
KFVE 011553Z AUTO 20010KT 10SM FEW029 22/15 A2963 RMK AO2 SLP030 T02220150
KFVX 011555Z AUTO 18004KT 10SM CLR 32/14 A2993 RMK AO2 T03200141
KFWA 011554Z 31004KT 10SM SCT080 26/13 A3001 RMK AO2 SLP157 T02610133
KFWB 011555Z AUTO 22004KT 10SM CLR 28/19 A3013 RMK AO2
KFWC 011555Z AUTO 04005KT 10SM CLR 27/17 A3006 RMK AO1 T02700165
KFWN 011553Z AUTO VRB05KT 10SM SCT047 SCT060 SCT085 28/16 A2982 RMK AO2 SLP094 T02780156
KFWS 011549Z 12005KT 10SM SCT100 31/17 A3010
KFWZ 011555Z AUTO 34008G15KT 10SM CLR 21/M01 A3038 RMK AO2
KFXE 011553Z 14013G19KT 10SM SCT026 SCT160 BKN230 32/24 A3001 RMK AO2 SLP165 T03220239
KFXY 011555Z AUTO 26005KT 10SM CLR 26/19 A3001 RMK AO2
KFYG 011535Z AUTO 00000KT 10SM CLR 28/19 A3006 RMK AO2
KFYJ 011555Z AUTO 19004KT 10SM CLR 31/18 A2993 RMK AO2 T03120176
KFYM 011555Z AUTO 07008KT 10SM CLR 29/17 A3006 RMK
KFYV 011553Z 17005KT 10SM CLR 29/19 A3011 RMK AO2 SLP182 T02890194
KFZG 011555Z AUTO 05003KT 10SM OVC008 28/27 A2997 RMK AO2 T02830266
KFZY 011554Z AUTO 28013G20KT 10SM FEW028 23/16 A2984 RMK AO2 SLP101 T02330161
KGAD 011555Z 08014KT 10SM CLR 31/16 A2999 RMK AO1
KGAF 011555Z AUTO 24004KT 10SM CLR 25/13 A2988 RMK AO2
KGAG 011553Z AUTO VRB06KT 10SM CLR 27/21 A3012 RMK AO2 SLP172 T02720206
KGAI 011555Z AUTO 29007KT 10SM FEW043 28/18 A2995 RMK AO1
KGBD 011555Z AUTO 23006KT 10SM SCT027 28/21 A3009 RMK AO1
KGBG 011555Z AUTO 19006KT 10SM CLR 27/18 A3004 RMK AO2 T02660177
KGBK 011135Z AUTO VRB03G10KT 10SM FEW019 SCT047 BKN070 27/24 A2992 RMK A01
KGCC 011553Z AUTO 04008KT 10SM CLR 28/06 A3011 RMK AO2 SLP139 T02830056 $
KGCD 011555Z AUTO 09006KT 10SM CLR 24/04 A3013 RMK AO2 T02370035
KGCK 011554Z 19007KT 10SM CLR 26/19 A3012 RMK AO2 SLP164 T02610194
KGCN 011554Z 36003KT 10SM -RA OVC080 17/15 A3037 RMK AO2 RAE1458B14 SLP199 P0001 T01670150
KGDB 011551Z AUTO 08003KT 10SM CLR 24/19 A2999 RMK AO2 T02360189
KGDJ 011555Z AUTO 08005KT 10SM CLR 31/17 A3010 RMK AO2 T03140166
KGDP 011551Z AUTO 07014KT 9SM CLR 25/15 A3029 RMK AO2 SLP171 T02500150
KGDV 011555Z AUTO 00000KT 10SM CLR 24/12 A2996 RMK AO1
KGED 011554Z AUTO 23007KT 10SM CLR 31/18 A2989 RMK AO2 SLP119 T03110178
KGEG 011553Z 13006KT 10SM FEW200 26/01 A2999 RMK AO2 SLP130 FU DSNT W-N T02610011
KGEU 011548Z VRB04KT 20SM FEW120 BKN180 BKN250 31/20 A2994
KGEV 011555Z AUTO 31009KT 10SM CLR 23/08 A3012 RMK AO2 T02330082
KGEY 011553Z AUTO 00000KT 10SM CLR 26/02 A3012 RMK AO2 SLP151 T02560022
KGEZ 011553Z AUTO 32006KT 10SM CLR 27/13 A3003 RMK AO2 SLP162 T02720133
KGFA 011556Z AUTO 25011KT 10SM CLR 27/04 A3002 RMK AO2 SLP137 T02660035 TSNO $
KGFK 011553Z 22008KT 10SM FEW060 26/12 A2988 RMK AO2 SLP118 T02560117
KGFL 011553Z AUTO 28010KT 10SM CLR 27/12 A2977 RMK AO2 SLP077 T02670122
KGGE 011555Z AUTO 11006KT 10SM SCT019 SCT050 SCT085 29/25 A2996 RMK AO2 LTG DSNT S
KGGG 011553Z 09009KT 10SM CLR 32/18 A3005 RMK AO2 SLP167 T03220178
KGGI 011555Z AUTO 21006KT 10SM CLR 25/19 A3005 RMK AO2 T02520193
KGGP 011555Z AUTO 28006KT 10SM CLR 26/09 A3003 RMK AO2
KGGW 011553Z AUTO 13009KT 10SM CLR 26/11 A2989 RMK AO2 SLP107 T02560111
KGHB 011555Z AUTO 23007KT 10SM SCT065 30/25 A2995 RMK A01
KGHG 011555Z AUTO 25007G14KT 360V010 10SM CLR 31/17 A2976 RMK AO2
KGHW 011554Z AUTO 00000KT 10SM CLR 26/12 A2999 RMK AO2
KGIC 011555Z AUTO 00000KT 10SM CLR 25/04 A3006 RMK AO1 T02530041
KGIF 011602Z AUTO 21014G21KT 10SM BKN028 BKN033 BKN120 31/24 A2999 RMK AO2 T03060239 TSNO
KGJT 011553Z 14009KT 10SM CLR 27/08 A3019 RMK AO2 SLP146 T02670083
KGKJ 011553Z AUTO 28008KT 10SM FEW046 SCT055 25/12 A2995 RMK AO2 SLP131 T02500122 TSNO
KGKT 011555Z AUTO 36003KT 10SM 29/13 A3005 RMK
KGKY 011553Z 16007KT 10SM BKN100 32/15 A3008 RMK AO2 SLP174 T03220150
KGLD 011553Z AUTO 21013KT 10SM CLR 28/16 A3013 RMK AO2 SLP154 T02780161
KGLE 011555Z AUTO 15006KT 10SM BKN090 29/18 A3012 RMK AO2 T02930181
KGLH 011553Z AUTO 05010KT 10SM CLR 31/21 A3002 RMK AO2 SLP172 T03060206
KGLR 011553Z AUTO 29008G16KT 10SM FEW034 SCT043 SCT060 23/12 A2988 RMK AO2 SLP115 T02280122
KGLS 011552Z 07012G17KT 10SM CLR 32/22 A2998 RMK AO2 SLP150 T03170222
KGLW 011555Z AUTO 00000KT 10SM CLR A3003 RMK AO2
KGLY 011555Z AUTO 24003KT 9SM CLR 30/24 A3009 RMK AO2
KGMJ 011555Z AUTO 00000KT 10SM CLR 30/18 A3009 RMK AO2
KGMU 011553Z 01007KT 10SM CLR 31/14 A3002 RMK AO2 SLP152 T03110139
KGNA 011556Z AUTO 31009G19KT 25/11 A2983 RMK AO1 SLP093 T02500111
KGNC 011555Z AUTO 00000KT 10SM CLR 29/17 A3017 RMK AO2 T02930170
KGNR 011556Z AUTO 00000KT 22/14 A2969 RMK AO1 SLP052 T02170144
KGNT 011555Z AUTO 15004KT 10SM SCT110 21/15 A3037 RMK AO2 T02050145
KGNV 011601Z 21006KT 3SM RA BR BKN009 BKN050 OVC090 24/23 A2996 RMK AO2 P0003 T02390233
KGOK 011553Z AUTO 20008KT 10SM CLR 30/21 A3009 RMK AO2 SLP178 T03000206
KGON 011556Z 23012KT 10SM CLR 27/19 A2977 RMK AO2 SLP082 T02670194
KGOO 011555Z AUTO 00000KT 10SM CLR 27/10 A3012 RMK AO1
KGOP 011555Z AUTO 09004KT 10SM CLR 31/16 A3010 RMK AO2
KGOV 011554Z AUTO 27010G18KT 10SM SCT036 SCT046 SCT055 25/12 A2989 RMK AO2 T02460115
KGPH 011555Z AUTO 28005KT 10SM 30/21 A3006 RMK AO2
KGPI 011555Z 05004KT 10SM CLR 23/04 A3003 RMK AO2 SLP148 T02330039
KGPM 011550Z 10008KT 10SM SKC 31/17 A3009
KGPT 011553Z 04007KT 340V060 10SM CLR 31/21 A2992 RMK AO2 SLP130 T03060206
KGPZ 011555Z AUTO 27007KT 260V320 10SM CLR 23/12 A2994 RMK AO1
KGRB 011553Z 30012KT 10SM CLR 24/12 A2992 RMK AO2 SLP130 T02440122
KGRD 011556Z AUTO 05008KT 10SM SCT065 BKN080 BKN100 31/14 A3001 RMK AO2 SLP153 T03110139
KGRF 011558Z AUTO VRB01KT 10SM CLR 20/11 A3002 RMK AO2 SLP168 T01990112 PWINO $
KGRI 011553Z 00000KT 10SM BKN095 BKN110 22/16 A3008 RMK AO2 SLP180 T02170156
KGRK 011558Z AUTO 10005KT 10SM CLR 31/15 A3008 RMK AO2 SLP173 T03070150
KGRR 011553Z 30012G18KT 10SM FEW055 SCT080 27/12 A2994 RMK AO2 SLP135 T02670117
KGRY 011600Z AUTO 27007KT 210V310 9SM BKN044 29/24 A2995 RMK A01 P0001
KGSB 011558Z AUTO VRB01KT 10SM CLR 31/21 A2993 RMK AO2 SLP137 T03130212 $
KGSH 011553Z AUTO 28009KT 10SM CLR 26/14 A2999 RMK AO2 SLP152 T02560144
KGSO 011554Z 36005KT 10SM FEW040 29/14 A2999 RMK AO2 SLP141 T02940139
KGSP 011553Z 02010KT 10SM CLR 31/13 A3000 RMK AO2 SLP144 T03060128
KGTB 011558Z AUTO 24010KT 10SM FEW030 SCT038 23/14 A2980 RMK AO2 SLP089 T02320140
KGTF 011553Z 23010KT 10SM CLR 28/03 A3003 RMK AO2 SLP129 T02780033
KGTR 011545Z 05010G16KT 10SM SKC 32/18 A3000
KGTU 011547Z 05010G15KT 10SM CLR 31/16 A3005
KGUC 011555Z AUTO 35003KT 10SM CLR 18/07 A3045 RMK AO1
KGUL 011555Z AUTO 27010KT 10SM FEW085 26/24 A2994 RMK A01
KGUP 011553Z AUTO 17004KT 10SM CLR 22/14 A3033 RMK AO2 SLP121 T02220139
KGUR 011555Z AUTO 31008KT 10SM 31/12 A3012 RMK AO2 T03130115 PWINO
KGUS 011558Z AUTO 31006KT 10SM CLR 26/13 A3002 RMK AO2 SLP164 T02590127
KGUY 011553Z AUTO 19010KT 10SM CLR 24/21 A3012 RMK AO2 RAE14 SLP156 P0011 T02390206
KGVE 011553Z AUTO 00000KT 10SM CLR 29/17 A2992 RMK AO1
KGVL 011553Z AUTO 13007KT 10SM BKN055 BKN070 28/17 A3005 RMK AO2 SLP158 T02780172
KGVT 011555Z AUTO 11006KT 10SM CLR 32/15 A3009 RMK AO2
KGVX 011555Z AUTO 03011KT 10SM CLR 30/24 A2996 RMK A01
KGWB 011555Z AUTO 30009KT 10SM CLR 26/11 A3000 RMK AO2
KGWO 011553Z AUTO 05010G15KT 10SM CLR 32/19 A3002 RMK AO2 SLP163 T03170189
KGWR 011615Z AUTO 12011KT FEW110 26/17 A2992 RMK AO1
KGWW 011555Z AUTO 00000KT 10SM CLR 31/20 A2995 RMK AO2 T03060195
KGXA 011555Z AUTO VRB03KT 29/03 A3008 RMK AO2 SLP126 T02880034 TSNO $
KGXF 011558Z 07003KT 10SM BKN120 32/18 A2991 RMK AO2A SLP115 T03200182
KGXY 011555Z AUTO 13004KT 10SM CLR 25/13 A3015 RMK AO1
KGYB 011555Z AUTO 10005KT 10SM CLR 31/18 A3008 RMK AO2 T03080178
KGYH 011547Z 07010KT 10SM CLR 29/08 A3001
KGYI 011555Z AUTO 16008KT 10SM SCT095 31/19 A3011 RMK AO2 T03120190
KGYL 011554Z AUTO 00000KT 10SM CLR 25/17 A2998 RMK AO2 T02540174
KGYR 011547Z 00000KT 10SM BKN150 BKN180 BKN250 30/22 A2994
KGYY 011545Z 29010KT 20SM FEW150 28/11 A3000
KGZH 011553Z AUTO 02006KT 10SM CLR 31/20 A2992 RMK AO2 SLP128 T03110200
KGZL 011555Z AUTO 18003KT 10SM FEW110 33/13 A3009 RMK AO2
KH78 011342Z 26014KT 20SM FEW020 SCT040 28/25 A2988 RMK SEAS 2-4
KHAE 011555Z AUTO 15004KT 10SM CLR 27/17 A3007 RMK AO2
KHAI 011555Z AUTO 30008KT 10SM CLR 27/13 A2998 RMK AO2 T02660127
KHAO 011553Z AUTO 01006KT 10SM CLR 28/14 A3003 RMK AO2 SLP163 T02780144
KHBG 011553Z AUTO 06007KT 10SM CLR 30/18 A2997 RMK AO2 SLP144 T03000178
KHBI 011555Z AUTO 00000KT 10SM CLR 29/13 A3001 RMK AO2 T02930132
KHBR 011553Z AUTO 29004KT 10SM FEW021 BKN100 OVC120 27/21 A3012 RMK AO2 SLP183 T02670211
KHBV 011550Z AUTO 00000KT 10SM 29/22 A3002 RMK AO2 T02930217
KHCD 011552Z AUTO 00000KT 10SM CLR 26/17 A2999 RMK AO2 T02580172
KHCO 011554Z AUTO 21005KT 10SM CLR 24/13 A2987 RMK AO2
KHDC 011555Z AUTO 03007KT 10SM CLR 31/16 A2997 RMK AO2
KHDE 011555Z AUTO 10012KT 10SM CLR 25/14 A3011 RMK AO2 T02480144
KHDN 011555Z AUTO 00000KT 10SM CLR 21/04 A3032 RMK AO1
KHDO 011551Z AUTO 07009KT 10SM CLR 32/22 A3004 RMK AO2 SLP156 T03220217
KHEF 011545Z 24004KT 10SM FEW002 SCT050 29/18 A2991
KHEI 011553Z AUTO 31013KT 10SM CLR 29/09 A2995 RMK AO2 SLP118 T02940089
KHEY 011553Z AUTO 02008KT 10SM CLR 31/23 A2990 RMK AO2 SLP014 T03110228 $
KHEZ 011555Z AUTO 04011KT 10SM CLR 29/19 A3001 RMK AO1
KHFD 011553Z VRB04KT 10SM FEW050 SCT120 29/17 A2976 RMK AO2 SLP078 T02890167
KHFF 011556Z AUTO 03005G11KT 10SM CLR 32/14 A2996 RMK AO2 SLP157 T03200139 TSNO $
KHFJ 011555Z AUTO 22007KT 10SM CLR 28/17 A3011 RMK AO2
KHGR 011553Z 27008KT 10SM BKN080 28/13 A2991 RMK AO2 SLP131 T02830128 $
KHHF 011555Z AUTO 26004KT 10SM SCT060 BKN120 26/20 A3013 RMK AO2 T02610201
KHHG 011555Z AUTO 28006KT 10SM CLR 25/14 A3001 RMK AO2 T02500143
KHHR 011553Z 00000KT 9SM OVC017 22/17 A2999 RMK AO2 SLP155 T02170172
KHHV 011555Z AUTO VRB05G11KT 7SM FEW036 27/24 A2996 RMK A01
KHHW 011555Z AUTO 13006KT 10SM BKN100 32/17 A3009 RMK AO2 T03170174
KHIB 011553Z AUTO 32012G17KT 10SM CLR 24/11 A2992 RMK AO2 SLP128 T02390106
KHIE 011552Z AUTO 27008KT 10SM CLR 24/14 A2974 RMK AO2 SLP067 T02440144 TSNO
KHIF 011558Z AUTO 11014KT 10SM CLR 22/03 A3019 RMK AO2 SLP166 T02210030
KHII 011550Z AUTO 19005KT 10SM -RA CLR 33/15 A2993 RMK AO2
KHIO 011553Z 36004KT 10SM CLR 22/06 A2998 RMK AO2 SLP146 T02170056
KHJH 011555Z AUTO 03007KT 10SM CLR 26/15 A3009 RMK AO2 T02580146
KHJO 011553Z AUTO 01003KT 9SM CLR 27/09 A2996 RMK AO2 SLP144 T02720094
KHKA 011553Z AUTO 00000KT 10SM CLR 31/22 A3004 RMK AO2 SLP170 T03110222
KHKS 011553Z 06007G16KT 020V090 10SM CLR 31/16 A3001 RMK AO2 SLP152 T03060161
KHKY 011553Z 31004KT 10SM CLR 30/13 A3001 RMK AO2 SLP138 T03000128
KHLC 011553Z AUTO VRB06KT 10SM CLR 29/19 A3011 RMK AO2 SLP170 T02940194
KHLG 011553Z VRB06KT 10SM SCT047 25/13 A2997 RMK AO2 SLP143 T02500128
KHLN 011553Z 36003KT 10SM CLR 21/04 A3012 RMK AO2 SLP177 T02110044
KHLR 011558Z AUTO 13008KT 10SM CLR 31/16 A3007 RMK AO2 SLP169 T03070157
KHLX 011555Z AUTO 29009G15KT 10SM SCT042 24/14 A3008 RMK AO2 T02380137
KHMN 011558Z AUTO VRB04KT 10SM CLR 29/13 A3017 RMK AO2 SLP140 T02890132
KHNB 011555Z AUTO 35006KT 10SM CLR 28/15 A3005 RMK AO1
KHND 011556Z 17016KT 10SM FEW110 31/16 A3002 RMK AO2 LTG DSNT SE AND NW SLP134 T03110156
KHNR 011555Z AUTO 19003KT 10SM CLR 21/21 A3009 RMK AO2
KHNZ 011555Z AUTO 01004KT 10SM CLR 30/13 A2997 RMK AO2 T02970129
KHOB 011550Z 04004KT 10SM SKC 28/18 A3019
KHOE 011555Z AUTO 08005KT 10SM SCT013 BKN020 30/26 A2994 RMK AO2
KHON 011555Z AUTO 21014KT 10SM CLR 26/19 A2993 RMK AO2 SLP126 T02560194 $
KHOP 011558Z AUTO VRB02KT 10SM CLR 29/23 A3003 RMK AO2 SLP165 T02900227
KHOT 011553Z AUTO 14006KT 10SM CLR 33/16 A3008 RMK AO2 SLP177 T03280156
KHOU 011553Z 10011KT 10SM BKN250 32/18 A2997 RMK AO2 SLP154 T03220178
KHPN 011556Z 24008KT 10SM SCT055 28/17 A2981 RMK AO2 SLP088 T02830167
KHQI 011555Z AUTO VRB06KT 10SM FEW065 31/24 A2996 RMK A01
KHQM 011553Z AUTO VRB03KT 4SM BR OVC003 13/13 A3003 RMK AO2 SLP173 T01330128
KHQU 011555Z AUTO 09006KT 10SM SCT070 31/20 A3002 RMK AO1 T03140200
KHQZ 011550Z 11005KT 10SM CLR 31/16 A3008
KHRI 011553Z AUTO 30004KT 10SM CLR 27/05 A2992 RMK AO2 SLP126 T02720050
KHRJ 011555Z AUTO 06003KT 10SM CLR 33/13 A2996 RMK AO2 T03290131
KHRL 011552Z 33003KT 10SM BKN060 33/23 A2997 RMK AO2 SLP147 T03280228
KHRO 011553Z AUTO 00000KT 10SM CLR 29/19 A3012 RMK AO2 SLP185 T02940189
KHRT 011601Z AUTO 08006KT 10SM FEW027 31/24 A2989 RMK AO2 DZB1558E01 $
KHRX 011555Z AUTO 10SM SCT010 SCT120 23/21 A3022 RMK AO2 T02270205
KHSA 011550Z 06006KT 10SM CLR 30/18 A2993
KHSB 011555Z AUTO 05004KT 10SM CLR 28/17 A3007 RMK AO2 T02750167
KHSE 011551Z AUTO 16013KT 10SM CLR 28/22 A2995 RMK AO2 SLP142 T02780222 TSNO
KHSI 011553Z AUTO 08008KT 10SM CLR 24/16 A3009 RMK AO2 SLP174 T02440156
KHSP 011550Z AUTO 27010KT 10SM SCT025 SCT040 22/14 A3010 RMK AO2 T02170143
KHST 011558Z AUTO 15009KT 10SM FEW180 31/24 A3001 RMK AO2 SLP165 T03140235
KHSV 011553Z 05013KT 10SM CLR 32/17 A3003 RMK AO2 SLP161 T03170172
KHTL 011553Z AUTO 27011G19KT 10SM CLR 24/13 A2989 RMK AO2 SLP119 T02390128
KHTO 011550Z 25010KT 10SM SKC 29/ A2979
KHTS 011551Z VRB04KT 10SM CLR 27/13 A3001 RMK AO2 SLP154 T02720128
KHUA 011558Z AUTO 04014G18KT 10SM CLR 30/17 A3003 RMK AO2 SLP163 T03020169 $
KHUF 011553Z AUTO 35003KT 10SM CLR 27/11 A3005 RMK AO2 SLP172 T02720111
KHUL 011553Z AUTO 22007KT 9SM BKN095 25/13 A2965 RMK AO2 SLP040 T02500133
KHUM 011550Z 02008KT 7SM SKC 31/21 A2994 RMK ATIS T...... VA RY36....RJ
KHUT 011552Z 14005KT 10SM CLR 29/21 A3009 RMK AO2 SLP167 T02940211
KHVE 011555Z AUTO 17004KT 10SM CLR 27/09 A3017 RMK AO2
KHVN 011553Z 21010KT 10SM OVC110 26/19 A2978 RMK AO2 SLP085 T02560189
KHVR 011553Z AUTO 24014KT 10SM CLR 26/04 A2993 RMK AO2 SLP119 T02610044
KHVS 011555Z AUTO 00000KT 7SM CLR 32/14 A2997 RMK AO2
KHWD 011554Z 30006KT 10SM OVC019 19/14 A3003 RMK AO2 SLP177 T01890139
KHWO 011553Z 16013KT 10SM CLR 33/22 A3002 RMK AO2 SLP166 T03280222
KHWV 011556Z AUTO 21010KT 10SM CLR 31/19 A2980 RMK AO2 SLP089 T03110189 TSNO
KHWY 011555Z AUTO 19003KT 10SM CLR 30/21 A2991 RMK AO2 T02950206
KHXD 011550Z 00000KT 10SM SCT021 BKN027 29/23 A2995
KHYA 011556Z 22015KT 10SM CLR 30/17 A2976 RMK AO2 SLP079 T03000167 $
KHYI 011550Z 08006KT 10SM CLR 32/19 A3004
KHYR 011553Z AUTO VRB06KT 10SM CLR 24/11 A2995 RMK AO2 SLP141 T02390106
KHYS 011555Z AUTO 18006KT 10SM CLR 29/19 A3009 RMK AO1
KHYW 011555Z AUTO 15005KT 7SM SCT035 SCT048 31/22 A2995 RMK AO2 LTG DSNT S
KHYX 011554Z AUTO 25011G16KT 10SM CLR 26/13 A2989 RMK AO2
KHZE 011555Z AUTO 25003KT 10SM CLR 25/12 A2989 RMK AO2
KHZL 011555Z AUTO 28006KT 10SM SCT034 SCT043 SCT050 25/16 A2993 RMK AO2
KHZR 011555Z AUTO 04008KT 10SM CLR A2998 RMK AO2
KHZX 011553Z AUTO 30006KT 10SM CLR 23/11 A2995 RMK AO2
KHZY 011553Z AUTO 30011G18KT 10SM CLR 25/12 A2995 RMK AO2 SLP134 T02500122
KI16 011555Z AUTO 10SM CLR 26/17 A3010 RMK AO2 T02640173
KI39 011555Z AUTO 32006KT 10SM CLR 27/15 A3004 RMK AO2
KI67 011555Z AUTO 36004KT 10SM CLR 26/13 A3002 RMK AO1
KI69 011545Z AUTO 32007KT 10SM SCT060 26/14 A3002 RMK AO1
KI75 011555Z AUTO 20006KT 10SM CLR 26/22 A3005 RMK AO2 T02600216
KIAB 011558Z AUTO 15006KT 10SM CLR 28/22 A3010 RMK AO2 SLP181 T02820217
KIAD 011552Z 27008KT 10SM FEW045 SCT110 BKN130 28/17 A2991 RMK AO2 SLP125 T02830167
KIAG 011553Z 29012G20KT 10SM SCT038 SCT220 23/11 A2987 RMK AO2 SLP113 T02330106
KIAH 011553Z 09009KT 10SM FEW130 BKN250 32/19 A2999 RMK AO2 SLP155 T03220189
KIBM 011555Z AUTO 20012KT 10SM CLR 28/13 A3013 RMK AO2 T02810125
KICL 011555Z AUTO 26003KT 10SM FEW018 25/22 A3008 RMK AO2
KICR 011553Z AUTO 20020G31KT 10SM CLR 22/14 A2999 RMK AO2 PK WND 22038/1501 SLP141 T02170139
KICT 011553Z 17006KT 10SM FEW020 FEW250 28/22 A3009 RMK AO2 SLP173 T02780222
KIDA 011553Z 03005KT 10SM CLR 22/07 A3021 RMK AO2 SLP190 T02170072
KIDI 011555Z AUTO 34005KT 10SM SCT045 BKN055 OVC080 24/15 A2998 RMK A01
KIDP 011555Z AUTO 00000KT 10SM CLR 28/20 A3008 RMK AO2
KIEN 011552Z AUTO 13015KT 10SM CLR 26/15 A3005 RMK AO2 LTG DSNT E SLP145 T02560150
KIER 011555Z AUTO 07010G14KT 10SM CLR 32/20 A3002 RMK AO2 T03160200
KIFA 011555Z AUTO 24008KT 10SM CLR 27/21 A3003 RMK AO2 T02740213
KIFP 011555Z AUTO 00000KT 10SM BKN110 33/15 A2995 RMK AO2
KIGM 011551Z AUTO 24010KT 10SM BKN090 29/13 A3013 RMK AO2 RAB16E37 SLP125 P0000 T02890128
KIGQ 011555Z AUTO 31009G16KT 10SM CLR 28/11 A3000 RMK AO2 T02780114
KIGX 011556Z AUTO VRB03KT 10SM CLR 31/13 A2998 RMK AO2 SLP143 T03110133 TSNO
KIIB 011555Z AUTO 25012G18KT 10SM CLR 26/21 A3000 RMK AO2
KIIY 011555Z AUTO 00000KT 10SM CLR 30/18 A3000 RMK AO2
KIJD 011552Z AUTO 29010KT 10SM FEW120 29/17 A2977 RMK AO2 SLP080 T02890167
KIJX 011555Z AUTO 18003KT 10SM CLR 29/17 A3007 RMK AO2 T02850170
KIKK 011555Z AUTO 28005KT 10SM CLR 27/17 A3003 RMK AO2 T02660165
KIKT 011555Z AUTO 28007KT 10SM FEW015 35/25 A2991 RMK A01
KIKV 011555Z AUTO VRB06KT 10SM CLR 27/20 A3004 RMK AO2
KIKW 011553Z AUTO 28008G14KT 10SM SCT085 26/13 A2989 RMK AO2 T02570128
KILE 011555Z AUTO 06007KT 050V110 10SM CLR 31/17 A3007 RMK AO1
KILG 011551Z 25003KT 10SM FEW110 29/17 A2987 RMK AO2 SLP114 T02890172
KILM 011553Z 15004KT 10SM BKN019 29/24 A2994 RMK AO2 SLP139 T02940239
KILN 011554Z AUTO 32008KT 10SM CLR 26/13 A3002 RMK AO2 SLP155 T02560128
KIML 011553Z AUTO 09011KT 10SM CLR 29/17 A3011 RMK AO2 SLP161 T02890172
KIMS 011554Z AUTO 34005KT 10SM CLR 26/13 A3005 RMK AO1
KIMT 011554Z AUTO 30014G20KT 10SM CLR 23/11 A2989 RMK AO2 SLP118 T02330111
KIND 011554Z 32010KT 10SM FEW250 27/12 A3003 RMK AO2 SLP162 T02670122
KINF 011555Z AUTO 19007KT 7SM SCT029 BKN065 OVC100 23/23 A2998 RMK AO2 P0030
KINJ 011555Z AUTO 10007KT 060V140 10SM CLR 32/15 A3008 RMK AO2 T03160150
KINK 011553Z AUTO 14008KT 10SM CLR 32/18 A3010 RMK AO2 SLP137 T03170178
KINL 011555Z AUTO 27011G15KT 10SM CLR 23/12 A2987 RMK AO2 SLP115 T02330117
KINS 011558Z AUTO 03001KT 10SM FEW140 29/12 A3006 RMK AO2 SLP125 T02880117
KINT 011554Z 35005KT 10SM CLR 29/17 A3001 RMK AO2 SLP147 T02890167
KINW 011456Z AUTO 11004KT 10SM CLR 24/14 A3022 RMK AO2 SLP152 T02390144 51005
KIOB 011555Z AUTO 36005KT 10SM CLR 27/17 A3004 RMK AO2
KIOW 011552Z AUTO 22011G16KT 10SM CLR 27/18 A3003 RMK AO2 SLP163 T02720178
KIPJ 011555Z AUTO 34003KT 10SM CLR 30/13 A3001 RMK AO2 T02990130
KIPL 011553Z AUTO 13005KT 10SM CLR 35/12 A2984 RMK AO2 SLP107 T03500117
KIPN 011555Z AUTO 26020KT SCT065 BKN080 BKN095 29/24 A2991 RMK A01
KIPT 011554Z 25007KT 10SM FEW039 SCT050 28/16 A2985 RMK AO2 SLP106 T02780161
KIRK 011555Z AUTO VRB06KT 10SM CLR 27/21 A3007 RMK AO2 SLP179 T02670206
KIRS 011554Z AUTO 28008KT 10SM CLR 25/14 A2998 RMK AO2
KISM 011550Z 21008G15KT 10SM SCT085 30/25 A2999
KISN 011552Z AUTO 23005KT 10SM CLR 25/14 A2990 RMK AO2 SLP114 T02500139 $
KISO 011556Z 00000KT 10SM CLR 31/17 A2995 RMK AO2
KISP 011556Z 23008G14KT 10SM FEW055 BKN120 BKN260 31/17 A2978 RMK AO2 SLP082 T03110172 $
KISQ 011601Z AUTO 28009KT 10SM SCT044 24/12 A2985 RMK AO2
KISW 011554Z AUTO 33007KT 290V360 10SM SCT065 26/10 A2998 RMK AO2 SLP148 T02560100
KITH 011556Z 30007KT 10SM SCT041 24/14 A2989 RMK AO2 T02380144 SLP116
KITR 011553Z AUTO 18013KT 10SM CLR 27/16 A3017 RMK AO2 SLP160 T02670156
KIWA 011600Z 00000KT 35SM FEW150 SCT250 31/19 A2997
KIWD 011555Z AUTO 29011G14KT 10SM CLR 21/13 A2990 RMK AO1
KIWI 011553Z AUTO 22009KT 10SM CLR 28/17 A2971 RMK AO2 SLP059 T02780167
KIXA 011555Z AUTO 24007KT 210V290 10SM CLR 31/16 A2994 RMK AO2
KIXD 011553Z 27010KT 10SM SCT050 29/23 A3009 RMK AO2 SLP176 T02940233
KIYA 011555Z AUTO 06005KT 10SM CLR 31/18 A2998 RMK AO2 T03080181
KIZA 011555Z AUTO 00000KT 10SM OVC007 17/14 A3000 RMK AO2
KIZG 011554Z AUTO VRB06KT 10SM FEW120 26/18 A2972 RMK AO2 SLP062 T02610183
KJAC 011551Z 00000KT 10SM CLR 16/04 A3036
KJAN 011554Z 06013G21KT 10SM FEW250 32/15 A2999 RMK AO2 SLP150 T03170150
KJAS 011555Z AUTO 06007KT 10SM CLR 32/19 A3004 RMK AO2 T03210187
KJAX 011556Z 21007KT 10SM FEW025 SCT044 BKN055 BKN150 BKN250 29/23 A2993
KJBR 011553Z AUTO 34005KT 10SM CLR 31/19 A3004 RMK AO2 SLP169 T03110189
KJCT 011551Z AUTO 10008KT 10SM CLR 30/19 A3009 RMK AO2 SLP149 T03000194 $
KJDD 011555Z AUTO 13003KT 10SM CLR 31/17 A3008 RMK AO2
KJDN 011548Z AUTO 24019G24KT 33/03 A2992 RMK AO1 SLP108 T03280033
KJEF 011553Z 00000KT 10SM CLR 28/21 A3006 RMK AO2 SLP163 T02830206
KJER 011553Z AUTO 09009KT 10SM CLR 24/04 A3015 RMK AO2 SLP166 T02440039
KJES 011555Z AUTO 00000KT 10SM OVC008 28/26 A2996 RMK AO2
KJFK 011551Z 23011KT 10SM FEW050 BKN100 BKN250 29/18 A2982 RMK AO2 SLP097 T02890178 $
KJFX 011555Z AUTO 04012G20KT 10SM CLR 33/17 A3001 RMK A02 P-128
KJFZ 011555Z AUTO 30008G14KT 260V340 10SM BKN049 23/15 A3011 RMK AO2 T02340150
KJGG 011555Z AUTO 17004KT 10SM CLR 33/19 A2993 RMK AO1
KJHN 011555Z AUTO 15006KT 10SM CLR 27/19 A3012 RMK AO2 T02650194
KJHW 011555Z AUTO 30010G16KT 10SM SCT039 SCT048 21/12 A2995 RMK AO1
KJKA 011555Z AUTO 05005KT 10SM BKN018 30/25 A2989 RMK AO2 LTG DSNT SE AND S T03000251
KJKJ 011551Z AUTO 14003KT 10SM CLR 23/15 A2993 RMK AO2
KJKL 011553Z AUTO VRB03KT 10SM FEW060 27/17 A3005 RMK AO2 SLP161 T02720172
KJLN 011553Z VRB04KT 10SM CLR 31/18 A3010 RMK AO2 SLP180 T03060178
KJMR 011558Z AUTO 30007KT 10SM CLR 24/11 A2997 RMK AO2
KJMS 011556Z AUTO 15010KT 10SM CLR 25/16 A2990 RMK AO2 SLP117 T02500156
KJNX 011555Z AUTO 00000KT 10SM CLR 31/15 A2995 RMK AO2
KJOT 011555Z AUTO 27005KT 10SM BKN095 BKN110 27/16 A3002 RMK AO2 T02720157
KJQF 011550Z 34007KT 10SM CLR 31/13 A3003
KJSO 011555Z AUTO 07007KT 10SM CLR 31/16 A3009 RMK AO2 T03110168
KJST 011554Z AUTO 27011G15KT 10SM SCT036 BKN048 BKN060 22/13 A2999 RMK AO2 SLP141 T02220133
KJSV 011555Z AUTO 00000KT 10SM CLR 28/18 A3009 RMK AO2
KJVL 011545Z 28008KT 10SM SCT080 BKN110 27/14 A2999
KJVW 011555Z AUTO 01008G13KT 340V040 10SM CLR 30/27 A3000 RMK AO2
KJWG 011555Z AUTO 20006KT 10SM CLR 28/23 A3011 RMK AO2 T02750227
KJWY 011555Z AUTO 14005KT 10SM BKN120 31/18 A3010 RMK AO2 T03120178
KJXI 011555Z AUTO 06006KT 10SM CLR 30/18 A3007 RMK AO2 T02950181
KJXN 011556Z 24009KT 10SM CLR 26/14 A2996 RMK AO2 SLP138 T02560144
KJYG 011554Z AUTO 28003KT 10SM CLR 27/19 A3000 RMK AO2
KJYL 011555Z AUTO 36006KT 10SM CLR 31/25 A2996 RMK AO2 T03100245
KJYM 011554Z AUTO 28009G15KT 10SM CLR 26/13 A2998 RMK AO2 T02550126
KJYO 011555Z AUTO 29009KT 280V340 10SM BKN046 30/20 A2992 RMK AO2
KJYR 011555Z AUTO 19010KT 150V210 10SM FEW050 SCT070 SCT090 22/15 A3004 RMK AO2
KJZI 011555Z AUTO 07010KT 5SM BR FEW013 SCT020 BKN034 27/25 A2995 RMK AO2 LTG DSNT NE AND SE
KKLS 011555Z 35004KT 10SM CLR 18/09 A3004 RMK AO1
KL18 011555Z AUTO 00000KT 10SM OVC009 20/17 A3000 RMK AO2
KL35 011555Z AUTO 00000KT 10SM CLR 20/01 A3033 RMK AO2
KL38 011555Z AUTO 05004KT 10SM CLR 30/19 A2995 RMK AO2 T03000193
KLAA 011553Z AUTO VRB04KT 8SM CLR 28/17 A3011 RMK AO2 SLP141 T02830172 TSNO
KLAF 011554Z 30005KT 10SM CLR 26/15 A3003 RMK AO2 SLP165 T02610150
KLAL 011550Z 19009KT 7SM VCSH BKN035 28/24 A2999
KLAM 011555Z AUTO 01004KT 10SM CLR 19/15 A3041 RMK AO2 T01930145
KLAN 011553Z 26012G21KT 10SM CLR 26/13 A2994 RMK AO2 SLP134 T02610128
KLAR 011553Z AUTO 29006KT 10SM CLR 23/08 A3031 RMK AO2 SLP144 T02330078
KLAS 011556Z 15004KT 10SM FEW120 SCT150 BKN220 33/14 A2995 RMK AO2 SLP110 VCSH W T03280139
KLAW 011553Z AUTO 19003KT 10SM SCT100 28/19 A3010 RMK AO2 SLP181 T02830194 TSNO
KLAX 011553Z 22004KT 10SM BKN016 21/17 A2999 RMK AO2 SLP154 T02060172
KLBB 011553Z 12014KT 10SM FEW011 SCT110 OVC160 23/19 A3018 RMK AO2 SLP173 T02330189
KLBE 011550Z 31010KT 10SM SCT050 25/13 A2997
KLBF 011553Z AUTO 11017G23KT 10SM CLR 23/16 A3012 RMK AO2 PK WND 13026/1518 SLP177 T02330161
KLBL 011555Z AUTO 22005KT 10SM CLR 27/21 A3012 RMK AO1
KLBT 011554Z AUTO 05004KT 10SM SCT080 33/17 A2995 RMK AO2 SLP140 T03280167
KLBX 011553Z AUTO 03005KT 10SM CLR 32/21 A2997 RMK AO2 SLP148 T03220211
KLCG 011555Z AUTO 24009G14KT 10SM CLR 25/18 A3004 RMK AO2 T02470179
KLCH 011553Z 08008KT 10SM CLR 31/21 A2998 RMK AO2 SLP160 T03110206
KLCI 011555Z AUTO 26010KT 10SM CLR 25/14 A2973 RMK AO1
KLCK 011555Z AUTO 29006KT 10SM CLR 26/14 A2999 RMK AO2 T02590135
KLCQ 011555Z AUTO 21006KT 10SM SCT013 BKN023 27/25 A2993 RMK AO2
KLDJ 011615Z AUTO 27008KT 10SM CLR 32/16 A2983 RMK AO2 T03150163
KLDM 011555Z AUTO 26007KT 10SM CLR 25/17 A2992 RMK AO2 T02450171
KLEB 011553Z 28008KT 250V310 10SM FEW036 27/14 A2975 RMK AO2 SLP063 T02670144
KLEE 011553Z 24026G37KT 10SM FEW030 BKN075 BKN090 29/23 A2999 RMK AO2 PK WND 25037/1553 SLP153 T02890233
KLEW 011555Z 24012G16KT 10SM CLR 27/14 A2971 RMK AO1
KLEX 011554Z 32005KT 10SM CLR 28/16 A3003 RMK AO2 SLP159 T02780156
KLFI 011558Z AUTO 25009KT 9SM CLR 30/20 A2992 RMK AO2 RAB54 SLP138 P0000 T03040197 $
KLFK 011553Z AUTO 10011G15KT 10SM CLR 31/20 A3003 RMK AO2 SLP165 T03110200
KLFT 011553Z 08008KT 10SM CLR 31/17 A2998 RMK AO2 SLP152 T03060172
KLGA 011551Z 27011KT 10SM FEW050 SCT110 BKN250 29/15 A2980 RMK AO2 SLP090 T02940150
KLGB 011553Z VRB03KT 9SM OVC019 23/17 A2998 RMK AO2 SLP153 T02280172
KLGC 011555Z AUTO 08003KT 10SM SCT090 31/25 A2997 RMK AO2 T03060251
KLGD 011555Z AUTO 14003KT 10SM CLR 22/03 A3006 RMK AO1
KLGU 011551Z AUTO VRB03KT 10SM CLR 21/05 A3019 RMK AO2 SLP175 T02110050 TSNO
KLHB 011555Z AUTO 08009KT 10SM CLR 31/19 A3006 RMK AO2 T03090186
KLHM 011555Z AUTO 15010KT 10SM CLR 22/11 A2996 RMK AO1
KLHQ 011553Z AUTO VRB04KT 10SM CLR 26/13 A3000 RMK AO2 SLP153 T02610128
KLHW 011559Z 35005KT 7SM SCT009 SCT250 29/22 A2987 RMK SLPNO WND DATA ESTMD ALSTG/SLP ESTMD
KLHX 011553Z AUTO 00000KT 10SM CLR 27/17 A3014 RMK AO2 SLP141 T02670167 $
KLHZ 011555Z AUTO 30003KT 10SM CLR 30/14 A2998 RMK AO2
KLIC 011555Z AUTO 17012G18KT 10SM CLR 24/16 A3021 RMK AO2 SLP155 T02440161 $
KLIT 011553Z 04005KT 10SM FEW250 33/19 A3006 RMK AO2 SLP179 T03280194 $
KLJF 011552Z AUTO 00000KT 10SM CLR 26/14 A2998 RMK AO2
KLKR 011555Z AUTO 07008KT 10SM FEW070 31/16 A2999 RMK AO2
KLKU 011555Z AUTO 25005KT 10SM BKN085 30/18 A2992 RMK AO2
KLKV 011555Z AUTO 12003KT 10SM CLR 21/06 A3017 RMK AO1
KLLJ 011555Z AUTO 03004KT 10SM CLR 19/03 A3025 RMK AO2 SLP177 T01940028
KLLQ 011553Z AUTO 06007KT 10SM CLR 31/20 A3005 RMK AO2 SLP172 T03110200 $
KLMO 011555Z AUTO 00000KT 10SM CLR 26/10 A3018 RMK AO2 T02640100 PWINO
KLMT 011553Z 33008KT 10SM CLR 24/11 A3013 RMK AO2 SLP155 T02390106
KLNC 011555Z AUTO 14007KT 10SM BKN120 31/16 A3008 RMK AO2 T03050163
KLND 011553Z AUTO 00000KT 10SM CLR 27/02 A3022 RMK AO2 SLP156 T02670022
KLNK 011554Z 10006KT 10SM SCT100 SCT120 23/16 A3003 RMK AO2 SLP161 T02330156
KLNL 011555Z AUTO 30005KT 10SM SCT039 SCT048 BKN055 22/11 A2994 RMK AO2 T02180106
KLNN 011555Z AUTO 30006KT 10SM CLR 24/16 A2994 RMK AO1 T02430160
KLNP 011557Z AUTO 32006KT 10SM SCT046 26/11 A3013 RMK AO2
KLNR 011556Z AUTO 34004KT 10SM FEW080 26/16 A2999 RMK AO2 SLP146 T02610156
KLNS 011553Z 26011KT 10SM FEW095 28/16 A2987 RMK AO2 SLP112 T02830161
KLOL 011553Z AUTO 36004KT 10SM CLR 30/M01 A3009 RMK AO2 SLP134 T03001011
KLOM 011555Z AUTO 28007KT 10SM CLR 30/15 A2985 RMK AO1
KLOR 011553Z AUTO VRB04KT 10SM CLR 31/23 A2990 RMK AO2 SLP121 T03110228
KLOT 011555Z AUTO 30008KT 10SM OVC100 26/14 A3002 RMK AO2 T02560140
KLOU 011553Z 31004KT 10SM CLR 29/14 A3003 RMK AO2 SLP161 T02890144
KLOZ 011553Z AUTO 31004KT 10SM CLR 28/14 A3005 RMK AO2 SLP164 T02830144
KLPC 011555Z AUTO 26006KT 10SM OVC010 18/13 A3002 RMK AO1
KLPR 011553Z AUTO VRB03KT 10SM CLR 24/15 A2997 RMK AO2 SLP142 T02440150 TSNO
KLRD 011556Z 11005KT 10SM CLR 31/23 A3001 RMK AO2 T03110227 SLP151
KLRF 011558Z AUTO VRB01KT 10SM CLR 33/18 A3006 RMK AO2 SLP179 T03280179
KLRJ 011555Z AUTO 22004KT 10SM CLR 26/21 A3003 RMK AO2
KLRO 011555Z AUTO 10006KT 3/4SM +RA BKN001 BKN011 OVC030 26/25 A2995 RMK AO2 P0014
KLRU 011555Z AUTO 00000KT 10SM CLR 27/15 A3020 RMK AO2 T02670151
KLSB 011555Z AUTO 12004KT 10SM CLR 25/16 A3018 RMK AO2
KLSE 011553Z 27003KT 10SM CLR 26/14 A2997 RMK AO2 SLP139 T02610139
KLSF 011558Z AUTO 04005KT 10SM FEW018 29/24 A2992 RMK AO2 SLP132 T02870236
KLSV 011558Z AUTO 15008KT 10SM CLR 33/15 A2996 RMK AO2 CIG 210 RWY03R SLP117 T03320152 $
KLTS 011558Z AUTO 22004KT 3/4SM R17R/4000FT HZ FEW013 SCT150 25/21 A3011 RMK AO2 SLP183 T02490207 $
KLUA 011555Z AUTO 29008KT 10SM SCT049 30/16 A2994 RMK AO2
KLUD 011555Z AUTO 14005KT 10SM CLR 30/15 A3011 RMK AO2 T02960150
KLUF 011558Z AUTO 23004KT 10SM FEW180 30/21 A2992 RMK AO2 SLP119
KLUK 011553Z 00000KT 10SM CLR 27/12 A3002 RMK AO2 SLP159 T02720122
KLUM 011555Z AUTO 18003KT 10SM CLR 25/11 A2997 RMK AO2 T02460113
KLUX 011555Z AUTO 05006KT 10SM SCT060 SCT080 32/19 A3000 RMK AO2
KLVJ 011553Z AUTO 07011KT 10SM CLR 32/18 A2999 RMK AO2 SLP155 T03170183
KLVK 011553Z 29010KT 10SM CLR 21/14 A3001 RMK AO2 SLP160 T02110139
KLVL 011559Z AUTO 26003KT 10SM CLR 30/17 A2994 RMK AO2
KLVM 011553Z AUTO 32013KT 10SM CLR 25/04 A3015 RMK AO2 SLP163 T02500044
KLVN 011547Z AUTO 29003KT 10SM CLR 26/17 A2998 RMK AO2
KLVS 011553Z AUTO 00000KT 10SM 22/12 A3034 RMK AO2 SLP171 T02220122 $
KLWA 011556Z AUTO 28008KT 10SM CLR 24/15 A2997 RMK AO2 T02430147
KLWB 011555Z AUTO 29005KT 10SM SCT034 SCT047 SCT050 25/12 A3006 RMK AO2 T02500121
KLWC 011552Z AUTO 29005KT 10SM CLR 29/24 A3007 RMK AO2 SLP175 T02940239
KLWD 011553Z AUTO 22003KT 10SM CLR 26/21 A3006 RMK AO2 SLP172 T02560211 $
KLWM 011554Z 25008KT 10SM BKN090 BKN110 27/16 A2976 RMK AO2 SLP076 T02670156
KLWS 011556Z VRB04KT 10SM CLR 25/06 A2997 RMK AO2 SLP134 T02500056
KLWT 011554Z AUTO 26008KT 10SM CLR 29/02 A3007 RMK AO2 SLP137 T02890017
KLWV 011553Z AUTO 33008KT 10SM CLR 28/14 A3006 RMK AO2 SLP174 T02780144
KLXL 011554Z AUTO 27006KT 10SM CLR 25/09 A2997 RMK AO2
KLXN 011555Z AUTO 10014G19KT 10SM CLR 26/14 A3012 RMK AO2 T02580142
KLXT 011553Z AUTO VRB05KT 10SM FEW026 FEW049 30/23 A3008 RMK AO2 SLP175 T03000228 $
KLXV 011553Z AUTO VRB03KT 10SM CLR 18/02 A3055 RMK AO2 SLP158 T01830022
KLXY 011555Z AUTO 11016G19KT 10SM OVC120 30/18 A3007 RMK AO2 T03020181
KLYH 011554Z 31005KT 10SM CLR 28/17 A2998 RMK AO2 SLP142 T02830167
KLYV 011554Z AUTO 22004KT 10SM CLR 25/21 A3002 RMK AO2
KLZU 011545Z 04008G15KT 10SM BKN048 28/14 A3001 RMK VISUAL APCH RWY 07 ATIS U LL
KLZZ 011555Z AUTO 13007KT 10SM CLR 31/17 A3008 RMK AO2 T03120169
KM19 011556Z AUTO 02004KT 10SM CLR 31/22 A3007 RMK AO2 T03050222 SLP178
KM25 011555Z AUTO 00000KT 10SM CLR 29/21 A3005 RMK AO2 PWINO
KM30 011555Z AUTO 01003KT 10SM CLR 29/23 A3005 RMK AO2 T02870234
KM40 011555Z AUTO 03010KT 360V010 9SM CLR 33/24 A3002 RMK AO2
KM63 011556Z AUTO 07006KT 10SM CLR 28/14 A3017 RMK AO2 SLP140 T02780140
KM91 011555Z AUTO 00000KT 10SM CLR 31/23 A3004 RMK
KMAE 011553Z AUTO 30004KT 10SM CLR 25/12 A2997 RMK AO2 SLP145 T02500117
KMAF 011553Z 16006KT 9SM CLR 30/18 A3013 RMK AO2 SLP152 T03000183
KMAI 011607Z AUTO VRB06KT 10SM BKN015 29/25 A2991 RMK AO2 T02890250
KMAN 011555Z AUTO 13006KT 10SM CLR 28/04 A3003 RMK AO1
KMAO 011555Z AUTO 00000KT 10SM CLR 32/17 A2995 RMK AO2
KMBG 011552Z AUTO 17007KT 10SM CLR 27/19 A2988 RMK AO2 SLP105 T02720194
KMBL 011555Z AUTO 23005KT 10SM CLR 22/14 A2992 RMK AO1
KMBS 011553Z 26011KT 10SM CLR 26/14 A2990 RMK AO2 SLP121 T02610139
KMCB 011553Z AUTO 07009G15KT 030V090 10SM CLR 30/17 A2998 RMK AO2 SLP144 T03000172
KMCC 011555Z AUTO 19013KT 10SM CLR 20/13 A2999 RMK AO2
KMCD 011554Z AUTO 24008KT 10SM 21/14 A2985 RMK AO2 T02110135
KMCE 011553Z AUTO 31004KT 10SM CLR 25/11 A2996 RMK AO2 SLP142 T02500106
KMCF 011558Z AUTO 16013G18KT 10SM FEW032 SCT080 SCT110 BKN180 29/26 A2997 RMK AO2 SLP152 T02890257
KMCI 011553Z 25003KT 10SM SCT060 SCT110 BKN160 29/24 A3007 RMK AO2 SLP171 TCU DSNT NE T02940239 $
KMCJ 011555Z AUTO 04008G14KT 10SM CLR 32/17 A2996 RMK AO1
KMCK 011553Z AUTO 09016G21KT 10SM CLR 26/16 A3012 RMK AO2 SLP173 T02560161
KMCN 011553Z VRB06KT 10SM SCT023 30/23 A2995 RMK AO2 SLP137 T03000233
KMCO 011553Z 19012G20KT 10SM FEW035 SCT100 BKN250 30/24 A2998 RMK SLP151 T03000244
KMCW 011553Z AUTO 28010KT 10SM CLR 28/21 A3003 RMK AO2 SLP156 T02780211 $
KMCX 011555Z AUTO 29007KT 10SM CLR 26/14 A3002 RMK AO2 T02600140
KMDD 011555Z AUTO 10006KT 10SM CLR 31/18 A3014 RMK AO2 T03060176
KMDH 011552Z AUTO 09004KT 10SM CLR 28/17 A3006 RMK AO2 SLP176 T02830172
KMDJ 011555Z AUTO 31005KT 10SM CLR 31/25 A2992 RMK A01
KMDQ 011555Z AUTO 02007KT 360V060 10SM CLR 29/15 A3005 RMK AO2
KMDS 011550Z AUTO 22011G17KT 10SM CLR 26/19 A3001 RMK AO2
KMDT 011556Z 29009KT 10SM FEW065 SCT150 29/13 A2987 RMK AO2 SLP111 T02940133
KMDW 011553Z 27013G17KT 10SM FEW080 SCT100 SCT150 28/12 A2999 RMK AO2 SLP145 T02830122
KMDZ 011555Z AUTO 33007KT 10SM CLR 23/12 A2997 RMK AO2 T02280116
KMEB 011552Z AUTO 10SM FEW085 33/14 A2996 RMK AO2 SLP143 T03280139
KMEH 011556Z AUTO 00000KT 10SM CLR 26/06 A3011 RMK AO2 SLP159 T02560056
KMEI 011558Z 04017G22KT 10SM CLR 31/16 A2998 RMK AO2 SLP147 T03060161
KMEM 011554Z 36005KT 10SM FEW250 33/18 A3004 RMK AO2 SLP168 T03280183
KMER 011345Z 28008KT 7SM SKC 21/12 A2994
KMEV 011555Z AUTO 00000KT 10SM FEW041 BKN110 20/06 A3019 RMK AO2
KMEZ 011555Z AUTO 09006KT 10SM CLR 32/17 A3011 RMK AO2
KMFD 011552Z VRB06KT 10SM CLR 26/13 A2999 RMK AO2 SLP146 T02560133
KMFE 011553Z 01006KT 9SM CLR 33/23 A2998 RMK AO2 SLP150 T03330228
KMFR 011553Z 06004KT 2 1/2SM HZ FU FEW017 OVC026 24/12 A2997 RMK AO2 LTG DSNT W RAB27E41 SLP133 P0001 T02390122
KMFV 011550Z AUTO 23009KT 10SM CLR 30/26 A2991 RMK AO2
KMGC 011555Z AUTO 30006KT 10SM CLR 26/10 A3000 RMK AO2
KMGE 011558Z 08008KT 10SM BKN048 OVC250 28/17 A3002 RMK AO2A SLP155 T02810171 $
KMGG 011545Z AUTO 25003KT 10SM CLR 25/15 A2999 RMK AO2
KMGJ 011554Z AUTO 29011G17KT 10SM CLR 29/16 A2980 RMK AO2 SLP089 T02890161 TSNO
KMGM 011553Z VRB06KT 10SM CLR 30/19 A2994 RMK AO2 SLP135 T03000189
KMGN 011555Z AUTO 26005KT 10SM CLR 22/14 A2986 RMK AO2 T02220146
KMGR 011555Z AUTO 04006KT 10SM SCT009 SCT015 BKN027 28/25 A2994 RMK AO2
KMGW 011553Z 34006KT 10SM SCT050 28/11 A2999 RMK AO2 SLP144 T02830111
KMGY 011553Z AUTO 30006KT 10SM FEW060 26/12 A3002 RMK AO2 SLP156 T02610122 $
KMHE 011553Z AUTO 19008G16KT 10SM CLR 26/15 A2996 RMK AO2 SLP137 T02560150
KMHK 011552Z 00000KT 10SM CLR 30/23 A3007 RMK AO2 SLP171 T03000228
KMHL 011615Z AUTO 00000KT 1 1/4SM HZ VV007 30/22 A3007 RMK AO2
KMHR 011545Z 22010KT 10SM SCT180 20/14 A2998
KMHS 011556Z AUTO 00000KT 10SM CLR 24/13 A3011 RMK AO2 SLP173 T02440128
KMHT 011553Z 26007KT 10SM BKN100 BKN200 26/17 A2974 RMK AO2 SLP079 T02610167
KMHV 011540Z AUTO 00000KT 10SM CLR 31/08 A3005 RMK A01
KMIA 011553Z COR 12012G20KT 10SM FEW030 SCT038 BKN180 OVC250 32/24 A3002 RMK AO2 SLP164 T03170239 $
KMIB 011558Z AUTO 15008KT 10SM CLR 25/13 A2987 RMK AO2 SLP116 T02520133 $
KMIC 011553Z 28004KT 10SM CLR 27/12 A2995 RMK AO2 SLP138 T02670122
KMIE 011553Z 31007KT 10SM CLR 24/13 A3002 RMK AO2 SLP158 T02440133
KMIS 011555Z AUTO 01011KT 10SM CLR 33/23 A2991 RMK A01
KMIV 011554Z AUTO 26011KT 10SM FEW110 31/18 A2987 RMK AO2 SLP112 T03060178
KMIW 011553Z AUTO 24008KT 10SM CLR 26/21 A3002 RMK AO2 SLP159 T02610206 $
KMJQ 011553Z AUTO 23009KT 10SM CLR 27/20 A3002 RMK AO2
KMJX 011555Z AUTO 27009G16KT 10SM 31/17 A2984 RMK AO1
KMKC 011554Z 27008KT 10SM SCT055 BKN070 31/24 A3006 RMK AO2 SLP168 T03060239
KMKE 011552Z 32011KT 10SM FEW075 BKN095 27/11 A2996 RMK AO2 SLP141 T02670106
KMKG 011555Z 28010KT 10SM FEW075 24/14 A2995 RMK AO2 SLP138 T02440144 $
KMKJ 011555Z AUTO 28008G14KT 10SM SCT046 25/14 A3012 RMK AO2 T02470140
KMKL 011553Z 00000KT 10SM CLR 32/19 A3005 RMK AO2 SLP169 T03220189
KMKN 011555Z AUTO 10005KT 060V120 10SM SCT050 29/19 A3011 RMK AO2 T02930190
KMKO 011553Z AUTO 00000KT 10SM OVC085 28/22 A3009 RMK AO2 SLP181 T02830217
KMKS 011555Z AUTO 00000KT 10SM SCT021 30/22 A2994 RMK AO2 LTG DSNT SE
KMKT 011555Z 00000KT 10SM CLR 23/17 A2999 RMK AO1
KMKY 011555Z AUTO 18007KT 10SM CLR 30/24 A3001 RMK AO1
KMLB 011553Z 20008KT 10SM SCT110 28/23 A3000 RMK AO2 SLP159 T02830228
KMLC 011553Z AUTO VRB04KT 10SM OVC100 31/19 A3010 RMK AO2 SLP181 T03060189
KMLE 011555Z AUTO 00000KT 10SM SCT110 23/18 A3003 RMK AO2 T02310184
KMLF 011552Z AUTO 19011KT 10SM CLR 26/08 A3019 RMK AO2 SLP147 T02610083
KMLI 011552Z 22008KT 10SM CLR 28/17 A3001 RMK AO2 SLP159 T02830167
KMLJ 011555Z AUTO 02003KT 10SM SCT021 BKN027 BKN085 30/22 A2996 RMK AO2
KMLP 011553Z AUTO 31003KT 10SM CLR 24/M04 A3023 RMK AO2 SLP120 T02391044
KMLS 011553Z AUTO 26004KT 10SM CLR 28/07 A2997 RMK AO2 SLP122 T02830067
KMLT 011553Z AUTO VRB03KT 10SM OVC110 24/16 A2968 RMK AO2 SLP052 T02440161
KMLU 011553Z 07010KT 10SM CLR 31/19 A3004 RMK AO2 SLP170 T03110194
KMMH 011555Z AUTO 00000KT 10SM CLR 19/07 A3036 RMK AO1
KMMI 011555Z AUTO 04003KT 10SM CLR 28/18 A3007 RMK
KMMK 011553Z AUTO 25008KT 220V290 SCT110 29/16 A2978 RMK AO2 SLP082 T02940156 TSNO
KMML 011555Z AUTO 00000KT 10SM CLR 25/19 A3000 RMK AO1
KMMT 011558Z VRB05KT 10SM SCT100 33/17 A2996 RMK AO2A SLP145 T03280171
KMMU 011545Z 27010G16KT 10SM FEW050 30/16 A2982
KMMV 011553Z AUTO 00000KT 10SM CLR 21/08 A2999 RMK AO2 SLP152 T02060083 $
KMNE 011555Z AUTO 06005KT 10SM CLR 32/18 A3005 RMK AO2 T03160180
KMNH 011503Z AUTO 21005KT 10SM CLR 21/12 A3031 RMK AO2
KMNI 011555Z AUTO 02008KT 10SM RA SCT040 32/19 A2994 RMK AO2
KMNM 011555Z AUTO 30005KT 10SM CLR 23/11 A2988 RMK AO1
KMNN 011553Z AUTO 29011KT 10SM FEW050 26/13 A2999 RMK AO2 SLP150 T02610133 TSNO
KMNZ 011555Z AUTO 13006KT 10SM CLR 31/15 A3011 RMK AO2 T03090146
KMOB 011556Z 03008KT 10SM BKN250 29/21 A2993 RMK AO2 SLP132 T02940211
KMOD 011553Z 33008KT 10SM CLR 23/13 A2996 RMK AO2 SLP146 T02280128
KMOP 011556Z AUTO 25010G18KT 10SM SCT045 SCT060 BKN090 27/13 A2989 RMK AO2 T02740130
KMOR 011555Z AUTO VRB05KT 10SM CLR 28/16 A3007 RMK
KMOT 011554Z 14005KT 10SM CLR 25/12 A2988 RMK AO2 SLP114 T02500117
KMOX 011554Z AUTO 16005KT 10SM CLR 26/16 A2996 RMK AO2
KMPO 011553Z AUTO 29010KT 10SM FEW040 BKN070 BKN085 23/14 A2990 RMK AO2 SLP113 T02330144 PWINO
KMPV 011551Z AUTO 30004KT 10SM BKN045 BKN055 23/13 A2980 RMK AO2 SLP088 T02280133
KMPZ 011555Z AUTO 20007KT 10SM CLR 28/16 A3003 RMK AO2 T02800155
KMQB 011555Z AUTO 21004KT 10SM CLR 27/16 A3007 RMK AO2 T02740158
KMQE 011554Z AUTO 25011G17KT 29/15 A2976 RMK AO1 SLP082 T02940150
KMQI 011555Z AUTO 18013G16KT 10SM SCT021 28/23 A2995 RMK AO2 T02830225
KMQJ 011556Z AUTO 34008KT 10SM CLR 26/04 A3004 RMK AO1
KMQS 011555Z AUTO 28006KT 10SM CLR 27/17 A2989 RMK AO2
KMQY 011556Z 36006KT 10SM SCT030 32/21 A3005 RMK AO2 T03220205 SLP178
KMRB 011553Z VRB03KT 10SM SCT080 28/14 A2992 RMK AO2 SLP127 T02780144
KMRC 011555Z AUTO 35006KT 9SM CLR 31/20 A3003 RMK
KMRF 011555Z AUTO 15005KT 10SM CLR 27/16 A3024 RMK AO1
KMRH 011558Z AUTO 22008KT 10SM SCT020 28/24 A2994 RMK AO2 SLP140 T02830244 TSNO $
KMRJ 011555Z AUTO 25010KT 10SM SCT070 26/15 A3001 RMK AO2
KMRN 011555Z AUTO 35007KT 320V030 10SM CLR 30/13 A3006 RMK AO2 T03000126
KMRT 011554Z AUTO 31004KT 10SM SCT055 BKN070 26/14 A3000 RMK AO2 T02580137
KMRY 011554Z 31003KT 10SM OVC015 18/14 A3005 RMK AO2 SLP185 T01830139
KMSL 011353Z AUTO 00000KT 10SM CLR 27/20 A3005 RMK AO2 SLP167 T02720200
KMSN 011553Z 00000KT 10SM BKN055 BKN120 24/15 A2999 RMK AO2 SLP150 T02440150
KMSO 011553Z 00000KT 10SM CLR 20/04 A3011 RMK AO2 SLP176 T02000039
KMSP 011553Z 00000KT 10SM FEW120 26/14 A2997 RMK AO2 SLP143 T02610139
KMSS 011553Z AUTO 27010KT 10SM SCT035 23/14 A2977 RMK AO2 SLP078 T02330144
KMSV 011555Z AUTO 10SM FEW035 25/16 A2987 RMK AO1
KMSY 011553Z 36007KT 10SM FEW050 SCT250 29/21 A2994 RMK AO2 SLP142 CB DSNT SW T02940206
KMTC 011555Z COR 29010KT 10SM FEW060 SCT140 27/13 A2990 RMK SLP131 T02650127 COR 1558
KMTH 011553Z AUTO 16007KT 10SM FEW026 33/26 A3001 RMK AO2 SLP162 T03280256
KMTJ 011553Z AUTO 14007KT 10SM CLR 24/08 A3029 RMK AO2 SLP168 T02440083
KMTN 011545Z 24003KT 10SM SCT080 29/19 A2989
KMTO 011553Z AUTO 35005KT 10SM CLR 28/10 A3006 RMK AO2 SLP174 T02830100 TSNO
KMTP 011554Z AUTO 19007KT 29/21 A2980 RMK AO1 SLP089 T02890211
KMTV 011555Z AUTO 35005KT 10SM CLR 30/14 A3001 RMK AO2 T03020140
KMTW 011556Z AUTO 10SM CLR 25/09 A2992 RMK AO2 SLP145 T02500094 PNO $
KMUI 011558Z AUTO 28009G18KT 10SM CLR 28/13 A2988 RMK AO2 SLP118 T02780131 $
KMUO 011558Z AUTO 11008KT 10SM CLR 26/02 A3006 RMK AO2 SLP150 T02580015 $
KMUT 011555Z AUTO 20009KT 10SM CLR 28/18 A3002 RMK AO2
KMVE 011554Z AUTO 16004KT 10SM CLR 27/18 A2998 RMK AO2
KMVL 011554Z AUTO 23009G15KT 200V280 10SM FEW049 25/13 A2974 RMK AO2 SLP070 T02500133 TSNO
KMVN 011555Z AUTO 03008KT 10SM CLR 29/16 A3008 RMK AO1
KMVY 011553Z 23011KT 10SM CLR 28/20 A2979 RMK AO2 SLP086 T02780200 $
KMWA 011553Z 05006KT 20SM FEW250 29/16 A3007
KMWC 011545Z 27009KT 10SM SCT075 BKN095 24/11 A2998
KMWH 011552Z 15003KT 10SM FU BKN046 23/08 A2994 RMK AO2 SLP129 T02330078
KMWK 011550Z AUTO 31010KT 10SM CLR 30/14 A3003 RMK AO2 T02970138
KMWL 011553Z AUTO VRB03KT 10SM CLR 29/19 A3009 RMK AO2 SLP176 T02890189
KMWM 011554Z AUTO 00000KT 10SM CLR 27/21 A3000 RMK AO2
KMWN 011548Z 28026KT 0SM FG VV000 09/09 RMK
KMWO 011555Z AUTO 34006KT 10SM CLR 27/13 A3003 RMK AO2 T02660125
KMWT 011553Z AUTO VRB03KT 10SM CLR 31/19 A3007 RMK AO2 SLP171 T03060189 $
KMXF 011558Z AUTO 08006KT 10SM CLR 30/20 A2993 RMK AO2 SLP136 T02960195
KMXO 011555Z AUTO 24005G11KT 10SM CLR 27/17 A3001 RMK AO2
KMYF 011553Z 00000KT 8SM OVC009 21/17 A3000 RMK AO2 SLP153 T02060172
KMYL 011551Z AUTO 00000KT 10SM CLR 20/07 A3019 RMK AO2 SLP174 T02000072 $
KMYP 011555Z AUTO 23009KT 10SM CLR 12/05 A3082 RMK AO2
KMYR 011545Z 18008KT 10SM SCT017 BKN055 29/23 A2997
KMYV 011553Z AUTO 14006KT 10SM CLR 21/13 A2997 RMK AO2 SLP152 T02060133
KMYZ 011555Z AUTO 36008KT 10SM SCT049 SCT060 27/20 A3008 RMK AO2
KMZG 011555Z AUTO 02010KT 10SM CLR 30/25 A2996 RMK A01
KMZH 011554Z AUTO 30004KT 10SM CLR 23/11 A2993 RMK AO2
KMZZ 011555Z AUTO 33006KT 7SM CLR 25/13 A3003 RMK AO2 T02490131
KN03 011555Z AUTO 26005KT 10SM SCT045 SCT050 22/13 A2989 RMK AO2
KN38 011555Z AUTO 29007KT 250V320 10SM FEW045 FEW050 23/14 A2994 RMK AO2
KN60 011552Z AUTO 11007KT 24/14 A2989 RMK AO1 SLP116 T02440139
KNAK 011554Z AUTO 27006KT 10SM BKN100 BKN120 28/18 A2988 RMK AO2 SLP121 T02830178
KNBC 011556Z AUTO 00000KT 10SM SCT023 31/24 A2994 RMK AO2 SLP140 T03110239
KNBG 011555Z VRB03KT 10SM FEW035 SCT070 SCT250 30/20 A2993 RMK AO2 SLP134 T03000200 $
KNBT 011556Z AUTO 17007KT 10SM FEW026 A2993 RMK AO2 SLP141 PNO $
KNCA 011556Z AUTO 24004KT 10SM SCT028 30/23 A2994 RMK AO2 SLP139 T03000233
KNDZ 011556Z AUTO 04005KT 10SM BKN020 31/25 A2991 RMK AO2 SLP112 T03110250 $
KNEL 011600Z AUTO 27009KT 10SM BKN085 30/18 A2983 RMK AO2 SLP101 T03000178
KNEW 011553Z 01007KT 10SM FEW050 29/20 A2994 RMK AO2 SLP133 T02890200
KNFE 011556Z AUTO VRB03KT 10SM CLR 34/19 A2993 RMK AO2 SLP135 T03440194 PWINO
KNFG 011554Z AUTO 00000KT OVC011 21/18 A2998 RMK AO2 SLP152 T02110178 $
KNFL 011556Z 14004KT 10SM SCT100 BKN150 BKN200 27/06 A3010 RMK AO2 SLP160 T02720056
KNFW 011552Z VRB03KT 10SM SCT100 BKN250 32/18 A3008 RMK AO2 SLP170 T03220178
KNGP 011556Z AUTO 04008KT 10SM CLR 31/23 A2997 RMK AO2 SLP147 T03060228
KNGU 011559Z 23007KT 10SM SCT050 SCT280 30/20 A2993 RMK AO2 SLP136 T03000200
KNHK 011552Z 23006KT 10SM FEW055 FEW250 31/19 A2989 RMK AO2 SLP123 T03060189
KNID 011456Z AUTO 24005KT 10SM CLR 29/12 A3000 RMK AO2 SLP135 T02890122 51016 $
KNIP 011553Z 18012KT 10SM SCT026 BKN036 31/23 A2994 RMK AO2 SLP133 T03110228
KNJK 011556Z 11007KT 10SM SCT050 35/11 A2986 RMK AO2 SLP127 T03500106 $
KNJM 011557Z AUTO 20007KT 10SM FEW016 SCT025 29/24 A2994 RMK AO2 SLP143 T02940244
KNKT 011554Z 21004KT 10SM SCT018 SCT025 29/24 A2994 RMK AO2 SLP137 T02890244
KNKX 011555Z 00000KT 10SM OVC009 22/17 A2999 RMK AO2 SLP151 T02220172 $
KNLC 011456Z AUTO 32005KT 10SM CLR 25/10 A2997 RMK AO2 SLP147 T02500100 51012
KNMM 011556Z AUTO 04008G16KT 10SM CLR 30/17 A2999 RMK AO2 SLP160 T03000172
KNOG 011556Z AUTO 10004KT 10SM CLR 31/23 A2999 RMK AO2 SLP137 T03110228 TSNO PNO $
KNPA 011556Z 10007KT 10SM SCT019 BKN250 31/25 A2989 RMK AO2 SLP122 T03110250 $
KNQA 011555Z 34004KT 10SM SKC 34/23 A3004
KNQI 011556Z AUTO 00000KT 10SM CLR 32/24 A2997 RMK AO2 SLP147 T03220239 TSNO $
KNQX 011553Z 16012KT 10SM FEW025 SCT060 BKN180 32/23 A3001 RMK AO2 SLP161 T03220233 $
KNRB 011552Z AUTO 22012KT 10SM OVC048 29/23 A2994 RMK AO2 SLP136 T02940228 $
KNRS 011556Z AUTO VRB04KT 10SM OVC014 A3000 RMK AO2 SLP160 $
KNSE 011603Z AUTO 01004KT 10SM SCT019 30/24 A2991 RMK AO2 T03000244 $
KNSI 011557Z 29015KT 10SM BKN006 18/16 A3000 RMK AO2 SLP154 T01780161 PNO $
KNTD 011456Z 00000KT 5SM HZ OVC009 21/18 A2999 RMK AO2 SLP155 T02110178 51011 $
KNTU 011556Z 18009KT 10SM SCT020 SCT100 BKN280 33/19 A2992 RMK AO2 SLP132 T03280194
KNUI 011553Z AUTO 24005KT 10SM CLR 29/19 A2990 RMK AO2 SLP123 T02890194
KNUQ 011556Z AUTO 09003KT 10SM OVC017 19/15 A3003 RMK AO2 SLP171 T01940150 TSNO
KNUW 011556Z 27006KT 10SM FEW200 15/12 A3007 RMK AO2 SLP182 T01500117 $
KNXF 011556Z AUTO VRB03KT 6SM HZ OVC011 A2999 RMK AO2 SLPNO $
KNXP 011556Z 33004KT 8SM SCT300 30/11 A3007 RMK AO2 SLP140 T03000111
KNYC 011551Z AUTO VRB03KT 10SM FEW110 29/16 A2984 RMK AO2 SLP094 T02890161
KNYL 011557Z AUTO 09008KT 10SM CLR 38/16 A2986 RMK AO2 SLP106 T03780156 $
KNZY 011552Z 31004KT 9SM OVC012 23/18 A2998 RMK AO2 SLP152 T02330178 $
KO22 011515Z AUTO 19003KT 10SM CLR 28/13 A3002 RMK AO1
KO54 011555Z AUTO 00000KT 10SM CLR 23/10 A3003 RMK AO1
KO69 011555Z AUTO 31004KT 10SM OVC012 16/14 A3005 RMK AO1
KO86 011550Z AUTO 00000KT 10SM CLR 22/10 A3005 RMK AO1
KOAJ 011555Z AUTO 25004KT 10SM CLR 32/17 A2994 RMK AO1
KOAK 011553Z 27010KT 10SM SCT016 BKN019 19/13 A3003 RMK AO2 SLP168 T01940133
KOBE 011555Z AUTO 18009KT A3002 RMK AO2 LTG DSNT W PWINO
KOCF 011550Z 21006KT 4SM -RA BR SCT020 BKN030 24/23 A2997
KOCH 011555Z AUTO 14009KT 10SM CLR 31/20 A3004 RMK AO1
KOCQ 011555Z AUTO 30006KT 10SM CLR 24/12 A2989 RMK AO1 T02410120
KOCW 011555Z AUTO 00000KT 10SM CLR 30/22 A2994 RMK AO2 T03010217
KODO 011553Z AUTO 14009KT 10SM BKN100 31/17 A3014 RMK AO2 SLP151 T03060167
KODX 011553Z AUTO 13004KT 10SM CLR 23/16 A3009 RMK AO2 LTG DSNT N SLP182 T02280156 $
KOEB 011555Z AUTO 27007G14KT 10SM CLR 25/12 A2998 RMK AO2 T02530116
KOEO 011555Z AUTO 25003KT 10SM CLR 25/14 A2999 RMK AO2 T02480138
KOFF 011558Z AUTO VRB03KT 10SM CLR 22/18 A3003 RMK AO2 SLP167 P0000 T02240183 $
KOFK 011556Z AUTO 21005KT 10SM CLR 24/17 A3005 RMK AO2 SLP165 T02390167
KOFP 011554Z AUTO VRB06KT 10SM CLR 30/17 A2993 RMK AO2 SLP133 T03000172
KOGA 011555Z AUTO 10013G16KT 10SM CLR 26/19 A3011 RMK AO2 T02610185
KOGB 011553Z AUTO 04007KT 10SM CLR 32/21 A2995 RMK AO2 SLP139 T03220211
KOGD 011553Z VRB04KT 10SM CLR 25/04 A3016 RMK AO2 SLP152 T02500039 $
KOJA 011555Z AUTO 21005KT 10SM CLR 26/22 A3011 RMK AO2
KOJC 011553Z 27007KT 10SM FEW050 BKN075 29/23 A3008 RMK AO2 SLP172 T02890228
KOKB 011552Z AUTO VRB03KT 10SM OVC016 22/18 A2998 RMK AO2 SLP150 T02220178
KOKC 011552Z 18009KT 10SM FEW070 FEW120 BKN250 29/21 A3010 RMK AO2 SLP176 T02890206
KOKK 011555Z AUTO 31007KT 10SM CLR 26/13 A3003 RMK AO1
KOKM 011555Z AUTO 00000KT 10SM OVC070 29/21 A3008 RMK AO2 T02900211
KOKV 011555Z AUTO 28010KT 10SM CLR 30/13 A2993 RMK AO2
KOLE 011555Z AUTO 29008G18KT 230V320 10SM SCT039 SCT049 19/11 A2994 RMK AO2
KOLF 011553Z AUTO 00000KT 10SM CLR 25/12 A2991 RMK AO2 SLP118 T02500122
KOLG 011555Z AUTO 28006G14KT 10SM CLR 25/10 A2993 RMK AO1
KOLM 011554Z 00000KT 10SM CLR 19/09 A3002 RMK AO2 SLP165 T01940094
KOLS 011554Z AUTO 00000KT 10SM CLR 26/17 A3013 RMK AO2 SLP138 T02560172
KOLU 011555Z AUTO 19003KT 10SM CLR 24/15 A3004 RMK AO1
KOLV 011550Z 04003KT 10SM FEW250 31/19 A3005
KOLY 011555Z AUTO 03005KT 10SM CLR 27/14 A3007 RMK AO2
KOLZ 011555Z AUTO 28010KT 10SM CLR 27/20 A3002 RMK AO2
KOMA 011552Z 22005KT 10SM FEW025 SCT035 BKN110 BKN250 25/18 A3002 RMK AO2 PK WND 02027/1531 RAB29E40 SLP159 P0000 T02500183
KOMH 011555Z AUTO 00000KT 10SM SCT100 31/18 A2993 RMK AO2
KOMK 011553Z AUTO 33011KT 10SM CLR 27/03 A2996 RMK AO2 SLP132 T02720028 $
KOMN 011550Z 22012G17KT 6SM BR SCT030 30/23 A2996
KONA 011554Z AUTO 00000KT 10SM CLR 25/16 A2997 RMK AO2
KONL 011555Z AUTO 25010G14KT 10SM CLR 22/16 A3012 RMK AO2 LTG DSNT W T02240159
KONM 011555Z AUTO 33003KT 10SM CLR 23/15 A3025 RMK AO2 P0002 T02280151
KONO 011553Z AUTO 00000KT 10SM CLR 24/11 A3003 RMK AO2 SLP152 T02390111
KONP 011555Z AUTO 32004KT 7SM CLR 13/11 A3000 RMK AO2
KONT 011553Z 00000KT 4SM HZ FEW011 FEW250 22/17 A2999 RMK AO2 SLP140 VIS SW 2 1/2 T02220172 $
KONX 011555Z AUTO 00000KT 10SM SCT044 SCT060 31/18 A2994 RMK AO2 T03050180
KONZ 011554Z AUTO 29008KT 10SM CLR 27/13 A2993 RMK AO2
KOOA 011555Z AUTO 20004KT 10SM CLR 26/19 A3004 RMK AO2 T02580192
KOPF 011553Z 17015G20KT 10SM FEW036 33/23 A3001 RMK AO2 SLP164 T03280233
KOPL 011555Z AUTO 05006KT CLR 31/19 A2999 RMK AO2 T03090191 PWINO
KOPN 011555Z AUTO 06004KT 10SM SCT023 30/25 A2999 RMK AO2
KOQT 011553Z AUTO 00000KT 10SM CLR 29/17 A3006 RMK AO2 SLP162 T02940167
KOQU 011550Z 19010KT 15SM FEW050 30/17 A2976
KORB 011553Z AUTO 31007KT 10SM CLR 23/09 A2987 RMK AO2
KORC 011555Z AUTO 23005KT 10SM CLR 24/19 A3003 RMK AO2
KORD 011551Z 27012KT 10SM SCT095 SCT150 27/13 A2999 RMK AO2 SLP150 T02670133
KORE 011552Z AUTO 28008KT 10SM BKN095 26/15 A2977 RMK AO2 SLP081 T02610150
KORF 011551Z AUTO 23003KT 10SM SCT050 SCT070 31/17 A2992 RMK AO2 SLP130 T03110172 TSNO
KORG 011555Z AUTO 05007KT 10SM CLR 31/17 A3000 RMK AO2 T03130165
KORH 011554Z 23008KT 10SM BKN070 BKN085 26/16 A2980 RMK AO2 SLP086 T02610156
KORL 011553Z 19015KT 10SM FEW029 FEW034 SCT095 31/25 A2998 RMK AO2 PK WND 21026/1531 SLP153 T03110250
KORS 011615Z AUTO 34006KT 10SM CLR 19/14 A3002 RMK AO2
KOSA 011555Z AUTO 13006KT 10SM CLR 32/16 A3008 RMK AO1 T03180161
KOSC 011553Z AUTO 31009KT 10SM SCT049 BKN110 25/11 A2985 RMK AO2 T02540112
KOSH 011553Z 32010KT 10SM FEW080 25/11 A2995 RMK AO2 SLP130 T02500106
KOSU 011553Z COR 29007KT 10SM SCT060 25/13 A2999 RMK AO2 SLP149 T02500133
KOTG 011555Z AUTO 22011G14KT 10SM CLR 25/19 A3002 RMK AO1
KOTH 011555Z 27003KT 10SM CLR 13/13 A2998 RMK AO1
KOTM 011553Z AUTO 20008KT 10SM CLR 26/20 A3002 RMK AO2 SLP160 T02610200
KOUN 011555Z AUTO 19008KT 147V207 10SM SCT060 30/20 A3011 RMK AO2
KOVE 011553Z AUTO 15007KT 10SM CLR 22/13 A2999 RMK AO2 SLP154 T02220133
KOVL 011552Z AUTO 12004KT 10SM CLR 23/15 A2998 RMK AO2
KOVS 011553Z AUTO 24007KT 10SM CLR 27/17 A2998 RMK AO2 SLP149 T02720172
KOWA 011555Z AUTO 00000KT 10SM CLR 24/18 A3000 RMK AO2
KOWB 011556Z 01006KT 10SM CLR 29/17 A3005 RMK AO2 T02880166 SLP170
KOWD 011553Z 24010G15KT 10SM FEW120 30/16 A2974 RMK AO2 SLP070 T03000156
KOWP 011555Z AUTO 15003KT 10SM BKN065 BKN090 31/22 A3009 RMK AO2 T03110220
KOXB 011553Z AUTO 25008KT 220V280 10SM CLR 32/18 A2989 RMK AO2 SLP120 T03170178 TSNO
KOXC 011552Z 29004KT 10SM FEW100 27/17 A2984
KOXI 011555Z AUTO 30007KT 270V330 10SM CLR 26/10 A3000 RMK AO1
KOXR 011551Z 12003KT 8SM BKN009 20/17 A2998 RMK AO2 SLP152 T02000167
KOXV 011555Z AUTO 21008KT 10SM CLR 26/21 A3002 RMK AO2
KOZA 011555Z AUTO 16005KT 10SM CLR 31/17 A3013 RMK AO2
KOZR 011558Z AUTO 09004KT 10SM CLR 31/24 A2991 RMK AO2 SLP127 T03070239
KOZS 011555Z AUTO 25005KT 10SM CLR 29/20 A3010 RMK AO2
KOZW 011555Z AUTO 25011G15KT 10SM CLR 26/11 A2994 RMK AO2 T02630114
KP08 011555Z AUTO 00000KT 10SM CLR 32/16 A2997 RMK AO2
KP28 011556Z AUTO 13005KT 27/21 A3010 RMK AO1 SLP176 T02720211
KP53 011556Z AUTO 34008KT 22/13 A2985 RMK AO1 SLP109 T02220133
KP58 011551Z AUTO VRB06KT 24/13 A2986 RMK AO1 SLP104 T02390133
KP59 011551Z AUTO 35013KT 21/13 A2983 RMK AO1 SLP096 T02110133
KP60 011556Z AUTO VRB03KT 15/07 A3045 RMK AO1 SLP234 T01500072 $
KP68 011553Z AUTO 00000KT 24/M09 A3026 RMK AO1 SLP153 T02441089
KP69 011552Z AUTO 00000KT 20/08 A3004 RMK AO1 SLP152 T02000083 $
KP92 011553Z AUTO 32/19 A2993 RMK AO1 SLP135 T03170194 $
KPAE 011553Z 36004KT 10SM CLR 20/09 A3004 RMK AO2 SLP170 T02000089
KPAH 011553Z VRB04KT 10SM CLR 30/21 A3003 RMK AO2 SLP165 T03000211
KPAM 011558Z 00000KT 10SM FEW025 FEW100 30/25 A2990 RMK AO2A SLP128 T03000254 $
KPAN 011555Z AUTO 00000KT 10SM FEW120 23/13 A3024 RMK AO2
KPAO 011547Z 04004KT 10SM BKN015 20/16 A3002
KPBF 011553Z AUTO 10006KT 10SM CLR 31/21 A3006 RMK AO2 SLP176 T03110206 $
KPBG 011553Z AUTO VRB04KT 10SM FEW055 BKN100 21/14 A2974 RMK AO2 LTG DSNT SE AND SW RAB12E41 TSB1457E24 SLP069 P0000 T02060144
KPBH 011555Z AUTO 30007G14KT 10SM CLR 22/12 A2996 RMK AO2 T02170117
KPBI 011553Z 16010KT 10SM FEW031 BKN140 OVC200 30/23 A3002 RMK AO2 SLP166 T03000233 $
KPBX 011555Z AUTO 23003KT 10SM SCT055 26/17 A3005 RMK AO2 T02570169
KPCM 011555Z AUTO 20007KT 7SM RA SCT022 SCT029 OVC055 27/25 A3001 RMK AO2 P0011
KPCW 011552Z AUTO 33004KT 10SM CLR 27/18 A2995 RMK AO2 T02660183 $
KPCZ 011555Z AUTO 30008KT 10SM SCT075 27/09 A2996 RMK AO2 T02650093
KPDC 011555Z AUTO 25008KT 10SM CLR 27/16 A2998 RMK AO2 T02700163
KPDK 011553Z VRB04KT 10SM OVC047 28/17 A3002 RMK AO2 SLP145 T02830172
KPDT 011553Z 16003KT 10SM CLR 28/01 A2997 RMK AO2 SLP127 T02830011
KPDX 011553Z 29007KT 10SM SCT250 21/11 A2998 RMK AO2 SLP151 T02060111
KPEA 011555Z AUTO 22004KT 10SM CLR 27/22 A3004 RMK AO2 T02680216
KPEO 011553Z AUTO 27008KT 240V310 10SM FEW050 FEW075 24/13 A2987 RMK AO2 SLP108 T02440128
KPEQ 011555Z AUTO 05003KT 10SM CLR 32/17 A3009 RMK AO2 T03160165
KPEX 011554Z AUTO 00000KT 10SM CLR 25/10 A2998 RMK AO2 T02450097
KPEZ 011555Z AUTO 07006KT 10SM CLR 32/21 A3001 RMK AO2 T03220209
KPGA 011553Z AUTO VRB05KT 10SM BKN110 26/13 A3017 RMK AO2 SLP144 T02610128 TSNO
KPGD 011553Z 17004KT 10SM -RA SCT034 BKN044 28/25 A3001 RMK AO2 LTG DSNT NE AND E AND SW RAB44 SLP163 P0000 T02830250
KPGV 011555Z AUTO 34005KT 10SM SCT045 31/18 A2995 RMK AO2
KPHD 011553Z AUTO 31006KT 10SM CLR 26/16 A2997 RMK AO2 SLP143 T02610156
KPHF 011554Z 21008KT 10SM CLR 31/18 A2992 RMK AO2 SLP132 T03060183
KPHL 011554Z 27008KT 10SM SCT110 30/14 A2986 RMK AO2 SLP109 T03000144 $
KPHN 011555Z AUTO 27007KT 240V300 10SM CLR 24/14 A2991 RMK AO2
KPHP 011555Z AUTO 21012KT 10SM CLR 28/18 A2995 RMK AO2 SLP122 T02780178
KPHT 011555Z AUTO 00000KT 10SM CLR 29/20 A3005 RMK
KPHX 011551Z 24003KT 10SM SCT150 SCT180 SCT250 30/21 A2993 RMK AO2 SLP115 T03000206
KPIA 011554Z 21007KT 10SM CLR 28/16 A3004 RMK AO2 SLP168 T02830161
KPIB 011555Z AUTO 02014G18KT 10SM CLR 31/ A2998 RMK AO1
KPIE 011603Z 23019G30KT 1/4SM R18L/2800V4000FT VCTS RA FG BKN014 OVC023 23/21 A3000 RMK AO2 PK WND 24030/1559 WSHFT 1540 P0044 T02280211
KPIH 011553Z 33003KT 10SM CLR 22/04 A3020 RMK AO2 SLP178 T02220044 $
KPIL 011553Z AUTO 01007KT 7SM BKN060 30/24 A2997 RMK AO2 SLP147 T03000239
KPIR 011553Z AUTO 20019G26KT 10SM CLR 28/15 A2991 RMK AO2 PK WND 21026/1551 SLP113 T02830150
KPIT 011551Z 34007KT 290V350 10SM SCT049 27/12 A2996 RMK AO2 SLP141 T02670122
KPKB 011553Z COR 32008KT 10SM SCT045 27/12 A3002 RMK AO2 SLP158 T02670122
KPKD 011553Z AUTO VRB06KT 10SM CLR 25/12 A2996 RMK AO2 SLP140 T02500117
KPKV 011555Z AUTO 05008KT 10SM CLR 31/23 A2998 RMK AO2 T03120232
KPLN 011554Z AUTO 30011KT 10SM SCT037 SCT050 23/13 A2985 RMK AO2 SLP108 T02330133
KPLU 011555Z AUTO 00000KT 10SM CLR 22/11 A3003 RMK AO2
KPMD 011553Z AUTO 00000KT 10SM CLR 28/07 A3005 RMK AO2 SLP143 T02830072
KPMP 011553Z 15011KT 10SM FEW027 SCT170 BKN250 32/22 A3001 RMK AO2 SLP164 T03170222
KPMV 011555Z AUTO 00000KT 10SM CLR 22/18 A3004 RMK AO2 T02220177
KPNA 011555Z AUTO 00000KT 10SM CLR 22/00 A3035 RMK AO2
KPNC 011553Z AUTO 19005KT 10SM CLR 29/23 A3008 RMK AO2 SLP172 T02890228
KPNE 011554Z AUTO VRB04KT 10SM FEW110 31/15 A2986 RMK AO2 SLP109 T03110150 TSNO
KPNM 011554Z AUTO 26004KT 10SM CLR 27/12 A2997 RMK AO2
KPNS 011553Z VRB05KT 10SM CLR 30/24 A2989 RMK AO2 SLP124 T03000244
KPNT 011555Z AUTO 25004KT 10SM CLR 26/18 A3005 RMK AO2 T02640178
KPOB 011558Z AUTO VRB05KT 10SM CLR 32/14 A2995 RMK AO2 SLP143 T03180139
KPOC 011557Z 00000KT 4SM HZ SCT008 21/18 A3003
KPOE 011558Z AUTO 02007KT 360V070 10SM CLR 31/19 A3000 RMK AO2 SLP157 T03050187
KPOF 011553Z AUTO 02003KT 10SM CLR 31/21 A3004 RMK AO2 SLP165 T03110206
KPOU 011553Z 28011KT 10SM CLR 29/16 A2978 RMK AO2 SLP080 T02940156
KPOV 011545Z AUTO 28005KT 10SM SCT042 SCT050 BKN060 24/11 A2996 RMK AO2
KPOY 011555Z AUTO 15008KT 10SM CLR 26/M01 A3017 RMK AO2
KPPA 011555Z AUTO 21004KT 10SM CLR 22/20 A3019 RMK AO2 T02210198
KPPF 011552Z AUTO 00000KT 10SM CLR 29/22 A3010 RMK AO2 SLP181 T02940222
KPPO 011555Z AUTO 29006KT 10SM CLR 28/11 A3001 RMK AO2 T02750110
KPPQ 011555Z AUTO 16004KT 10SM CLR 28/17 A3008 RMK AO2 T02750165
KPQI 011555Z AUTO 17007KT 10SM FEW090 24/14 A2964 RMK AO1
KPQL 011553Z AUTO 36008KT 10SM CLR 31/22 A2991 RMK AO2 SLP129 T03060217 TSNO
KPQN 011554Z AUTO 24008KT 10SM CLR 25/21 A3001 RMK AO2
KPRB 011553Z AUTO 00000KT 10SM CLR 19/14 A3002 RMK AO2 SLP159 T01890144 TSNO
KPRC 011553Z 33003KT 10SM OVC100 22/15 A3023 RMK AO2 SLP160 T02220150 $
KPRG 011555Z AUTO 00000KT 10SM CLR 27/14 A3006 RMK AO2 T02670142
KPRN 011556Z AUTO 04003KT 10SM CLR 31/17 A2993 RMK AO2 SLP127 T03110172
KPRO 011555Z AUTO 24006KT 10SM CLR 26/22 A3004 RMK AO2 T02600216
KPRS 011555Z AUTO 10SM CLR 31/16 A3008 RMK AO2 T03140160
KPRX 011555Z 12009KT 10SM CLR 31/17 A3009 RMK AO1
KPSC 011553Z AUTO 00000KT 10SM CLR 27/08 A2992 RMK AO2 SLP127 T02670078
KPSF 011554Z AUTO 31007KT 10SM BKN033 BKN041 24/17 A2981 RMK AO2 SLP070 T02390167
KPSK 011555Z AUTO 29007KT 10SM 27/14 A3007 RMK AO2 T02650139
KPSM 011558Z 24006KT 10SM BKN110 BKN140 BKN200 26/17 A2972 RMK AO2A SLP066 T02590171 $
KPSN 011555Z AUTO 07005KT 10SM CLR 31/18 A3007 RMK AO2 T03110186
KPSO 011555Z AUTO 00000KT 10SM OVC100 19/10 A3044 RMK AO2 T01850102
KPSP 011553Z 08003KT 10SM CLR 33/13 A2990 RMK AO2 SLP120 T03330133
KPSX 011553Z AUTO 06009KT 10SM CLR 33/20 A2997 RMK AO2 SLP148 T03330200
KPTB 011555Z AUTO 23004KT 10SM CLR 31/20 A2994 RMK AO2 T03140199
KPTK 011553Z 28011KT 10SM FEW050 25/13 A2993 RMK AO2 SLP128 T02500128
KPTN 011555Z AUTO 03007KT 10SM CLR 30/19 A2997 RMK AO1
KPTS 011555Z AUTO 22006KT 10SM CLR 29/20 A3009 RMK AO2 T02880203
KPTT 011555Z AUTO 20005KT 10SM CLR 28/20 A3012 RMK AO2
KPTV 011555Z AUTO 21004KT 10SM CLR 27/13 A2998 RMK AO1
KPTW 011554Z AUTO VRB06KT 10SM CLR 28/17 A2987 RMK AO2 SLP109 T02780172
KPUB 011553Z AUTO VRB03KT 10SM CLR 26/14 A3017 RMK AO2 SLP150 T02560139
KPUC 011553Z AUTO 11007KT 10SM CLR 26/07 A3027 RMK AO2 SLP142 T02560072 TSNO
KPUJ 011555Z AUTO 07005KT 10SM BKN049 31/20 A3004 RMK AO2
KPUW 011553Z AUTO VRB04KT 10SM CLR 28/02 A3003 RMK AO2 SLP151 T02830017
KPVB 011555Z AUTO 25008KT 10SM SCT065 SCT080 26/17 A3000 RMK AO1 T02580172
KPVC 011555Z 21009KT 10SM CLR 28/18 A2976 RMK AO1 P0004
KPVD 011551Z 24009G15KT 10SM FEW060 BKN300 31/16 A2976 RMK AO2 SLP077 T03060161
KPVE 011555Z AUTO 00000KT 10SM CLR 30/21 A3004 RMK
KPVF 011555Z AUTO 00000KT 10SM CLR 23/11 A3007 RMK AO1
KPVG 011555Z AUTO 23004KT 10SM CLR 31/21 A2994 RMK AO1
KPVJ 011555Z AUTO 19005KT 10SM BKN080 BKN110 29/19 A3010 RMK AO2 T02880193
KPVU 011553Z 00000KT 15SM FEW140 24/04 A3019
KPVW 011555Z AUTO 13006KT 10SM BKN100 21/17 A3018 RMK AO2 T02110170
KPWA 011553Z 18008KT 10SM CLR 29/20 A3010 RMK AO2 SLP176 T02940200
KPWC 011554Z AUTO 27006KT 10SM CLR 24/12 A2998 RMK AO2
KPWG 011555Z AUTO 09009KT 10SM CLR 32/16 A3009 RMK AO1
KPWK 011552Z 30010KT 10SM FEW080 28/13 A3000 RMK AO2 SLP154 T02780133
KPWM 011551Z 26009G16KT 10SM FEW090 BKN110 26/15 A2971 RMK AO2 SLP061 T02610150
KPWT 011555Z AUTO 04008KT 10SM CLR 22/10 A3005 RMK AO1
KPXE 011555Z AUTO 07004KT 10SM CLR 31/24 A2996 RMK AO2 T03090235
KPYM 011552Z AUTO 24012G17KT 10SM CLR 31/17 A2976 RMK AO2 SLP075 T03110167
KPZQ 011555Z AUTO 36005KT 10SM SCT041 SCT050 SCT055 22/17 A2985 RMK AO2 T02160167
KQAJ 011555Z AUTO 13013KT 9999 VCTS CLR 41/14 A2951 RMK AO2 SLP978 T04050142 $
KQAY 011555Z AUTO 13006KT 6000 HZ CLR 37/23 A2949 RMK AO2 SLP983 T03710233 $
KQCL 011555Z AUTO 34002KT 9999 FEW030 SCT035 BKN180 23/20 A2988 RMK AO2 SLP063 T02290195
KQEB 011555Z AUTO 21007KT 9999 SCT031 BKN036 OVC090 20/13 Q1023 RMK AO2 RAB1522E1529SHRAB1529E1541 SLP186 T02020133
KQEI 011600Z AUTO 36001KT 6000 OVC005 23/21 A2989 RMK A02 TSNO
KQEJ 011600Z AUTO 09001KT 4000 BR FEW003 BKN027 23/21 A2984 RMK A02 TSNO
KQEL 011600Z AUTO 10001KT 4000 BR SCT040 23/21 A2989 RMK A02 TSNO
KQEN 011600Z AUTO / // CLR / / RMK A02 TSNO
KQEP 011600Z AUTO 15003KT 9999 CLR 27/22 A2979 RMK A02 TSNO
KQEQ 011600Z AUTO 22003KT 4800 HZ CLR 25/23 A2969 RMK A02 TSNO
KQER 011600Z AUTO 10001KT 8000 /OVC024 23/22 A2982 RMK A02 TSNO
KQES 011600Z AUTO 9999 CLR 26/24 A2985 RMK A02 TSNO
KQEV 011600Z AUTO 35001KT 9999 CLR 26/22 A2985 RMK A02 TSNO
KQEW 011600Z AUTO 22001KT 9999 CLR 26/22 A2984 RMK A02 TSNO
KQEX 011600Z AUTO 19006G12KT 9999 CLR 28/20 A2988 RMK A02 TSNO
KQEY 011600Z AUTO 09003KT 9999 FEW250 25/22 A2988 RMK A02 TSNO
KQFB 011600Z AUTO 10002KT 9999 CLR 24/19 A2992 RMK A02 TSNO
KQFG 011555Z AUTO VRB05KT 9999 OVC150 26/21 A2981 RMK AO2 SLP064 T02560210
KQFQ 011555Z AUTO 18005G10KT 6SM -SHRA FEW034 SCT075 BKN120 BKN150 26/25 A2980 RMK AO2 RAB1541E1554SHRAB1554 SLP086 P0000 T02580247 $
KQFT 011600Z AUTO 02001KT 9999 SCT012 BKN020 BKN035 26/22 A2982 RMK A02 TSNO
KQFU 011600Z AUTO 07004KT 9000 HZ CLR 25/22 A2984 RMK A02 TSNO
KQFV 011600Z AUTO 1200 /CLR 31/19 / RMK A02 TSNO
KQFX 011600Z AUTO 20001KT 8000 HZ FEW009 SCT011 BKN014 BKN045 25/22 A2985 RMK A02 TSNO
KQGV 011555Z 12015KT 9000 HZ FEW180 42/11 A2951 RMK SLP980 QNH999 PA +855
KQGX 011558Z 03007KT 6000 HZ FEW150 38/20 A2953 RMK AO2A SLP001 T03790198 $
KQHN 011556Z 25007KT 9000 DU FEW180 33/M03 A2968 RMK SLP956 Q1005 DA6416
KQHY 011556Z AUTO 05005KT 10SM FEW026 31/24 A2992 RMK AO2 LTG DSNT SW SLP133 T03060241
KQIR 011558Z 06014KT 9999 CLR 36/28 A2949 RMK AO2A SLP987 T03580278 $
KQL5 011455Z VRB03KT 8000 HZ FEW010 BKN150 BKN220 26/22 A2974 RMK SLP045 P0000 60000 T02620216 52005
KQRH 011556Z AUTO 16004KT 6000 M CLR 34/24 A2960 RMK AO2 RAB13E16SHRAB16E28 SLP016 T03350240 $
KQSA 011558Z 09009KT 9999 BKN160 26/14 A2989 RMK AO2A SLP020
KQSF 011555Z AUTO VRB03KT 9999 OVC150 23/13 A3004 RMK AO2 SLP076 T02250131
KQSN 011355Z AUTO 9999 FEW170 RMK AO2 SLPNO PNO $
KQTZ 011555Z 33006KT 9999 CLR 45/01 A2956 RMK SLP006 WND DATA ESTMD ALSTG/SLP ESTMD
KQVF 011555Z AUTO 00000KT 26/22 A3003 RMK AO2 SLP167 T02550215 PWINO TSNO $
KQWM 011555Z 14009KT 8000 HZ FEW160 41/16 A2951 RMK SLPNO QNH999
KQXT 011555Z 17008KT 9999 SCT200 35/M04 A2960 RMK SLP960 WND DATA ESTMD ALSTG/SLP ESTMD Q1002
KRAC 011553Z AUTO 30009KT 10SM CLR 27/12 A2998 RMK AO2 SLP148 T02670117
KRAL 011553Z 00000KT 5SM HZ BKN007 21/18 A3000 RMK AO2 SLP142 T02110178
KRAP 011552Z 20007KT 10SM CLR 27/14 A3003 RMK AO2 SLP142 T02720144
KRAS 011555Z AUTO 06005KT 10SM CLR 31/24 A2997 RMK AO2 T03060240
KRBD 011553Z 13006KT 10SM BKN110 31/16 A3008 RMK AO2 SLP174 T03110161
KRBG 011553Z AUTO 00000KT 10SM CLR 23/09 A2996 RMK AO2 SLP140 T02280094
KRBL 011554Z AUTO VRB03KT 10SM CLR 23/14 A2999 RMK AO2 SLP149 T02330144 $
KRBO 011555Z AUTO 05004KT 10SM CLR 31/23 A2998 RMK AO2 T03120228
KRBW 011555Z AUTO 00000KT 10SM SCT023 SCT028 BKN075 32/23 A2996 RMK AO2
KRCA 011558Z AUTO VRB01KT 10SM CLR 28/13 A3002 RMK AO2 SLP141 T02800131 $
KRCE 011555Z AUTO 18008KT 020V030 10SM CLR 29/21 A3012 RMK AO2
KRCM 011555Z AUTO 28007KT 10SM CLR 30/22 A3006 RMK AO2
KRCR 011555Z AUTO 29006KT 10SM CLR 27/12 A3002 RMK AO2
KRCV 011550Z AUTO 00000KT 10SM OVC100 19/09 A3044 RMK AO2 LTG DSNT W T01880086
KRCX 011555Z AUTO 30007KT 10SM CLR 24/11 A2998 RMK AO2 T02400107
KRCZ 011555Z AUTO 03003KT 10SM CLR 31/16 A2997 RMK AO2 T03070156
KRDD 011553Z 00000KT 10SM CLR 25/14 A2997 RMK AO2 SLP143 T02500139
KRDG 011554Z 28010KT 10SM CLR 29/14 A2985 RMK AO2 SLP111 T02890144
KRDK 011555Z AUTO 00000KT 10SM FEW019 SCT028 22/21 A3007 RMK AO2
KRDM 011556Z 19003KT 10SM CLR 24/01 A3008 RMK AO2 SLP152 T02390011
KRDR 011558Z AUTO 20008KT 10SM CLR 26/12 A2989 RMK AO2 SLP124 T02580120 $
KRDU 011551Z 00000KT 10SM FEW055 SCT250 31/16 A2997 RMK AO2 SLP141 T03060161 $
KREO 011552Z AUTO 00000KT 27/M05 A3011 RMK AO1 SLP146 T02721050
KRFD 011554Z 27005KT 10SM FEW075 FEW110 SCT200 27/14 A3002 RMK AO2 SLP161 T02670144
KRFI 011555Z AUTO 11008KT 10SM CLR 32/17 A3007 RMK AO2 T03150169
KRGK 011551Z AUTO 19004KT 10SM CLR 26/16 A2996 RMK AO2
KRHI 011553Z AUTO 30007KT 260V320 10SM CLR 22/12 A2996 RMK AO2 SLP142 T02220122
KRHP 011537Z AUTO 03005KT 10SM CLR 27/17 A3007 RMK AO2
KRHV 011551Z VRB05KT 10SM BKN015 20/15 A3003
KRIC 011554Z VRB03KT 10SM FEW060 SCT300 32/16 A2992 RMK AO2 SLP134 T03170156
KRIL 011553Z AUTO VRB03KT 10SM CLR 24/08 A3025 RMK AO2 SLP167 T02390083
KRIV 011558Z AUTO VRB01KT 10SM CLR 25/15 A3000 RMK AO2 SLP145 T02450154
KRIW 011553Z AUTO 33006KT 10SM CLR 26/02 A3023 RMK AO2 SLP157 T02610017
KRKD 011555Z AUTO 18007KT 10SM CLR 23/17 A2969 RMK AO1
KRKP 011553Z AUTO 05007KT 10SM CLR 31/24 A2996 RMK AO2 SLP146 T03110239
KRKR 011555Z AUTO 00000KT 10SM CLR 30/18 A3008 RMK AO2 T02990180
KRKS 011554Z AUTO 00000KT 10SM CLR 21/00 A3032 RMK AO2 SLP176 T02110000 $
KRME 011553Z 26016G19KT 10SM SCT034 BKN044 BKN080 23/16 A2983 RMK AO2 SLP098 T02330156
KRMG 011553Z AUTO 03009KT 10SM OVC065 29/16 A3001 RMK AO2 SLP152 T02940161
KRMN 011555Z AUTO 26005KT 10SM BKN100 BKN120 30/15 A2995 RMK AO2 T02980147
KRMY 011553Z AUTO 24010G15KT 10SM CLR 27/13 A2995 RMK AO2 T02680132
KRNC 011555Z AUTO VRB04KT 10SM CLR 29/21 A3007 RMK
KRND 011558Z AUTO VRB04KT 10SM CLR 31/21 A3003 RMK AO2 SLP160 T03130213
KRNH 011555Z AUTO 26005KT 10SM CLR 26/11 A2998 RMK AO2 T02550111
KRNM 011553Z 00000KT 3SM BR OVC002 18/17 A3001 RMK AO2 SLP150 T01780167
KRNO 011555Z 00000KT 10SM BKN130 BKN160 23/06 A3017 RMK AO2 SLP155 VIRGA T02330061
KRNP 011555Z AUTO 25012G16KT 10SM CLR 27/10 A2992 RMK AO2 T02650102
KRNT 011553Z 34004KT 10SM CLR 21/11 A3002 RMK AO2 SLP170 T02060111
KRNV 011555Z AUTO 06007KT 10SM CLR 31/21 A3003 RMK AO2 T03110209
KROA 011554Z 33006KT 10SM FEW055 29/13 A3000 RMK AO2 SLP146 T02940133
KROC 011554Z 28012G21KT 10SM FEW035 23/12 A2986 RMK AO2 SLP111 T02330117
KROG 011557Z VRB05KT 10SM CLR 30/19 A3012 RMK AO2 SLP185 T03000189
KROS 011555Z AUTO 25004KT 10SM CLR 25/13 A2996 RMK AO2 T02490134
KROW 011551Z 08005KT 10SM CLR 28/18 A3017 RMK AO2 SLP143 T02780178
KROX 011554Z AUTO 25007KT 10SM CLR 24/14 A2988 RMK AO2
KRPD 011555Z AUTO 27006KT 10SM CLR 24/12 A2998 RMK AO2 T02360117
KRPH 011555Z AUTO 07005KT 10SM SCT120 23/20 A3011 RMK AO2 T02270200
KRPJ 011555Z AUTO 26007KT 10SM CLR 26/16 A3002 RMK AO2 T02630155
KRPX 011555Z AUTO 19005KT 40SM 25/04 A2995 RMK A01 T02500044
KRQB 011555Z AUTO 29008G16KT 10SM SCT045 25/11 A2991 RMK AO2 T02510113
KRRT 011554Z AUTO 24009KT 10SM CLR 23/15 A2988 RMK AO2
KRSL 011553Z AUTO VRB05KT 10SM CLR 29/21 A3008 RMK AO2 SLP167 T02890206
KRSN 011555Z AUTO 09008KT 10SM CLR 31/19 A3007 RMK AO2 T03140185
KRSP 011454Z AUTO 10SM FEW070 24/16 A2996 RMK AO2 SLP137 T02440161 51006 $
KRST 011554Z 29005KT 10SM CLR 24/19 A3001 RMK AO2 SLP157 T02390189
KRSV 011555Z AUTO 36004KT 10SM CLR 27/14 A3007 RMK AO2 T02650138
KRSW 011553Z COR 17008KT 10SM SCT042 30/26 A3000 RMK AO2 LTG DSNT N AND W SLP156 T03000256
KRTN 011553Z AUTO 15003KT 10SM CLR 22/15 A3028 RMK AO2 SLP169 T02170150
KRTS 011555Z AUTO 00000KT 10SM SCT120 22/04 A3020 RMK AO2
KRUE 011553Z AUTO 00000KT 10SM CLR 31/18 A3007 RMK AO2 SLP174 T03060183
KRUQ 011555Z AUTO 04005KT 10SM CLR 29/15 A3000 RMK AO2 T02880153
KRVS 011553Z VRB03KT 10SM CLR 30/21 A3007 RMK AO2 SLP186 T03000206
KRWF 011553Z AUTO 12003KT 10SM CLR 25/18 A2998 RMK AO2 SLP146 T02500183
KRWI 011553Z AUTO 04004KT 10SM CLR 33/15 A2994 RMK AO2 SLP137 T03280150
KRWL 011553Z AUTO 24007KT 10SM CLR 24/M02 A3031 RMK AO2 SLP161 T02441022
KRWV 011555Z AUTO 06005KT 10SM CLR 31/18 A3007 RMK AO2
KRXE 011553Z AUTO 00000KT 10SM CLR 19/06 A3022 RMK AO2 SLP192 T01890056
KRYN 011545Z 03003KT 10SM CLR 29/18 A3003
KRYT 011553Z AUTO 00000KT 10SM BKN075 26/15 A2991 RMK AO2 SLP117 T02560150 $
KRYV 011555Z AUTO 27003KT 10SM SCT065 SCT085 SCT110 23/15 A2998 RMK AO2 T02320147
KRYW 011555Z AUTO 07007KT 10SM CLR 32/15 A3009 RMK AO2 T03160149
KRYY 011552Z VRB04KT 10SM BKN060 A3004
KRZL 011555Z AUTO 27004KT 10SM CLR 26/12 A3003 RMK AO2
KRZN 011555Z AUTO 29007KT 10SM CLR 24/12 A2996 RMK AO2 T02430124
KRZR 011555Z AUTO 02008KT 10SM CLR 29/17 A3005 RMK
KRZT 011554Z AUTO 36004KT 10SM CLR 26/11 A3000 RMK AO2
KS39 011600Z AUTO 07003KT 10SM CLR 24/M00 A3009 RMK AO2
KSAA 011555Z AUTO 00000KT 10SM CLR 23/03 A3033 RMK AO2
KSAC 011553Z 19009G17KT 10SM CLR 19/13 A2997 RMK AO2 SLP149 T01940133
KSAD 011551Z AUTO 14007KT 10SM CLR 28/17 A3008 RMK AO2 SLP134 T02780167
KSAF 011553Z VRB03KT 10SM CLR 23/12 A3034 RMK AO2 SLP175 T02280117
KSAN 011551Z 00000KT 10SM OVC015 21/17 A3000 RMK AO2 SLP159 T02110167 $
KSAR 011555Z AUTO 08005KT 10SM SCT120 27/17 A3008 RMK AO2 T02730165
KSAT 011551Z 10011KT 10SM FEW040 SCT250 32/21 A3003 RMK AO2 SLP149 T03220211
KSAV 011553Z 00000KT 10SM SCT018 SCT030 BKN250 29/23 A2995 RMK AO2 SLP140 T02890233
KSAW 011545Z 31014G18KT 10SM SCT047 SCT055 23/10 A2987
KSAZ 011554Z AUTO 24006KT 10SM CLR 24/11 A2997 RMK AO2
KSBA 011553Z 15008KT 10SM SCT009 21/17 A2997 RMK AO2 SLP149 T02110172
KSBD 011545Z 00000KT 4SM HZ FEW100 23/18 A3001
KSBM 011553Z AUTO 28009KT 10SM FEW085 26/11 A2994 RMK AO2 SLP135 T02560111
KSBN 011554Z 30009KT 10SM CLR 27/12 A3000 RMK AO2 SLP153 T02670122
KSBO 011555Z AUTO 03003KT 10SM SCT026 SCT036 SCT041 31/25 A2996 RMK AO2
KSBP 011556Z 29009KT 10SM SCT011 19/14 A3001 RMK AO2 SLP159 T01940144
KSBS 011555Z AUTO 00000KT 10SM CLR 19/06 A3034 RMK AO1 T01920056
KSBY 011554Z 23005KT 10SM CLR 30/19 A2989 RMK AO2 SLP123 T03000189
KSCD 011555Z AUTO 10SM CLR A2998 RMK AO2
KSCF 011555Z AUTO 04009KT 10SM CLR 30/22 A2995 RMK A01
KSCH 011548Z 29014G21KT 10SM CLR 26/13 A2980
KSCK 011555Z 33004KT 10SM CLR 22/14 A2998 RMK AO2 SLP151 T02220139
KSCR 011555Z AUTO 36003KT 10SM CLR 30/14 A2998 RMK AO2 T02990144
KSDA 011555Z AUTO 00000KT 10SM CLR 23/21 A3006 RMK AO2
KSDB 011448Z AUTO 34011KT 10SM CLR 23/09 A3018 RMK AO2 SLP161 T02330089 53008
KSDF 011556Z VRB06KT 10SM FEW250 29/15 A3001 RMK AO2 SLP157 T02890150
KSDL 011553Z 00000KT 10SM BKN100 31/18 A2996 RMK AO2 SLP118 T03060183
KSDM 011607Z 25003KT 10SM OVC010 21/18 A2999 RMK AO2 T02060178
KSDY 011555Z 16007KT 10SM CLR A2990 RMK AO1
KSEA 011553Z 29004KT 10SM SCT250 22/09 A3004 RMK AO2 SLP174 T02170094
KSEE 011555Z AUTO 30004KT 5SM BR BKN009 OVC024 21/18 A3001 RMK AO2
KSEG 011553Z AUTO 30006KT 10SM FEW049 28/17 A2988 RMK AO2 SLP113 T02830167
KSEM 011600Z AUTO VRB05KT 10SM CLR 30/17 A2993 RMK AO2
KSEP 011555Z AUTO 16004KT 10SM CLR 29/17 A3014 RMK AO2 T02890170
KSET 011554Z AUTO 17006KT 10SM CLR 27/19 A3006 RMK AO2 SLP175 T02720189
KSEZ 011555Z AUTO 00000KT 10SM BKN110 23/15 A3021 RMK AO2
KSFB 011553Z 22014G19KT 10SM CLR 32/22 A2997 RMK AO2 SLP146 T03170217
KSFF 011553Z 00000KT 10SM CLR 24/06 A2998 RMK AO2 SLP133 T02440061
KSFM 011555Z AUTO 26012G19KT 10SM FEW120 27/14 A2974 RMK AO1
KSFO 011556Z 27010KT 10SM FEW013 SCT019 19/14 A3003 RMK AO2 SLP168 T01940139
KSFQ 011555Z AUTO 22007KT 10SM SCT041 31/18 A2993 RMK AO2 T03080183
KSFY 011555Z AUTO 24004KT 10SM CLR 27/16 A3001 RMK AO2 T02680156
KSFZ 011555Z AUTO 27007KT 230V300 10SM CLR 28/18 A2977 RMK AO1
KSGF 011552Z 25006KT 10SM CLR 29/17 A3010 RMK AO2 SLP180 T02940167
KSGH 011556Z AUTO 28008KT 10SM CLR 26/16 A3003 RMK AO2 T02550161 SLP162
KSGJ 011602Z 23010G16KT 10SM OVC031 31/24 A2995 RMK AO2
KSGR 011553Z 09010KT 10SM CLR 33/18 A2998 RMK AO2 SLP152 T03280178
KSGS 011552Z AUTO 27006KT 10SM CLR 26/15 A2997 RMK AO2 T02560150
KSGT 011555Z AUTO 10SM CLR 31/21 A3006 RMK AO1
KSGU 011555Z AUTO 19005KT 10SM CLR 29/12 A3008 RMK AO1
KSHD 011555Z AUTO 00000KT 10SM SCT050 29/17 A2998 RMK AO2 T02900165
KSHL 011555Z AUTO 24006KT 10SM CLR 24/21 A3001 RMK AO2
KSHM 011556Z AUTO 20007G14KT 10SM CLR 23/14 A3027 RMK AO2 SLP173 T02290139
KSHN 011553Z AUTO 00000KT 10SM CLR 21/10 A3001 RMK AO2 SLP158 T02060100
KSHR 011553Z AUTO 16003KT 10SM CLR 30/06 A3009 RMK AO2 SLP147 T03000056
KSHV 011556Z 06012KT 10SM FEW300 33/17 A3004 RMK AO2 SLP168 T03280172
KSIF 011555Z AUTO 00000KT 7SM CLR 30/18 A2998 RMK AO2 T02980178 PWINO
KSIY 011553Z AUTO 34003KT 9SM CLR 26/07 A3005 RMK AO2 SLP154 T02560067 TSNO
KSJC 011553Z 00000KT 10SM OVC014 18/14 A3003 RMK AO2 SLP167 T01830144
KSJN 011554Z AUTO 22003KT 10SM CLR 22/13 A3026 RMK AO2 SLP154 T02220128
KSJS 011555Z AUTO 33005KT 10SM CLR 27/16 A3004 RMK AO2 T02680163
KSJT 011551Z 06010KT 10SM CLR 31/20 A3010 RMK AO2 SLP162 T03110200
KSJX 011557Z AUTO 23007KT 230V300 10SM CLR 22/14 A2987 RMK AO2 T02170144
KSKA 011558Z AUTO VRB04KT 10SM CLR 27/00 A2999 RMK AO2 SLP137 T02710003
KSKF 011558Z AUTO 12009G15KT 10SM CLR 33/21 A3001 RMK AO2 DZB11E27 SLP154 P0000 T03250214 $
KSKX 011555Z AUTO 00000KT 10SM SCT035 19/09 A3041 RMK AO1
KSLB 011555Z AUTO 24009KT 10SM CLR 25/20 A3005 RMK AO2
KSLC 011553Z 16005KT 10SM FEW200 SCT250 26/04 A3015 RMK AO2 SLP149 T02610044
KSLE 011556Z 02006KT 10SM CLR 23/06 A2996 RMK AO2 SLP144 T02330061
KSLG 011555Z AUTO 00000KT 10SM CLR 30/17 A3010 RMK AO1
KSLH 011555Z AUTO 27008KT 10SM SCT036 23/13 A2984 RMK AO2 T02330134
KSLI 011558Z VRB01KT 10SM SCT019 22/17 A2999 RMK AO2A SLP158 T02170173
KSLK 011551Z AUTO 26008G17KT 220V310 10SM FEW034 SCT042 21/12 A2979 RMK AO2 LTG DSNT NE SLP078 T02110117
KSLN 011553Z 25005KT 10SM CLR 31/22 A3007 RMK AO2 SLP168 T03060217
KSLO 011555Z AUTO 05005KT 10SM CLR 28/15 A3008 RMK AO2 T02790148
KSLR 011555Z AUTO 13008KT 10SM CLR 31/16 A3010 RMK AO2 T03100160
KSME 011555Z AUTO 00000KT 10SM CLR 27/15 A3006 RMK AO2
KSMF 011553Z 15011KT 10SM FEW150 20/14 A2996 RMK AO2 SLP143 T02000139
KSMN 011555Z AUTO 00000KT 10SM CLR 18/06 A3019 RMK AO1
KSMO 011551Z 00000KT 10SM OVC013 21/17 A2999 RMK AO2 SLP155 T02110172
KSMQ 011553Z AUTO 10SM CLR 29/16 A2981 RMK AO2 SLP092 T02940156
KSMS 011555Z AUTO 02008KT 10SM 34/18 A2996 RMK AO2
KSMX 011551Z 29005KT 9SM OVC008 18/15 A3001 RMK AO2 SLP165 T01830150
KSNA 011553Z 00000KT 10SM OVC016 21/17 A2998 RMK AO2 SLP152 T02110172
KSNC 011555Z AUTO 22004KT 10SM FEW047 FEW070 SCT100 28/19 A2980 RMK AO2
KSNH 011555Z AUTO 06004KT 10SM CLR 31/00 A3005 RMK
KSNK 011555Z AUTO 05011G16KT 10SM SCT018 26/20 A3016 RMK AO2 T02550202 TSNO
KSNL 011555Z AUTO 17003KT 10SM CLR 28/21 A3012 RMK AO2
KSNS 011553Z AUTO 24005KT 10SM OVC016 18/13 A3004 RMK AO2 SLP180 T01830133
KSNT 011551Z AUTO 00000KT 14/M01 A3035 RMK AO1 SLP193 T01441006
KSNY 011553Z AUTO 21017KT 10SM CLR 29/15 A3012 RMK AO2 SLP143 T02890150
KSOA 011555Z AUTO 11007KT 10SM CLR 31/19 A3014 RMK AO2
KSOP 011555Z AUTO 08003KT 10SM CLR 32/15 A2996 RMK AO1
KSOW 011555Z AUTO 22009G15KT 10SM CLR 23/12 A3032 RMK AO2
KSPA 011615Z AUTO 05006KT 10SM 31/16 A3000 RMK AO2
KSPB 011553Z AUTO 36011KT 10SM CLR 23/07 A2998 RMK AO2 SLP151 T02280072 $
KSPD 011556Z AUTO VRB04KT 25/18 A3016 RMK AO1 SLP146 T02500178
KSPF 011555Z AUTO 31009G14KT 10SM CLR 28/11 A3009 RMK AO2
KSPG 011553Z 20014KT 10SM FEW029 SCT039 30/24 A2995 RMK AO2 WSHFT 1444 LTG DSNT W SLP140 T03000244
KSPI 011552Z 24003KT 10SM CLR 28/14 A3007 RMK AO2 SLP176 T02830144
KSPL 011555Z AUTO 03006KT 5SM CLR 29/25 A2997 RMK AO1
KSPR 011555Z AUTO 28006KT 10SM CLR 30/25 A2993 RMK A01
KSPS 011552Z AUTO 00000KT 10SM SCT070 28/22 A3010 RMK AO2 SLP178 T02780217 $
KSPW 011553Z AUTO 23011KT 10SM CLR 26/21 A3002 RMK AO2 SLP160 T02560206
KSQE 011555Z AUTO 24014KT 7SM CLR 28/25 A2994 RMK A01
KSQI 011555Z AUTO 25007KT 10SM FEW085 28/18 A2999 RMK AO1
KSQL 011547Z VRB04KT 10SM SCT019 BKN150 20/14 A3004
KSRB 011555Z AUTO 32003KT 10SM CLR 31/22 A3005 RMK
KSRC 011556Z AUTO 03004KT 10SM CLR 32/20 A3007 RMK AO2 SLP183 T03220200 TSNO
KSRQ 011553Z 18015KT 10SM CLR 29/24 A2996 RMK AO2 SLP145 T02940239
KSSC 011558Z AUTO 09008KT 10SM CLR 33/17 A2994 RMK AO2 SLP137 T03300169 $
KSSF 011553Z 11009KT 10SM CLR 32/22 A3000 RMK AO2 SLP144 T03220222
KSSI 011553Z AUTO 20005KT 10SM BKN033 BKN050 28/24 A2995 RMK AO2 SLP141 T02780239 $
KSTC 011553Z VRB05KT 10SM CLR 26/12 A2997 RMK AO2 SLP151 T02610122
KSTE 011555Z AUTO 31009KT 10SM CLR 23/10 A2997 RMK AO2 T02320100
KSTF 011555Z AUTO 03010G15KT 012V072 10SM CLR 30/17 A3002 RMK AO2
KSTJ 011553Z 25005KT 10SM CLR 29/24 A3005 RMK AO2 SLP166 T02890239 $
KSTK 011545Z AUTO 22011KT 10SM CLR 27/17 A3010 RMK AO2
KSTL 011551Z 10006KT 10SM FEW050 SCT120 BKN250 29/16 A3008 RMK AO2 SLP171 ACC DSNT NW T02890156
KSTP 011553Z 00000KT 10SM CLR 26/16 A2997 RMK AO2 SLP141 T02610161
KSTS 011553Z 29004KT 6SM HZ OVC012 17/13 A3002 RMK AO2 SLP159 T01670133
KSUA 011547Z 00000KT 7SM OVC070 29/24 A3003
KSUE 011555Z AUTO 29011G15KT 250V310 10SM CLR 23/12 A2993 RMK AO1
KSUN 011550Z 30008KT 10SM FEW150 22/02 A3026
KSUS 011554Z 10005KT 10SM SCT200 28/19 A3006 RMK AO2 SLP171 T02780189
KSUT 011555Z AUTO 19005KT 10SM SCT015 BKN028 BKN032 28/24 A2995 RMK AO2 T02810240
KSUU 011558Z AUTO 23024G30KT 10SM CLR 19/13 A2995 RMK AO2 PK WND 26031/44 SLP149 T01850132 PWINO PNO $
KSUW 011555Z AUTO 25008KT 10SM CLR 25/14 A2991 RMK AO2 T02450140
KSUX 011552Z 25009KT 10SM CLR 26/18 A3002 RMK AO2 SLP159 T02560178
KSVC 011555Z AUTO 12010G14KT 10SM 26/10 A3028 RMK AO2
KSVH 011555Z AUTO 00000KT 10SM CLR 30/16 A3000 RMK AO2 T03010155
KSVN 011558Z AUTO 21003KT 10SM FEW026 31/25 A2992 RMK AO2 SLP135 T03100254
KSWF 011445Z 26010KT 20SM SKC 27/18 A2981
KSWO 011553Z 21006KT 10SM CLR 31/21 A3008 RMK AO2 SLP172 T03060206
KSWW 011555Z AUTO 04007KT 020V090 10SM CLR 28/20 A3016 RMK AO2 T02760199
KSXS 011556Z AUTO 09005KT 10SM FEW024 30/23 A2993 RMK AO2 SLP133 T03000230
KSXT 011603Z AUTO 19005KT 1 1/2SM HZ SCT009 BKN100 25/04 A3010 RMK AO2 RAE1559 P0000 T02500044
KSYF 011555Z AUTO 20009G15KT 10SM CLR 29/14 A3011 RMK AO2 T02880135
KSYI 011555Z AUTO 01006KT 10SM CLR 31/21 A3006 RMK
KSYM 011550Z AUTO 00000KT 10SM CLR 26/16 A3005 RMK AO2
KSYN 011553Z AUTO 00000KT 10SM SCT120 25/16 A2997 RMK AO2 T02490164
KSYR 011554Z 26014G19KT 10SM BKN040 BKN050 25/15 A2983 RMK AO2 SLP095 BKN040 V SCT T02500150
KSZL 011558Z AUTO 30007KT 10SM CLR 30/23 A3006 RMK AO2 SLP174 T03040226
KSZT 011555Z AUTO 00000KT 10SM CLR 21/03 A2999 RMK AO2
KT20 011555Z AUTO 06007KT 10SM OVC003 32/22 A3001 RMK AO2 T03230215
KT35 011555Z AUTO 11006KT 10SM CLR 31/19 A3006 RMK AO2 T03060186
KT65 011555Z AUTO 04005KT 7SM SCT024 32/22 A2997 RMK AO2 T03150218
KT82 011555Z AUTO 07005KT 10SM SCT050 29/18 A3009 RMK AO2 T02900182
KTAD 011554Z AUTO 00000KT 10SM CLR 26/12 A3024 RMK AO2 SLP151 T02560117
KTAN 011552Z AUTO 21009KT 10SM CLR 31/18 A2975 RMK AO2 SLP072 T03060178
KTAZ 011555Z AUTO 00000KT 10SM CLR 27/14 A3007 RMK AO2
KTBN 011558Z AUTO 30007KT 10SM CLR 28/21 A3008 RMK AO2 SLP178 T02840211
KTBR 011555Z AUTO 06004KT 10SM SCT022 SCT110 30/25 A2995 RMK AO2 T02950249 TSNO
KTCC 011553Z AUTO 19006KT 10SM CLR 25/18 A3017 RMK AO2 SLP160 T02500183
KTCL 011553Z 03015G24KT 10SM CLR 31/15 A2998 RMK AO2 PK WND 03026/1537 SLP149 T03110150
KTCM 011558Z AUTO 33002KT 10SM CLR 20/11 A3002 RMK AO2 SLP168 T02020109 $
KTCS 011553Z AUTO 36004KT 10SM CLR 23/16 A3024 RMK AO2 SLP152 T02330161 TSNO $
KTDF 011555Z AUTO 00000KT 10SM CLR 29/15 A2999 RMK AO2
KTDR 011556Z AUTO 08005KT 10SM FEW013 31/26 A2989 RMK AO2 LTG DSNT SW SLP125 T03050262 TSNO $
KTDZ 011553Z AUTO 31010KT 10SM CLR 26/13 A2997 RMK AO2 SLP142 T02610128
KTEB 011551Z 23006KT 10SM CLR 29/17 A2979 RMK AO2 SLP088 T02940167
KTEW 011552Z AUTO 28007KT 10SM SCT050 25/14 A2994 RMK AO2 T02450135
KTEX 011555Z AUTO 00000KT 10SM OVC100 15/09 A3053 RMK AO2 LTG DSNT SW T01520094
KTFP 011555Z AUTO 05006KT 10SM CLR 32/23 A2996 RMK AO2 T03230233
KTGI 011549Z AUTO 22006KT 10SM CLR 29/22 A2991 RMK AO1
KTHA 011555Z AUTO VRB05KT 10SM CLR 28/18 A3008 RMK
KTHV 011553Z AUTO 28007KT 10SM SCT090 28/14 A2989 RMK AO2 SLP120 T02830144
KTIF 011555Z AUTO 15018G25KT 10SM CLR 26/15 A3012 RMK AO2 LTG DSNT NE T02580148
KTIK 011558Z AUTO 17008KT 10SM CLR 29/20 A3010 RMK AO2 SLP185 T02880204 $
KTIP 011550Z AUTO 33005KT 10SM CLR 28/15 A3006 RMK AO2 T02770148
KTIW 011553Z VRB03KT 10SM CLR 19/10 A3003 RMK AO2 SLP166 T01890100
KTIX 011550Z 21010KT 7SM BKN090 29/23 A2999
KTKC 011545Z AUTO 01000KT 10SM CLR 27/22 A2999 RMK AO2
KTKI 011553Z 13008KT 10SM BKN110 30/18 A3008 RMK AO2 SLP180 T03000178
KTKV 011555Z AUTO 30008G16KT 10SM CLR 22/12 A2996 RMK AO2 T02160119
KTLH 011553Z 12005KT 10SM -RA FEW019 BKN026 BKN250 30/25 A2990 RMK AO2 RAB43 SLP123 P0000 T03000250
KTMA 011555Z AUTO 09003KT 10SM OVC006 26/25 A2995 RMK AO2 T02600247
KTMB 011553Z 15012KT 10SM FEW030 32/24 A3002 RMK AO2 SLP163 T03220244
KTME 011555Z AUTO 09008KT 10SM CLR 32/18 A3001 RMK AO2
KTMK 011555Z AUTO 00000KT 2SM BR OVC001 11/11 A3001 RMK AO2
KTNB 011555Z AUTO 35009G15KT 10SM CLR 23/09 A3014 RMK AO2 T02330091
KTNU 011555Z AUTO 24006KT 10SM CLR 26/21 A3004 RMK AO2
KTOA 011548Z 34006KT 7SM SCT014 23/18 A3000
KTOB 011554Z AUTO 00000KT 10SM CLR 23/18 A3001 RMK AO2
KTOC 011555Z AUTO 09003KT 10SM BKN055 29/18 A3002 RMK AO2 T02910180
KTOI 011553Z AUTO VRB03KT 10SM CLR 31/21 A2993 RMK AO2 SLP129 T03110211
KTOL 011552Z AUTO 28009KT 10SM CLR 26/13 A2996 RMK AO2 SLP141 T02610133 TSNO
KTOP 011553Z 27003KT 10SM CLR 29/23 A3007 RMK AO2 SLP172 T02940233
KTOR 011553Z AUTO 19005KT 10SM CLR 27/14 A3008 RMK AO2 SLP133 T02670139
KTPA 011604Z 24021G31KT 3SM R01L/3000VP6000FT -RA FEW019 SCT030TCU OVC045 24/22 A3000 RMK AO2 PK WND 24031/1603 WSHFT 1550 RAB00 PRESRR TCU ALQDS P0000 T02440217
KTPF 011555Z AUTO 18012G17KT 7SM -RA SCT031 BKN045 BKN060 27/25 A2998 RMK AO2
KTPH 011556Z AUTO 10005KT 10SM CLR 26/04 A3023 RMK AO2 SLP146 T02560044
KTPL 011555Z AUTO 11010G14KT 10SM CLR 32/16 A3007 RMK AO1
KTQE 011554Z AUTO VRB04KT 10SM CLR 26/19 A3003 RMK AO2 SLP159 T02560194
KTQH 011555Z AUTO 00000KT 10SM CLR 30/20 A3010 RMK AO2
KTRI 011553Z VRB03KT 10SM FEW045 27/14 A3007 RMK AO2 SLP157 T02720144
KTRK 011550Z 00000KT 10SM OVC110 15/06 A3029 RMK NOSPECI
KTRL 011553Z AUTO 10007KT 10SM FEW120 32/17 A3008 RMK AO2 SLP179 T03170172 PNO $
KTRM 011552Z AUTO 36005KT 10SM CLR 34/13 A2984 RMK AO2 SLP107 T03390133 TSNO
KTSP 011555Z AUTO 32005KT 10SM CLR 24/09 A3016 RMK AO2
KTTA 011555Z AUTO 00000KT 10SM CLR 31/14 A2996 RMK AO2 T03090139
KTTD 011553Z 00000KT 10SM CLR 21/12 A2997 RMK AO2 SLP148 T02060117 $
KTTF 011554Z AUTO 28006G14KT 10SM CLR 26/13 A2994 RMK AO2 T02590132
KTTN 011553Z 26010KT 10SM SCT100 29/16 A2984 RMK AO2 SLP096 T02890161
KTTS 011558Z AUTO 20010KT 10SM FEW110 SCT210 29/23 A2998 RMK AO2 RAB27E28DZB28E36RAB36E37 SLP156 P0000 T02930232 $
KTUL 011553Z VRB04KT 10SM SCT070 BKN200 30/21 A3007 RMK AO2 SLP172 T03000206 $
KTUP 011553Z 05011KT 10SM CLR 31/19 A3003 RMK AO2 SLP164 T03060189
KTUS 011553Z 18003KT 10SM CLR 29/17 A3005 RMK AO2 SLP129 T02890167
KTVC 011553Z 30010G16KT 10SM SCT046 SCT075 25/12 A2986 RMK AO2 SLP110 T02500122
KTVF 011555Z AUTO 23005KT 10SM CLR 23/13 A2991 RMK AO1
KTVI 011555Z AUTO 18004KT 10SM BKN014 OVC022 28/25 A2994 RMK AO2
KTVK 011555Z AUTO 19006KT 10SM CLR 27/22 A3007 RMK AO2
KTVL 011553Z AUTO 00000KT 10SM BKN100 18/07 A3030 RMK AO2 SLP202 T01830067
KTVR 011553Z AUTO 05008KT 10SM CLR 32/18 A3001 RMK AO2 SLP168 T03170183
KTWF 011553Z 08004KT 10SM CLR 28/M02 A3013 RMK AO2 SLP143 T02781017
KTWM 011554Z AUTO 27006G14KT 10SM SCT055 25/14 A2989 RMK AO2
KTXK 011553Z 12007KT 090V150 10SM CLR 31/18 A3007 RMK AO2 SLP178 T03110183
KTYQ 011555Z AUTO 32004KT 10SM CLR 26/14 A3006 RMK AO2 T02590135
KTYR 011553Z 08010KT 10SM CLR 32/17 A3007 RMK AO2 SLP174 T03220167
KTYS 011553Z 04006KT 10SM FEW050 29/16 A3005 RMK AO2 SLP162 T02890161
KTZR 011550Z 29005KT 10SM SCT050 26/14 A3001
KU16 011458Z AUTO 03007KT 10SM CLR 27/M03 A3013 RMK AO2 SLP820 T02671033 52010 $
KU42 011555Z AUTO 14005KT 10SM CLR 26/04 A3018 RMK AO1 T02600037
KU68 011555Z AUTO 00000KT 10SM CLR 25/00 A3013 RMK AO2
KUAO 011553Z AUTO 01006KT 10SM CLR 22/07 A2998 RMK AO2 SLP152 T02170072
KUBE 011555Z AUTO 26005KT 10SM CLR 22/10 A2997 RMK AO2
KUCP 011556Z AUTO 29004KT BKN045 26/14 A2996 RMK AO2 T02610138 SLP151 $
KUCY 011555Z AUTO 33004KT 10SM CLR 30/19 A3003 RMK
KUDG 011555Z AUTO 11006KT 10SM CLR 33/16 A2997 RMK AO1
KUES 011545Z 29011KT 10SM SCT065 21/13 A3002
KUGN 011555Z 28005KT 10SM CLR 27/13 A2998 RMK AO2 SLP139 T02670133
KUIL 011553Z AUTO 30003KT 7SM OVC003 14/14 A3003 RMK AO2 SLP167 T01390139
KUIN 011554Z AUTO 15005KT 10SM CLR 27/15 A3006 RMK AO2 SLP173 T02720150
KUKF 011555Z AUTO 31006G14KT 270V330 10SM CLR 30/13 A3007 RMK AO2
KUKI 011556Z AUTO 13007KT 10SM CLR 18/13 A3000 RMK AO2 SLP151 T01780133
KUKT 011555Z AUTO 26004KT 10SM CLR 28/16 A2987 RMK AO1
KULM 011553Z AUTO 00000KT 10SM CLR 24/18 A2999 RMK AO2
KUNI 011550Z AUTO 33004KT 10SM CLR 26/12 A3000 RMK AO2 T02590119
KUNO 011553Z AUTO 30005KT 10SM CLR 30/18 A3011 RMK AO2 SLP181 T03000178
KUNU 011555Z AUTO 25003KT 10SM BKN065 BKN075 OVC095 21/15 A2999 RMK AO2 T02100153
KUNV 011553Z 30004KT 10SM SCT040 BKN060 24/15 A2992
KUOX 011535Z AUTO 07008KT 10SM CLR 30/17 A3006 RMK AO2 PWINO PNO
KUSE 011555Z AUTO 28008KT 10SM CLR 26/14 A2997 RMK AO2
KUTA 011555Z AUTO 03004KT 10SM CLR 31/21 A3005 RMK AO2 TSNO
KUTS 011553Z AUTO VRB04KT 10SM CLR 32/19 A3003 RMK AO2 SLP165 T03170189
KUUU 011553Z AUTO 19006KT 10SM CLR 27/20 A2977 RMK AO2 SLP078 T02720200
KUVA 011555Z AUTO 11008KT 10SM CLR 32/22 A3003 RMK AO2 T03190224
KUXL 011555Z AUTO 07005KT 10SM CLR 32/19 A2999 RMK AO2 T03180186
KUYF 011555Z AUTO 28011G19KT 10SM CLR 25/13 A3001 RMK AO2
KUZA 011554Z AUTO VRB03KT 10SM CLR 31/14 A3000 RMK AO2 SLP145 T03110144
KVAD 011558Z AUTO 00000KT 10SM SCT017 SCT026 BKN130 BKN200 28/24 A2992 RMK AO2 CIG 032 RWY36 SLP132 T02840242 $
KVAF 011555Z AUTO 16005KT 9SM CLR 27/25 A2995 RMK A01
KVAY 011554Z AUTO 27007KT 10SM FEW100 29/17 A2984 RMK AO2 SLP105 T02890167
KVBG 011603Z AUTO 32009KT 7SM OVC007 17/15 A3002 RMK AO2 TSNO
KVBS 011555Z AUTO 12015KT 10SM CLR 29/23 A2996 RMK A01
KVBT 011555Z AUTO 25004KT 10SM CLR 29/17 A3013 RMK AO1
KVBW 011555Z AUTO 27003KT 10SM CLR 28/16 A2995 RMK AO2 T02780157
KVCB 011553Z AUTO 15003KT 10SM CLR 22/13 A2997 RMK AO2 SLP146 T02220133
KVCT 011551Z VRB06KT 10SM CLR 32/21 A2999 RMK AO2 SLP153 T03220211
KVCV 011555Z AUTO 00000KT 10SM CLR 27/08 A3007 RMK AO2
KVDF 011615Z AUTO 20010KT 5SM RA SCT021 BKN029 OVC060 27/24 A2997 RMK AO2
KVDI 011555Z AUTO 05004KT 10SM CLR 30/23 A2995 RMK AO2
KVEL 011553Z AUTO 00000KT 10SM CLR 25/M03 A3021 RMK AO2 SLP159 T02501028
KVER 011555Z AUTO 00000KT 10SM CLR 28/21 A3006 RMK AO2 T02790212
KVES 011555Z AUTO 32006KT 10SM CLR 25/17 A3001 RMK AO2
KVGT 011553Z 12010KT 10SM FEW110 33/14 A2998 RMK AO2 SLP138 T03280144
KVIH 011553Z AUTO 28005KT 10SM CLR 29/22 A3007 RMK AO2 SLP171 T02890217
KVIS 011555Z AUTO 00000KT 10SM CLR 26/13 A2994 RMK AO1
KVJI 011555Z AUTO 33004KT 10SM CLR 26/12 A3009 RMK AO2 T02630120
KVKY 011555Z AUTO 30008KT 10SM SCT060 SCT070 30/25 A2990 RMK A01
KVLD 011553Z 06003KT 10SM HZ FEW018 FEW039 SCT060 29/25 A2992 RMK AO2 RAB21E37 SLP137 P0000 T02940250
KVLL 011554Z AUTO 29009G15KT 10SM CLR 26/11 A2994 RMK AO2 T02640110
KVNC 011555Z AUTO 16007KT 10SM VCTS CLR 28/26 A2999 RMK AO2 LTG DSNT NE AND E
KVNY 011551Z 18005KT 7SM OVC010 21/17 A3000 RMK AO2 SLP149 T02060167
KVOA 011555Z AUTO 27010KT 10SM CLR 30/25 A2988 RMK A01
KVOK 011558Z 35006KT 10SM SCT060 25/14 A2998 RMK AO2A SLP152
KVPC 011553Z AUTO 35005KT 10SM CLR 31/18 A3002 RMK AO2 SLP152 T03060183
KVPS 011555Z 06006KT 10SM FEW025 BKN300 31/24 A2990 RMK AO2A SLP130 T03090238 $
KVPZ 011556Z AUTO 29008KT 10SM CLR 27/12 A3001 RMK AO2 SLP157 T02670122 TSNO
KVQQ 011550Z 18008KT 10SM BKN025 29/23 A2993
KVQT 011555Z AUTO VRB05KT 10SM FEW033 SCT050 BKN060 29/25 A2995 RMK A01
KVRB 011553Z 18009KT 10SM OVC110 29/23 A3002 RMK AO2 SLP166 T02890228
KVSF 011554Z AUTO 29013KT 10SM CLR 27/12 A2976 RMK AO2 SLP076 T02720122
KVTA 011554Z AUTO 29006KT 10SM CLR 27/13 A2999 RMK AO2 SLP147 T02670128
KVTI 011555Z AUTO 25008G16KT 10SM CLR 28/19 A3000 RMK AO2 T02750194
KVTN 011552Z AUTO 17017G24KT 10SM -RA FEW070 SCT090 OVC110 17/16 A3013 RMK AO2 SLP190 P0012 T01720156 TSNO
KVTP 011554Z AUTO 10SM SCT120 13/06 A3056 RMK AO2
KVUJ 011555Z AUTO 12006KT 10SM CLR 31/16 A3002 RMK AO2 LTG DSNT E
KVUO 011553Z AUTO 33006KT 10SM CLR 21/11 A2998 RMK AO2 SLP151 T02060106
KVVG 011555Z AUTO 18010G23KT 5SM BR 27/27 A2989 RMK A01
KVVV 011554Z AUTO 10006KT 10SM CLR 24/17 A2995 RMK AO2
KVWU 011549Z AUTO 22008KT 10SM CLR 23/16 A2990 RMK AO2
KVYS 011555Z AUTO 28004KT 10SM CLR 26/15 A3003 RMK AO2 T02610154
KW13 011555Z AUTO 26006KT 10SM CLR 26/17 A2998 RMK AO1 T02620173
KW22 011555Z AUTO 28008KT 10SM SCT046 25/13 A3001 RMK AO2
KW29 011604Z AUTO 27005KT 10SM 28/16 A2989 RMK AO1
KW31 011555Z AUTO 00000KT 10SM CLR 29/17 A2995 RMK AO1 T02870169
KW43 011555Z AUTO 00000KT 10SM CLR 26/10 A3011 RMK AO2
KW63 011555Z AUTO 00000KT 10SM CLR 29/17 A2995 RMK AO1
KW75 011555Z AUTO 14003KT 10SM CLR 30/20 A2991 RMK AO1 T02950200
KW78 011555Z AUTO 17004KT 10SM CLR 29/19 A2996 RMK AO1 T02930187
KW81 011555Z AUTO 00000KT 10SM CLR A2994 RMK AO1
KW96 011555Z AUTO 00000KT 10SM CLR 30/19 A2991 RMK AO1 T03010186
KW99 011555Z AUTO 00000KT 10SM SCT050 BKN065 A2996 RMK AO2
KWAL 011554Z AUTO 22008KT 190V260 10SM CLR 31/21 A2990 RMK AO2 SLP123 T03110206
KWDG 011555Z 18012KT 10SM BKN200 31/21 A3007
KWDR 011555Z AUTO 06004KT 10SM OVC049 28/19 A3004 RMK AO1
KWHP 011547Z 11003KT 5SM HZ BKN010 20/17 A3004
KWJF 011556Z 00000KT 10SM CLR 29/11 A3003 RMK AO2 SLP146 T02890106
KWLD 011554Z AUTO 22005KT 10SM CLR 29/23 A3010 RMK AO2 SLP179 T02890233
KWMC 011556Z AUTO 05007KT 10SM CLR 27/M04 A3013 RMK AO2 SLP146 T02721039 TSNO
KWRB 011558Z AUTO VRB02KT 10SM CLR 30/23 A2994 RMK AO2 SLP138 T02970234
KWRI 011558Z AUTO 29010KT 10SM SCT085 29/18 A2982 RMK AO2 SLP097 T02930183
KWRL 011553Z AUTO 00000KT 10SM CLR 26/00 A3014 RMK AO2 SLP158 T02610000
KWST 011553Z AUTO 24007KT 10SM CLR 27/18 A2979 RMK AO2 SLP086 T02720183
KWVI 011553Z AUTO VRB03KT 10SM OVC012 18/14 A3004 RMK AO2 SLP172 T01780144 $
KWVL 011555Z 29007KT 10SM FEW038 26/16 A2966 RMK AO1
KWWD 011555Z AUTO 27010KT 10SM CLR 31/18 A2988 RMK AO1
KWWR 011555Z AUTO 21008KT 10SM CLR 28/19 A3014 RMK AO2
KWYS 011550Z AUTO 00000KT 10SM 14/04 A3036 RMK AO2
KXIH 011555Z AUTO 08014KT 10SM CLR 30/22 A2996 RMK A01
KXLL 011555Z AUTO 26007G15KT 10SM SCT048 SCT055 27/16 A2986 RMK AO2
KXMR 011558Z AUTO 20008KT 10SM CLR 29/23 A2999 RMK AO2 SLP159 T02860227 $
KXNA 011553Z 22005KT 10SM CLR 29/19 A3011 RMK AO2 SLP182 T02940194
KXPY 011555Z AUTO 35007KT 10SM CLR 30/23 A2993 RMK A01
KXSA 011555Z AUTO 00000KT 10SM CLR 30/15 A2992 RMK AO2 T03010154
KXVG 011556Z AUTO 30004KT 10SM CLR 24/12 A2994 RMK AO2
KY19 011555Z AUTO 22007KT 10SM CLR 25/14 A2989 RMK AO2
KY23 011555Z AUTO 00000KT 10SM CLR 24/12 A2996 RMK AO2 T02400115
KY49 011555Z AUTO 00000KT 10SM CLR 23/12 A2994 RMK AO2 T02270122
KY50 011556Z AUTO 32008KT 280V350 10SM SCT060 27/09 A2997 RMK AO2 TSNO T02660094 SLP142
KY51 011555Z AUTO 23004KT 10SM CLR 25/17 A3000 RMK AO1 T02470165
KY63 011557Z AUTO 18003KT 10SM SCT120 24/14 A2996 RMK AO2 T02400137
KY70 011557Z AUTO 27010KT 10SM CLR 27/13 A2992 RMK AO2 T02690131
KYIP 011553Z 28008G16KT 10SM CLR 28/13 A2994 RMK AO2 SLP131 T02830128
KYKM 011553Z VRB04KT 10SM CLR 28/06 A2995 RMK AO2 SLP132 T02780061
KYKN 011555Z AUTO 22014KT 10SM CLR 24/17 A3000 RMK AO1
KYNG 011551Z VRB04KT 10SM SCT042 SCT050 BKN080 24/14 A2995 RMK AO2 SLP133 T02440139
KZPH 011555Z AUTO 00000KT 10SM BKN018 BKN028 OVC060 24/21 A3000 RMK AO2 LTG DSNT SE AND S
KZZV 011553Z AUTO 30008KT 10SM CLR 26/12 A2999 RMK AO2 SLP147 T02610122